Darstellungsparameter: Aktuell verwendete Einstellungen:
Skalierung der Graphiken ... ?
xyx+y,   Skalierungsfaktor:      Skalierung: Modus: x, Faktor: 1
Darstellungszeitraum ... ?
Vom - - bis: - -   Zeitraum: 19.01.2019 - 18.02.2019
Min/Max/Avg-Anzeige ... ?
Zeige MMA aktuell
Zeige MMA Monat
Zeige MMA alles
Zeige --A aktuell
Zeige --A Monat
Zeige --A alles
Keine MMA-Anzeige
MMA:
Keine MMA-Graphiken
MMA-Basis: 19.01.2019 - 18.02.2019
Quicknavigation für Darstellung... ?
Tage:      1T, 2T, 3T, 5T -1T -2T -3T -5T +1T +2T +3T +5T
Wochen: 1W, 2W, 3W -1W -2W -3W +1W +2W +3W
Monate: 1M, 3M, 6M -1M -3M -6M +1M +3M +6M
Jahre:    1J, 3J, 5J, 10J -1J -3J -5J -10J +1J +3J +5J +10J
Nutze für die Darstellung ... ?
Originaldaten oder Mittelwerte auf ...
Stundenbasis Tagesbasis Wochenbasis
Monatsbasis Jahresbasis      Datenbasis: Original-Daten
Darstellen als:
Statistik (Auto) Statistik J:M      Darstellung:
Zur Graphik,    zurück zur Übersicht aller Sensoren.
 
Tabellarische Datenbersicht: ?
 
Sensor: Nr:Datum:Temp:Feuchte:Taupunkt:
Aussen-T/F 1 19-01-2019 00:00:00 -1.7 C 93 % -2.68 C
2 19-01-2019 00:05:00 -1.8 C 93 % -2.78 C
3 19-01-2019 00:10:00 -1.8 C 93 % -2.78 C
4 19-01-2019 00:15:00 -1.8 C 93 % -2.78 C
5 19-01-2019 00:20:00 -1.9 C 93 % -2.88 C
6 19-01-2019 00:25:00 -2 C 93 % -2.98 C
7 19-01-2019 00:30:00 -2.1 C 93 % -3.08 C
8 19-01-2019 00:35:00 -2.1 C 93 % -3.08 C
9 19-01-2019 00:40:00 -2.2 C 93 % -3.18 C
10 19-01-2019 00:45:00 -2.2 C 93 % -3.18 C
11 19-01-2019 00:50:00 -2.2 C 93 % -3.18 C
12 19-01-2019 00:55:00 -2.3 C 94 % -3.13 C
13 19-01-2019 01:00:00 -2.3 C 94 % -3.13 C
14 19-01-2019 01:05:00 -2.4 C 93 % -3.37 C
15 19-01-2019 01:10:00 -2.4 C 93 % -3.37 C
16 19-01-2019 01:15:00 -2.5 C 94 % -3.33 C
17 19-01-2019 01:20:00 -2.6 C 94 % -3.43 C
18 19-01-2019 01:25:00 -2.6 C 94 % -3.43 C
19 19-01-2019 01:30:00 -2.6 C 94 % -3.43 C
20 19-01-2019 01:35:00 -2.7 C 94 % -3.53 C
21 19-01-2019 01:40:00 -2.7 C 94 % -3.53 C
22 19-01-2019 01:45:00 -2.7 C 94 % -3.53 C
23 19-01-2019 01:50:00 -2.7 C 94 % -3.53 C
24 19-01-2019 01:55:00 -2.8 C 94 % -3.63 C
25 19-01-2019 02:00:00 -2.8 C 94 % -3.63 C
Sensor: Nr:Datum:Temp:Feuchte:Taupunkt:
Aussen-T/F 26 19-01-2019 02:05:00 -2.8 C 94 % -3.63 C
27 19-01-2019 02:10:00 -2.8 C 94 % -3.63 C
28 19-01-2019 02:15:00 -2.8 C 94 % -3.63 C
29 19-01-2019 02:20:00 -2.9 C 94 % -3.73 C
30 19-01-2019 02:25:00 -2.9 C 94 % -3.73 C
31 19-01-2019 02:30:00 -2.9 C 94 % -3.73 C
32 19-01-2019 02:35:00 -3 C 94 % -3.83 C
33 19-01-2019 02:40:00 -3 C 94 % -3.83 C
34 19-01-2019 02:45:00 -3 C 94 % -3.83 C
35 19-01-2019 02:50:00 -2.9 C 94 % -3.73 C
36 19-01-2019 02:55:00 -3 C 94 % -3.83 C
37 19-01-2019 03:00:00 -3.1 C 94 % -3.93 C
38 19-01-2019 03:05:00 -3.2 C 94 % -4.03 C
39 19-01-2019 03:10:00 -3.2 C 94 % -4.03 C
40 19-01-2019 03:15:00 -3.2 C 95 % -3.88 C
41 19-01-2019 03:20:00 -3.2 C 95 % -3.88 C
42 19-01-2019 03:25:00 -3.2 C 95 % -3.88 C
43 19-01-2019 03:30:00 -3.2 C 95 % -3.88 C
44 19-01-2019 03:35:00 -3.2 C 95 % -3.88 C
45 19-01-2019 03:40:00 -3.2 C 95 % -3.88 C
46 19-01-2019 03:45:00 -3.3 C 94 % -4.13 C
47 19-01-2019 03:50:00 -3.4 C 95 % -4.08 C
48 19-01-2019 03:55:00 -3.4 C 95 % -4.08 C
49 19-01-2019 04:00:00 -3.4 C 95 % -4.08 C
50 19-01-2019 04:05:00 -3.5 C 95 % -4.18 C
Sensor: Nr:Datum:Temp:Feuchte:Taupunkt:
Aussen-T/F 51 19-01-2019 04:10:00 -3.6 C 95 % -4.28 C
52 19-01-2019 04:15:00 -3.6 C 94 % -4.42 C
53 19-01-2019 04:20:00 -3.6 C 95 % -4.28 C
54 19-01-2019 04:25:00 -3.6 C 95 % -4.28 C
55 19-01-2019 04:30:00 -3.6 C 95 % -4.28 C
56 19-01-2019 04:35:00 -3.6 C 95 % -4.28 C
57 19-01-2019 04:40:00 -3.6 C 95 % -4.28 C
58 19-01-2019 04:45:00 -3.6 C 95 % -4.28 C
59 19-01-2019 04:50:00 -3.6 C 95 % -4.28 C
60 19-01-2019 04:55:00 -3.6 C 95 % -4.28 C
61 19-01-2019 05:00:00 -3.6 C 95 % -4.28 C
62 19-01-2019 05:05:00 -3.7 C 95 % -4.38 C
63 19-01-2019 05:10:00 -3.7 C 95 % -4.38 C
64 19-01-2019 05:15:00 -3.8 C 95 % -4.48 C
65 19-01-2019 05:20:00 -3.8 C 95 % -4.48 C
66 19-01-2019 05:25:00 -3.9 C 95 % -4.58 C
67 19-01-2019 05:30:00 -3.9 C 95 % -4.58 C
68 19-01-2019 05:35:00 -4 C 95 % -4.68 C
69 19-01-2019 05:40:00 -4.1 C 95 % -4.78 C
70 19-01-2019 05:45:00 -4 C 95 % -4.68 C
71 19-01-2019 05:50:00 -3.9 C 95 % -4.58 C
72 19-01-2019 05:55:00 -3.8 C 95 % -4.48 C
73 19-01-2019 06:00:00 -3.7 C 95 % -4.38 C
74 19-01-2019 06:05:00 -3.7 C 95 % -4.38 C
75 19-01-2019 06:10:00 -3.7 C 95 % -4.38 C
Sensor: Nr:Datum:Temp:Feuchte:Taupunkt:
Aussen-T/F 76 19-01-2019 06:15:00 -3.8 C 95 % -4.48 C
77 19-01-2019 06:20:00 -3.9 C 95 % -4.58 C
78 19-01-2019 06:25:00 -4.1 C 95 % -4.78 C
79 19-01-2019 06:30:00 -4.2 C 95 % -4.88 C
80 19-01-2019 06:35:00 -4.3 C 95 % -4.98 C
81 19-01-2019 06:40:00 -4.3 C 95 % -4.98 C
82 19-01-2019 06:45:00 -4.4 C 95 % -5.08 C
83 19-01-2019 06:50:00 -4.3 C 95 % -4.98 C
84 19-01-2019 06:55:00 -4.3 C 95 % -4.98 C
85 19-01-2019 07:00:00 -4.3 C 95 % -4.98 C
86 19-01-2019 07:05:00 -4.4 C 95 % -5.08 C
87 19-01-2019 07:10:00 -4.4 C 95 % -5.08 C
88 19-01-2019 07:15:00 -4.4 C 95 % -5.08 C
89 19-01-2019 07:20:00 -4.4 C 95 % -5.08 C
90 19-01-2019 07:25:00 -4.4 C 95 % -5.08 C
91 19-01-2019 07:30:00 -4.6 C 95 % -5.28 C
92 19-01-2019 07:35:00 -4.6 C 95 % -5.28 C
93 19-01-2019 07:40:00 -4.6 C 95 % -5.28 C
94 19-01-2019 07:45:00 -4.6 C 95 % -5.28 C
95 19-01-2019 07:50:00 -4.7 C 95 % -5.38 C
96 19-01-2019 07:55:00 -4.7 C 95 % -5.38 C
97 19-01-2019 08:00:00 -4.7 C 95 % -5.38 C
98 19-01-2019 08:05:00 -4.7 C 95 % -5.38 C
99 19-01-2019 08:10:00 -4.8 C 95 % -5.48 C
100 19-01-2019 08:15:00 -4.8 C 95 % -5.48 C
Sensor: Nr:Datum:Temp:Feuchte:Taupunkt:
Aussen-T/F 101 19-01-2019 08:20:00 -4.8 C 95 % -5.48 C
102 19-01-2019 08:25:00 -4.8 C 95 % -5.48 C
103 19-01-2019 08:30:00 -4.8 C 95 % -5.48 C
104 19-01-2019 08:35:00 -4.8 C 95 % -5.48 C
105 19-01-2019 08:40:00 -4.8 C 95 % -5.48 C
106 19-01-2019 08:45:00 -4.8 C 95 % -5.48 C
107 19-01-2019 08:50:00 -4.8 C 95 % -5.48 C
108 19-01-2019 08:55:00 -4.8 C 95 % -5.48 C
109 19-01-2019 09:00:00 -4.7 C 95 % -5.38 C
110 19-01-2019 09:05:00 -4.7 C 95 % -5.38 C
111 19-01-2019 09:10:00 -4.7 C 95 % -5.38 C
112 19-01-2019 09:15:00 -4.7 C 95 % -5.38 C
113 19-01-2019 09:20:00 -4.6 C 95 % -5.28 C
114 19-01-2019 09:25:00 -4.6 C 95 % -5.28 C
115 19-01-2019 09:30:00 -4.6 C 95 % -5.28 C
116 19-01-2019 09:35:00 -4.5 C 95 % -5.18 C
117 19-01-2019 09:40:00 -4.5 C 95 % -5.18 C
118 19-01-2019 09:45:00 -4.5 C 95 % -5.18 C
119 19-01-2019 09:50:00 -4.5 C 95 % -5.18 C
120 19-01-2019 09:55:00 -4.4 C 95 % -5.08 C
121 19-01-2019 10:00:00 -4.4 C 95 % -5.08 C
122 19-01-2019 10:05:00 -4.3 C 95 % -4.98 C
123 19-01-2019 10:10:00 -4.3 C 95 % -4.98 C
124 19-01-2019 10:15:00 -4.2 C 95 % -4.88 C
125 19-01-2019 10:20:00 -4.1 C 96 % -4.64 C
Sensor: Nr:Datum:Temp:Feuchte:Taupunkt:
Aussen-T/F 126 19-01-2019 10:25:00 -4 C 95 % -4.68 C
127 19-01-2019 10:30:00 -3.9 C 96 % -4.44 C
128 19-01-2019 10:35:00 -3.7 C 96 % -4.24 C
129 19-01-2019 10:40:00 -3.6 C 96 % -4.14 C
130 19-01-2019 10:45:00 -3.4 C 96 % -3.94 C
131 19-01-2019 10:50:00 -3.3 C 96 % -3.84 C
132 19-01-2019 10:55:00 -3.2 C 96 % -3.75 C
133 19-01-2019 11:00:00 -3.1 C 96 % -3.65 C
134 19-01-2019 11:05:00 -2.9 C 96 % -3.45 C
135 19-01-2019 11:10:00 -2.9 C 96 % -3.45 C
136 19-01-2019 11:15:00 -2.8 C 96 % -3.35 C
137 19-01-2019 11:20:00 -2.8 C 96 % -3.35 C
138 19-01-2019 11:25:00 -2.8 C 96 % -3.35 C
139 19-01-2019 11:30:00 -2.7 C 96 % -3.25 C
140 19-01-2019 11:35:00 -2.7 C 96 % -3.25 C
141 19-01-2019 11:40:00 -2.7 C 96 % -3.25 C
142 19-01-2019 11:45:00 -2.6 C 96 % -3.15 C
143 19-01-2019 11:50:00 -2.6 C 96 % -3.15 C
144 19-01-2019 11:55:00 -2.6 C 96 % -3.15 C
145 19-01-2019 12:00:00 -2.5 C 96 % -3.05 C
146 19-01-2019 12:05:00 -2.4 C 96 % -2.95 C
147 19-01-2019 12:10:00 -2.4 C 96 % -2.95 C
148 19-01-2019 12:15:00 -2.4 C 96 % -2.95 C
149 19-01-2019 12:20:00 -2.3 C 96 % -2.85 C
150 19-01-2019 12:25:00 -2.3 C 96 % -2.85 C
Sensor: Nr:Datum:Temp:Feuchte:Taupunkt:
Aussen-T/F 151 19-01-2019 12:30:00 -2.2 C 96 % -2.75 C
152 19-01-2019 12:35:00 -2.2 C 96 % -2.75 C
153 19-01-2019 12:40:00 -2.2 C 96 % -2.75 C
154 19-01-2019 12:45:00 -2.1 C 96 % -2.65 C
155 19-01-2019 12:50:00 -1.9 C 96 % -2.45 C
156 19-01-2019 12:55:00 -1.9 C 96 % -2.45 C
157 19-01-2019 13:00:00 -1.8 C 96 % -2.35 C
158 19-01-2019 13:05:00 -1.7 C 96 % -2.25 C
159 19-01-2019 13:10:00 -1.7 C 96 % -2.25 C
160 19-01-2019 13:15:00 -1.6 C 96 % -2.15 C
161 19-01-2019 13:20:00 -1.5 C 96 % -2.05 C
162 19-01-2019 13:25:00 -1.4 C 96 % -1.95 C
163 19-01-2019 13:30:00 -1.3 C 96 % -1.85 C
164 19-01-2019 13:35:00 -1.3 C 96 % -1.85 C
165 19-01-2019 13:40:00 -1.2 C 96 % -1.75 C
166 19-01-2019 13:45:00 -1.1 C 96 % -1.66 C
167 19-01-2019 13:50:00 -0.9 C 96 % -1.46 C
168 19-01-2019 13:55:00 -0.8 C 96 % -1.36 C
169 19-01-2019 14:00:00 -0.7 C 96 % -1.26 C
170 19-01-2019 14:05:00 -0.6 C 96 % -1.16 C
171 19-01-2019 14:10:00 -0.6 C 96 % -1.16 C
172 19-01-2019 14:15:00 -0.4 C 95 % -1.1 C
173 19-01-2019 14:20:00 -0.3 C 96 % -0.86 C
174 19-01-2019 14:25:00 -0.2 C 96 % -0.76 C
175 19-01-2019 14:30:00 -0.2 C 95 % -0.9 C
Sensor: Nr:Datum:Temp:Feuchte:Taupunkt:
Aussen-T/F 176 19-01-2019 14:35:00 -0.1 C 95 % -0.8 C
177 19-01-2019 14:40:00 0.1 C 95 % -0.6 C
178 19-01-2019 14:45:00 0.1 C 95 % -0.6 C
179 19-01-2019 14:50:00 0.2 C 95 % -0.5 C
180 19-01-2019 14:55:00 0.2 C 95 % -0.5 C
181 19-01-2019 15:00:00 0.2 C 95 % -0.5 C
182 19-01-2019 15:05:00 0.1 C 95 % -0.6 C
183 19-01-2019 15:10:00 0.1 C 94 % -0.75 C
184 19-01-2019 15:15:00 0.1 C 94 % -0.75 C
185 19-01-2019 15:20:00 0.1 C 94 % -0.75 C
186 19-01-2019 15:25:00 0.1 C 94 % -0.75 C
187 19-01-2019 15:30:00 0.1 C 94 % -0.75 C
188 19-01-2019 15:35:00 0.1 C 94 % -0.75 C
189 19-01-2019 15:40:00 0 C 94 % -0.85 C
190 19-01-2019 15:45:00 0 C 94 % -0.85 C
191 19-01-2019 15:50:00 0 C 94 % -0.85 C
192 19-01-2019 15:55:00 0.1 C 93 % -0.89 C
193 19-01-2019 16:00:00 0.1 C 93 % -0.89 C
194 19-01-2019 16:05:00 0.1 C 93 % -0.89 C
195 19-01-2019 16:10:00 0.1 C 93 % -0.89 C
196 19-01-2019 16:15:00 0.1 C 93 % -0.89 C
197 19-01-2019 16:20:00 0.1 C 93 % -0.89 C
198 19-01-2019 16:25:00 0.1 C 93 % -0.89 C
199 19-01-2019 16:30:00 -0.1 C 92 % -1.24 C
200 19-01-2019 16:35:00 -0.1 C 92 % -1.24 C
Sensor: Nr:Datum:Temp:Feuchte:Taupunkt:
Aussen-T/F 201 19-01-2019 16:40:00 -0.2 C 92 % -1.34 C
202 19-01-2019 16:45:00 -0.3 C 91 % -1.59 C
203 19-01-2019 16:50:00 -0.4 C 91 % -1.69 C
204 19-01-2019 16:55:00 -0.5 C 90 % -1.93 C
205 19-01-2019 17:00:00 -0.6 C 90 % -2.03 C
206 19-01-2019 17:05:00 -0.7 C 90 % -2.13 C
207 19-01-2019 17:10:00 -0.8 C 90 % -2.23 C
208 19-01-2019 17:15:00 -0.9 C 90 % -2.33 C
209 19-01-2019 17:20:00 -1 C 89 % -2.58 C
210 19-01-2019 17:25:00 -1.1 C 89 % -2.68 C
211 19-01-2019 17:30:00 -1.2 C 89 % -2.78 C
212 19-01-2019 17:35:00 -1.2 C 89 % -2.78 C
213 19-01-2019 17:40:00 -1.3 C 89 % -2.88 C
214 19-01-2019 17:45:00 -1.3 C 89 % -2.88 C
215 19-01-2019 17:50:00 -1.3 C 89 % -2.88 C
216 19-01-2019 17:55:00 -1.4 C 89 % -2.97 C
217 19-01-2019 18:00:00 -1.4 C 89 % -2.97 C
218 19-01-2019 18:05:00 -1.5 C 89 % -3.07 C
219 19-01-2019 18:10:00 -1.6 C 89 % -3.17 C
220 19-01-2019 18:15:00 -1.6 C 89 % -3.17 C
221 19-01-2019 18:20:00 -1.6 C 89 % -3.17 C
222 19-01-2019 18:25:00 -1.7 C 89 % -3.27 C
223 19-01-2019 18:30:00 -1.7 C 89 % -3.27 C
224 19-01-2019 18:35:00 -1.8 C 89 % -3.37 C
225 19-01-2019 18:40:00 -1.9 C 89 % -3.47 C
Sensor: Nr:Datum:Temp:Feuchte:Taupunkt:
Aussen-T/F 226 19-01-2019 18:45:00 -2 C 89 % -3.57 C
227 19-01-2019 18:50:00 -2.1 C 89 % -3.66 C
228 19-01-2019 18:55:00 -2.1 C 90 % -3.52 C
229 19-01-2019 19:00:00 -2.2 C 90 % -3.61 C
230 19-01-2019 19:05:00 -2.2 C 89 % -3.76 C
231 19-01-2019 19:10:00 -2.3 C 89 % -3.86 C
232 19-01-2019 19:15:00 -2.3 C 89 % -3.86 C
233 19-01-2019 19:20:00 -2.4 C 89 % -3.96 C
234 19-01-2019 19:25:00 -2.4 C 89 % -3.96 C
235 19-01-2019 19:30:00 -2.5 C 89 % -4.06 C
236 19-01-2019 19:35:00 -2.6 C 89 % -4.16 C
237 19-01-2019 19:40:00 -2.6 C 89 % -4.16 C
238 19-01-2019 19:45:00 -2.6 C 89 % -4.16 C
239 19-01-2019 19:50:00 -2.6 C 89 % -4.16 C
240 19-01-2019 19:55:00 -2.6 C 89 % -4.16 C
241 19-01-2019 20:00:00 -2.6 C 89 % -4.16 C
242 19-01-2019 20:05:00 -2.6 C 90 % -4.01 C
243 19-01-2019 20:10:00 -2.6 C 90 % -4.01 C
244 19-01-2019 20:15:00 -2.7 C 90 % -4.11 C
245 19-01-2019 20:20:00 -2.7 C 90 % -4.11 C
246 19-01-2019 20:25:00 -2.7 C 90 % -4.11 C
247 19-01-2019 20:30:00 -2.7 C 90 % -4.11 C
248 19-01-2019 20:35:00 -2.7 C 90 % -4.11 C
249 19-01-2019 20:40:00 -2.7 C 90 % -4.11 C
250 19-01-2019 20:45:00 -2.7 C 90 % -4.11 C
Sensor: Nr:Datum:Temp:Feuchte:Taupunkt:
Aussen-T/F 251 19-01-2019 20:50:00 -2.8 C 90 % -4.21 C
252 19-01-2019 20:55:00 -2.8 C 90 % -4.21 C
253 19-01-2019 21:00:00 -2.8 C 90 % -4.21 C
254 19-01-2019 21:05:00 -2.8 C 90 % -4.21 C
255 19-01-2019 21:10:00 -2.8 C 90 % -4.21 C
256 19-01-2019 21:15:00 -2.7 C 90 % -4.11 C
257 19-01-2019 21:20:00 -2.7 C 90 % -4.11 C
258 19-01-2019 21:25:00 -2.7 C 90 % -4.11 C
259 19-01-2019 21:30:00 -2.8 C 89 % -4.36 C
260 19-01-2019 21:35:00 -2.8 C 89 % -4.36 C
261 19-01-2019 21:40:00 -2.9 C 90 % -4.31 C
262 19-01-2019 21:45:00 -3 C 90 % -4.4 C
263 19-01-2019 21:50:00 -3.1 C 90 % -4.5 C
264 19-01-2019 21:55:00 -3.2 C 90 % -4.6 C
265 19-01-2019 22:00:00 -3.3 C 90 % -4.7 C
266 19-01-2019 22:05:00 -3.3 C 90 % -4.7 C
267 19-01-2019 22:10:00 -3.4 C 90 % -4.8 C
268 19-01-2019 22:15:00 -3.6 C 90 % -5 C
269 19-01-2019 22:20:00 -3.7 C 90 % -5.1 C
270 19-01-2019 22:25:00 -3.8 C 90 % -5.2 C
271 19-01-2019 22:30:00 -3.8 C 90 % -5.2 C
272 19-01-2019 22:35:00 -3.9 C 90 % -5.29 C
273 19-01-2019 22:40:00 -4 C 91 % -5.25 C
274 19-01-2019 22:45:00 -4 C 91 % -5.25 C
275 19-01-2019 22:50:00 -4.1 C 91 % -5.35 C
Sensor: Nr:Datum:Temp:Feuchte:Taupunkt:
Aussen-T/F 276 19-01-2019 22:55:00 -4.1 C 91 % -5.35 C
277 19-01-2019 23:00:00 -4.1 C 91 % -5.35 C
278 19-01-2019 23:05:00 -4.2 C 91 % -5.45 C
279 19-01-2019 23:10:00 -4.2 C 91 % -5.45 C
280 19-01-2019 23:15:00 -4.3 C 91 % -5.54 C
281 19-01-2019 23:20:00 -4.3 C 92 % -5.4 C
282 19-01-2019 23:25:00 -4.3 C 92 % -5.4 C
283 19-01-2019 23:30:00 -4.3 C 92 % -5.4 C
284 19-01-2019 23:35:00 -4.3 C 92 % -5.4 C
285 19-01-2019 23:40:00 -4.3 C 92 % -5.4 C
286 19-01-2019 23:45:00 -4.3 C 92 % -5.4 C
287 19-01-2019 23:50:00 -4.5 C 91 % -5.74 C
288 19-01-2019 23:55:00 -4.5 C 92 % -5.6 C
289 20-01-2019 00:00:00 -4.6 C 92 % -5.7 C
290 20-01-2019 00:05:00 -4.6 C 92 % -5.7 C
291 20-01-2019 00:10:00 -4.7 C 92 % -5.8 C
292 20-01-2019 00:15:00 -4.7 C 92 % -5.8 C
293 20-01-2019 00:20:00 -4.7 C 92 % -5.8 C
294 20-01-2019 00:25:00 -4.8 C 92 % -5.9 C
295 20-01-2019 00:30:00 -4.8 C 92 % -5.9 C
296 20-01-2019 00:35:00 -4.7 C 93 % -5.66 C
297 20-01-2019 00:40:00 -4.7 C 93 % -5.66 C
298 20-01-2019 00:45:00 -4.8 C 93 % -5.75 C
299 20-01-2019 00:50:00 -4.8 C 93 % -5.75 C
300 20-01-2019 00:55:00 -4.9 C 92 % -6 C
Sensor: Nr:Datum:Temp:Feuchte:Taupunkt:
Aussen-T/F 301 20-01-2019 01:00:00 -5.1 C 92 % -6.19 C
302 20-01-2019 01:05:00 -5.1 C 92 % -6.19 C
303 20-01-2019 01:10:00 -5.2 C 93 % -6.15 C
304 20-01-2019 01:15:00 -5.2 C 93 % -6.15 C
305 20-01-2019 01:20:00 -5.3 C 93 % -6.25 C
306 20-01-2019 01:25:00 -5.3 C 93 % -6.25 C
307 20-01-2019 01:30:00 -5.4 C 93 % -6.35 C
308 20-01-2019 01:35:00 -5.4 C 93 % -6.35 C
309 20-01-2019 01:40:00 -5.4 C 93 % -6.35 C
310 20-01-2019 01:45:00 -5.3 C 93 % -6.25 C
311 20-01-2019 01:50:00 -5.4 C 93 % -6.35 C
312 20-01-2019 01:55:00 -5.4 C 93 % -6.35 C
313 20-01-2019 02:00:00 -5.4 C 93 % -6.35 C
314 20-01-2019 02:05:00 -5.5 C 93 % -6.45 C
315 20-01-2019 02:10:00 -5.6 C 93 % -6.55 C
316 20-01-2019 02:15:00 -5.7 C 93 % -6.65 C
317 20-01-2019 02:20:00 -5.7 C 93 % -6.65 C
318 20-01-2019 02:25:00 -5.7 C 93 % -6.65 C
319 20-01-2019 02:30:00 -5.7 C 93 % -6.65 C
320 20-01-2019 02:35:00 -5.6 C 93 % -6.55 C
321 20-01-2019 02:40:00 -5.6 C 93 % -6.55 C
322 20-01-2019 02:45:00 -5.7 C 93 % -6.65 C
323 20-01-2019 02:50:00 -5.7 C 93 % -6.65 C
324 20-01-2019 02:55:00 -5.7 C 93 % -6.65 C
325 20-01-2019 03:00:00 -5.7 C 93 % -6.65 C
Sensor: Nr:Datum:Temp:Feuchte:Taupunkt:
Aussen-T/F 326 20-01-2019 03:05:00 -5.7 C 93 % -6.65 C
327 20-01-2019 03:10:00 -5.7 C 93 % -6.65 C
328 20-01-2019 03:15:00 -5.7 C 93 % -6.65 C
329 20-01-2019 03:20:00 -5.8 C 93 % -6.75 C
330 20-01-2019 03:25:00 -5.8 C 93 % -6.75 C
331 20-01-2019 03:30:00 -5.8 C 94 % -6.61 C
332 20-01-2019 03:35:00 -5.8 C 94 % -6.61 C
333 20-01-2019 03:40:00 -5.9 C 94 % -6.71 C
334 20-01-2019 03:45:00 -5.9 C 93 % -6.85 C
335 20-01-2019 03:50:00 -6 C 93 % -6.95 C
336 20-01-2019 03:55:00 -6.1 C 93 % -7.04 C
337 20-01-2019 04:00:00 -6.2 C 93 % -7.14 C
338 20-01-2019 04:05:00 -6.2 C 93 % -7.14 C
339 20-01-2019 04:10:00 -6.2 C 93 % -7.14 C
340 20-01-2019 04:15:00 -6.2 C 93 % -7.14 C
341 20-01-2019 04:20:00 -6.2 C 93 % -7.14 C
342 20-01-2019 04:25:00 -6.2 C 93 % -7.14 C
343 20-01-2019 04:30:00 -6.2 C 93 % -7.14 C
344 20-01-2019 04:35:00 -6.2 C 93 % -7.14 C
345 20-01-2019 04:40:00 -6.3 C 93 % -7.24 C
346 20-01-2019 04:45:00 -6.3 C 93 % -7.24 C
347 20-01-2019 04:50:00 -6.3 C 93 % -7.24 C
348 20-01-2019 04:55:00 -6.4 C 93 % -7.34 C
349 20-01-2019 05:00:00 -6.4 C 93 % -7.34 C
350 20-01-2019 05:05:00 -6.6 C 93 % -7.54 C
Sensor: Nr:Datum:Temp:Feuchte:Taupunkt:
Aussen-T/F 351 20-01-2019 05:10:00 -6.6 C 93 % -7.54 C
352 20-01-2019 05:15:00 -6.6 C 93 % -7.54 C
353 20-01-2019 05:20:00 -6.6 C 93 % -7.54 C
354 20-01-2019 05:25:00 -6.6 C 93 % -7.54 C
355 20-01-2019 05:30:00 -6.6 C 93 % -7.54 C
356 20-01-2019 05:35:00 -6.7 C 93 % -7.64 C
357 20-01-2019 05:40:00 -6.7 C 93 % -7.64 C
358 20-01-2019 05:45:00 -6.7 C 94 % -7.5 C
359 20-01-2019 05:50:00 -6.7 C 94 % -7.5 C
360 20-01-2019 05:55:00 -6.7 C 94 % -7.5 C
361 20-01-2019 06:00:00 -6.7 C 94 % -7.5 C
362 20-01-2019 06:05:00 -6.7 C 93 % -7.64 C
363 20-01-2019 06:10:00 -6.7 C 93 % -7.64 C
364 20-01-2019 06:15:00 -6.7 C 93 % -7.64 C
365 20-01-2019 06:20:00 -6.8 C 94 % -7.6 C
366 20-01-2019 06:25:00 -6.8 C 93 % -7.74 C
367 20-01-2019 06:30:00 -6.9 C 93 % -7.84 C
368 20-01-2019 06:35:00 -6.9 C 93 % -7.84 C
369 20-01-2019 06:40:00 -6.9 C 93 % -7.84 C
370 20-01-2019 06:45:00 -6.9 C 94 % -7.7 C
371 20-01-2019 06:50:00 -6.8 C 94 % -7.6 C
372 20-01-2019 06:55:00 -6.8 C 94 % -7.6 C
373 20-01-2019 07:00:00 -6.8 C 94 % -7.6 C
374 20-01-2019 07:05:00 -6.9 C 93 % -7.84 C
375 20-01-2019 07:10:00 -7 C 93 % -7.94 C
Sensor: Nr:Datum:Temp:Feuchte:Taupunkt:
Aussen-T/F 376 20-01-2019 07:15:00 -7.1 C 93 % -8.04 C
377 20-01-2019 07:20:00 -7.1 C 93 % -8.04 C
378 20-01-2019 07:25:00 -7.1 C 93 % -8.04 C
379 20-01-2019 07:30:00 -7.2 C 93 % -8.14 C
380 20-01-2019 07:35:00 -7.2 C 93 % -8.14 C
381 20-01-2019 07:40:00 -7.2 C 93 % -8.14 C
382 20-01-2019 07:45:00 -7 C 94 % -7.8 C
383 20-01-2019 07:50:00 -6.9 C 94 % -7.7 C
384 20-01-2019 07:55:00 -7.1 C 93 % -8.04 C
385 20-01-2019 08:00:00 -7.2 C 93 % -8.14 C
386 20-01-2019 08:05:00 -7.2 C 93 % -8.14 C
387 20-01-2019 08:10:00 -7.2 C 93 % -8.14 C
388 20-01-2019 08:15:00 -7.3 C 93 % -8.23 C
389 20-01-2019 08:20:00 -7.3 C 93 % -8.23 C
390 20-01-2019 08:25:00 -7.4 C 93 % -8.33 C
391 20-01-2019 08:30:00 -7.4 C 93 % -8.33 C
392 20-01-2019 08:35:00 -7.4 C 93 % -8.33 C
393 20-01-2019 08:40:00 -7.4 C 93 % -8.33 C
394 20-01-2019 08:45:00 -7.4 C 93 % -8.33 C
395 20-01-2019 08:50:00 -7.4 C 93 % -8.33 C
396 20-01-2019 08:55:00 -7.4 C 93 % -8.33 C
397 20-01-2019 09:00:00 -7.3 C 93 % -8.23 C
398 20-01-2019 09:05:00 -7.3 C 94 % -8.1 C
399 20-01-2019 09:10:00 -7.3 C 94 % -8.1 C
400 20-01-2019 09:15:00 -7.2 C 94 % -8 C
Sensor: Nr:Datum:Temp:Feuchte:Taupunkt:
Aussen-T/F 401 20-01-2019 09:20:00 -7.2 C 94 % -8 C
402 20-01-2019 09:25:00 -7.2 C 94 % -8 C
403 20-01-2019 09:30:00 -7.1 C 94 % -7.9 C
404 20-01-2019 09:35:00 -6.9 C 94 % -7.7 C
405 20-01-2019 09:40:00 -6.9 C 94 % -7.7 C
406 20-01-2019 09:45:00 -6.8 C 94 % -7.6 C
407 20-01-2019 09:50:00 -6.7 C 94 % -7.5 C
408 20-01-2019 09:55:00 -6.6 C 94 % -7.4 C
409 20-01-2019 10:00:00 -6.6 C 94 % -7.4 C
410 20-01-2019 10:05:00 -6.5 C 94 % -7.3 C
411 20-01-2019 10:10:00 -6.4 C 94 % -7.2 C
412 20-01-2019 10:15:00 -6.4 C 94 % -7.2 C
413 20-01-2019 10:20:00 -6.4 C 94 % -7.2 C
414 20-01-2019 10:25:00 -6.3 C 94 % -7.1 C
415 20-01-2019 10:30:00 -6.3 C 94 % -7.1 C
416 20-01-2019 10:35:00 -6.3 C 94 % -7.1 C
417 20-01-2019 10:40:00 -6.2 C 94 % -7.01 C
418 20-01-2019 10:45:00 -6.2 C 94 % -7.01 C
419 20-01-2019 10:50:00 -6 C 94 % -6.81 C
420 20-01-2019 10:55:00 -5.9 C 94 % -6.71 C
421 20-01-2019 11:00:00 -5.8 C 94 % -6.61 C
422 20-01-2019 11:05:00 -5.8 C 94 % -6.61 C
423 20-01-2019 11:10:00 -5.7 C 95 % -6.37 C
424 20-01-2019 11:15:00 -5.6 C 95 % -6.27 C
425 20-01-2019 11:20:00 -5.5 C 94 % -6.31 C
Sensor: Nr:Datum:Temp:Feuchte:Taupunkt:
Aussen-T/F 426 20-01-2019 11:25:00 -5.4 C 95 % -6.07 C
427 20-01-2019 11:30:00 -5.3 C 95 % -5.97 C
428 20-01-2019 11:35:00 -5.3 C 94 % -6.11 C
429 20-01-2019 11:40:00 -5.2 C 95 % -5.87 C
430 20-01-2019 11:45:00 -5.1 C 95 % -5.77 C
431 20-01-2019 11:50:00 -4.9 C 95 % -5.58 C
432 20-01-2019 11:55:00 -4.8 C 95 % -5.48 C
433 20-01-2019 12:00:00 -4.7 C 95 % -5.38 C
434 20-01-2019 12:05:00 -4.6 C 95 % -5.28 C
435 20-01-2019 12:10:00 -4.5 C 94 % -5.32 C
436 20-01-2019 12:15:00 -4.4 C 94 % -5.22 C
437 20-01-2019 12:20:00 -4.3 C 95 % -4.98 C
438 20-01-2019 12:25:00 -4.3 C 94 % -5.12 C
439 20-01-2019 12:30:00 -4.2 C 95 % -4.88 C
440 20-01-2019 12:35:00 -4.1 C 95 % -4.78 C
441 20-01-2019 12:40:00 -4 C 94 % -4.82 C
442 20-01-2019 12:45:00 -3.9 C 94 % -4.72 C
443 20-01-2019 12:50:00 -3.8 C 94 % -4.62 C
444 20-01-2019 12:55:00 -3.8 C 94 % -4.62 C
445 20-01-2019 13:00:00 -3.7 C 94 % -4.52 C
446 20-01-2019 13:05:00 -3.6 C 94 % -4.42 C
447 20-01-2019 13:10:00 -3.5 C 94 % -4.32 C
448 20-01-2019 13:15:00 -3.4 C 94 % -4.22 C
449 20-01-2019 13:20:00 -3.4 C 94 % -4.22 C
450 20-01-2019 13:25:00 -3.3 C 94 % -4.13 C
Sensor: Nr:Datum:Temp:Feuchte:Taupunkt:
Aussen-T/F 451 20-01-2019 13:30:00 -3.2 C 94 % -4.03 C
452 20-01-2019 13:35:00 -3.1 C 94 % -3.93 C
453 20-01-2019 13:40:00 -3.1 C 94 % -3.93 C
454 20-01-2019 13:45:00 -3 C 94 % -3.83 C
455 20-01-2019 13:50:00 -2.9 C 94 % -3.73 C
456 20-01-2019 13:55:00 -2.9 C 94 % -3.73 C
457 20-01-2019 14:00:00 -2.8 C 94 % -3.63 C
458 20-01-2019 14:05:00 -2.8 C 94 % -3.63 C
459 20-01-2019 14:10:00 -2.7 C 93 % -3.67 C
460 20-01-2019 14:15:00 -2.7 C 94 % -3.53 C
461 20-01-2019 14:20:00 -2.6 C 93 % -3.57 C
462 20-01-2019 14:25:00 -2.6 C 93 % -3.57 C
463 20-01-2019 14:30:00 -2.6 C 93 % -3.57 C
464 20-01-2019 14:35:00 -2.5 C 93 % -3.47 C
465 20-01-2019 14:40:00 -2.4 C 93 % -3.37 C
466 20-01-2019 14:45:00 -2.4 C 93 % -3.37 C
467 20-01-2019 14:50:00 -2.3 C 93 % -3.28 C
468 20-01-2019 14:55:00 -2.3 C 93 % -3.28 C
469 20-01-2019 15:00:00 -2.3 C 93 % -3.28 C
470 20-01-2019 15:05:00 -2.2 C 93 % -3.18 C
471 20-01-2019 15:10:00 -2.2 C 93 % -3.18 C
472 20-01-2019 15:15:00 -2.2 C 93 % -3.18 C
473 20-01-2019 15:20:00 -2.1 C 93 % -3.08 C
474 20-01-2019 15:25:00 -2.1 C 93 % -3.08 C
475 20-01-2019 15:30:00 -2 C 93 % -2.98 C
Sensor: Nr:Datum:Temp:Feuchte:Taupunkt:
Aussen-T/F 476 20-01-2019 15:35:00 -1.9 C 93 % -2.88 C
477 20-01-2019 15:40:00 -1.9 C 93 % -2.88 C
478 20-01-2019 15:45:00 -1.9 C 92 % -3.02 C
479 20-01-2019 15:50:00 -1.9 C 92 % -3.02 C
480 20-01-2019 15:55:00 -1.8 C 92 % -2.92 C
481 20-01-2019 16:00:00 -1.8 C 92 % -2.92 C
482 20-01-2019 16:05:00 -1.8 C 92 % -2.92 C
483 20-01-2019 16:10:00 -1.9 C 92 % -3.02 C
484 20-01-2019 16:15:00 -1.9 C 92 % -3.02 C
485 20-01-2019 16:20:00 -1.9 C 92 % -3.02 C
486 20-01-2019 16:25:00 -1.9 C 92 % -3.02 C
487 20-01-2019 16:30:00 -1.9 C 92 % -3.02 C
488 20-01-2019 16:35:00 -2 C 92 % -3.12 C
489 20-01-2019 16:40:00 -2.1 C 92 % -3.22 C
490 20-01-2019 16:45:00 -2.1 C 92 % -3.22 C
491 20-01-2019 16:50:00 -2.2 C 91 % -3.47 C
492 20-01-2019 16:55:00 -2.2 C 91 % -3.47 C
493 20-01-2019 17:00:00 -2.3 C 91 % -3.57 C
494 20-01-2019 17:05:00 -2.3 C 91 % -3.57 C
495 20-01-2019 17:10:00 -2.3 C 91 % -3.57 C
496 20-01-2019 17:15:00 -2.3 C 91 % -3.57 C
497 20-01-2019 17:20:00 -2.4 C 91 % -3.66 C
498 20-01-2019 17:25:00 -2.4 C 90 % -3.81 C
499 20-01-2019 17:30:00 -2.6 C 91 % -3.86 C
500 20-01-2019 17:35:00 -2.6 C 91 % -3.86 C
Sensor: Nr:Datum:Temp:Feuchte:Taupunkt:
Aussen-T/F 501 20-01-2019 17:40:00 -2.6 C 91 % -3.86 C
502 20-01-2019 17:45:00 -2.6 C 91 % -3.86 C
503 20-01-2019 17:50:00 -2.7 C 91 % -3.96 C
504 20-01-2019 17:55:00 -2.8 C 90 % -4.21 C
505 20-01-2019 18:00:00 -2.9 C 90 % -4.31 C
506 20-01-2019 18:05:00 -3.1 C 90 % -4.5 C
507 20-01-2019 18:10:00 -3.2 C 90 % -4.6 C
508 20-01-2019 18:15:00 -3.3 C 90 % -4.7 C
509 20-01-2019 18:20:00 -3.2 C 91 % -4.46 C
510 20-01-2019 18:25:00 -3.3 C 91 % -4.56 C
511 20-01-2019 18:30:00 -3.3 C 91 % -4.56 C
512 20-01-2019 18:35:00 -3.4 C 91 % -4.65 C
513 20-01-2019 18:40:00 -3.4 C 91 % -4.65 C
514 20-01-2019 18:45:00 -3.5 C 91 % -4.75 C
515 20-01-2019 18:50:00 -3.6 C 91 % -4.85 C
516 20-01-2019 18:55:00 -3.6 C 91 % -4.85 C
517 20-01-2019 19:00:00 -3.6 C 92 % -4.71 C
518 20-01-2019 19:05:00 -3.6 C 91 % -4.85 C
519 20-01-2019 19:10:00 -3.7 C 92 % -4.81 C
520 20-01-2019 19:15:00 -3.7 C 92 % -4.81 C
521 20-01-2019 19:20:00 -3.7 C 92 % -4.81 C
522 20-01-2019 19:25:00 -3.7 C 92 % -4.81 C
523 20-01-2019 19:30:00 -3.7 C 92 % -4.81 C
524 20-01-2019 19:35:00 -3.8 C 91 % -5.05 C
525 20-01-2019 19:40:00 -3.9 C 91 % -5.15 C
Sensor: Nr:Datum:Temp:Feuchte:Taupunkt:
Aussen-T/F 526 20-01-2019 19:45:00 -3.9 C 92 % -5 C
527 20-01-2019 19:50:00 -4 C 92 % -5.1 C
528 20-01-2019 19:55:00 -4 C 92 % -5.1 C
529 20-01-2019 20:00:00 -4 C 92 % -5.1 C
530 20-01-2019 20:05:00 -4.1 C 92 % -5.2 C
531 20-01-2019 20:10:00 -4.2 C 91 % -5.45 C
532 20-01-2019 20:15:00 -4.2 C 92 % -5.3 C
533 20-01-2019 20:20:00 -4.2 C 92 % -5.3 C
534 20-01-2019 20:25:00 -4.3 C 92 % -5.4 C
535 20-01-2019 20:30:00 -4.4 C 92 % -5.5 C
536 20-01-2019 20:35:00 -4.6 C 91 % -5.84 C
537 20-01-2019 20:40:00 -4.7 C 92 % -5.8 C
538 20-01-2019 20:45:00 -4.8 C 91 % -6.04 C
539 20-01-2019 20:50:00 -4.9 C 92 % -6 C
540 20-01-2019 20:55:00 -4.9 C 92 % -6 C
541 20-01-2019 21:00:00 -4.9 C 92 % -6 C
542 20-01-2019 21:05:00 -4.9 C 92 % -6 C
543 20-01-2019 21:10:00 -4.9 C 93 % -5.85 C
544 20-01-2019 21:15:00 -4.9 C 92 % -6 C
545 20-01-2019 21:20:00 -5.2 C 92 % -6.29 C
546 20-01-2019 21:25:00 -5.3 C 92 % -6.39 C
547 20-01-2019 21:30:00 -5.3 C 92 % -6.39 C
548 20-01-2019 21:35:00 -5.3 C 92 % -6.39 C
549 20-01-2019 21:40:00 -5.3 C 92 % -6.39 C
550 20-01-2019 21:45:00 -5.3 C 92 % -6.39 C
Sensor: Nr:Datum:Temp:Feuchte:Taupunkt:
Aussen-T/F 551 20-01-2019 21:50:00 -5.4 C 93 % -6.35 C
552 20-01-2019 21:55:00 -5.4 C 93 % -6.35 C
553 20-01-2019 22:00:00 -5.3 C 93 % -6.25 C
554 20-01-2019 22:05:00 -5.4 C 93 % -6.35 C
555 20-01-2019 22:10:00 -5.5 C 93 % -6.45 C
556 20-01-2019 22:15:00 -5.7 C 92 % -6.79 C
557 20-01-2019 22:20:00 -5.7 C 92 % -6.79 C
558 20-01-2019 22:25:00 -5.7 C 93 % -6.65 C
559 20-01-2019 22:30:00 -5.7 C 93 % -6.65 C
560 20-01-2019 22:35:00 -5.7 C 93 % -6.65 C
561 20-01-2019 22:40:00 -5.8 C 93 % -6.75 C
562 20-01-2019 22:45:00 -5.8 C 93 % -6.75 C
563 20-01-2019 22:50:00 -5.9 C 93 % -6.85 C
564 20-01-2019 22:55:00 -5.9 C 93 % -6.85 C
565 20-01-2019 23:00:00 -6 C 93 % -6.95 C
566 20-01-2019 23:05:00 -6.1 C 93 % -7.04 C
567 20-01-2019 23:10:00 -6.1 C 93 % -7.04 C
568 20-01-2019 23:15:00 -6 C 93 % -6.95 C
569 20-01-2019 23:20:00 -6.1 C 93 % -7.04 C
570 20-01-2019 23:25:00 -6.1 C 93 % -7.04 C
571 20-01-2019 23:30:00 -6.2 C 93 % -7.14 C
572 20-01-2019 23:35:00 -6.2 C 93 % -7.14 C
573 20-01-2019 23:40:00 -6.3 C 93 % -7.24 C
574 20-01-2019 23:45:00 -6.3 C 93 % -7.24 C
575 20-01-2019 23:50:00 -6.3 C 93 % -7.24 C
Sensor: Nr:Datum:Temp:Feuchte:Taupunkt:
Aussen-T/F 576 20-01-2019 23:55:00 -6.3 C 93 % -7.24 C
577 21-01-2019 00:00:00 -6.4 C 93 % -7.34 C
578 21-01-2019 00:05:00 -6.5 C 93 % -7.44 C
579 21-01-2019 00:10:00 -6.5 C 93 % -7.44 C
580 21-01-2019 00:15:00 -6.4 C 93 % -7.34 C
581 21-01-2019 00:20:00 -6.4 C 94 % -7.2 C
582 21-01-2019 00:25:00 -6.5 C 93 % -7.44 C
583 21-01-2019 00:30:00 -6.6 C 93 % -7.54 C
584 21-01-2019 00:35:00 -6.6 C 93 % -7.54 C
585 21-01-2019 00:40:00 -6.4 C 94 % -7.2 C
586 21-01-2019 00:45:00 -6.3 C 94 % -7.1 C
587 21-01-2019 00:50:00 -6.4 C 94 % -7.2 C
588 21-01-2019 00:55:00 -6.5 C 93 % -7.44 C
589 21-01-2019 01:00:00 -6.5 C 93 % -7.44 C
590 21-01-2019 01:05:00 -6.6 C 93 % -7.54 C
591 21-01-2019 01:10:00 -6.6 C 93 % -7.54 C
592 21-01-2019 01:15:00 -6.6 C 94 % -7.4 C
593 21-01-2019 01:20:00 -6.6 C 94 % -7.4 C
594 21-01-2019 01:25:00 -6.6 C 94 % -7.4 C
595 21-01-2019 01:30:00 -6.4 C 94 % -7.2 C
596 21-01-2019 01:35:00 -6.5 C 94 % -7.3 C
597 21-01-2019 01:40:00 -6.6 C 94 % -7.4 C
598 21-01-2019 01:45:00 -6.6 C 94 % -7.4 C
599 21-01-2019 01:50:00 -6.6 C 94 % -7.4 C
600 21-01-2019 01:55:00 -6.6 C 94 % -7.4 C
Sensor: Nr:Datum:Temp:Feuchte:Taupunkt:
Aussen-T/F 601 21-01-2019 02:00:00 -6.7 C 93 % -7.64 C
602 21-01-2019 02:05:00 -6.7 C 93 % -7.64 C
603 21-01-2019 02:10:00 -6.7 C 94 % -7.5 C
604 21-01-2019 02:15:00 -6.8 C 94 % -7.6 C
605 21-01-2019 02:20:00 -6.8 C 94 % -7.6 C
606 21-01-2019 02:25:00 -6.8 C 94 % -7.6 C
607 21-01-2019 02:30:00 -6.9 C 93 % -7.84 C
608 21-01-2019 02:35:00 -7 C 94 % -7.8 C
609 21-01-2019 02:40:00 -7 C 93 % -7.94 C
610 21-01-2019 02:45:00 -7.1 C 93 % -8.04 C
611 21-01-2019 02:50:00 -7.2 C 93 % -8.14 C
612 21-01-2019 02:55:00 -7.2 C 93 % -8.14 C
613 21-01-2019 03:00:00 -7.2 C 94 % -8 C
614 21-01-2019 03:05:00 -7.2 C 94 % -8 C
615 21-01-2019 03:10:00 -7.3 C 93 % -8.23 C
616 21-01-2019 03:15:00 -7.3 C 93 % -8.23 C
617 21-01-2019 03:20:00 -7.4 C 93 % -8.33 C
618 21-01-2019 03:25:00 -7.5 C 93 % -8.43 C
619 21-01-2019 03:30:00 -7.4 C 93 % -8.33 C
620 21-01-2019 03:35:00 -7.4 C 94 % -8.2 C
621 21-01-2019 03:40:00 -7.3 C 94 % -8.1 C
622 21-01-2019 03:45:00 -7.4 C 94 % -8.2 C
623 21-01-2019 03:50:00 -7.4 C 94 % -8.2 C
624 21-01-2019 03:55:00 -7.4 C 94 % -8.2 C
625 21-01-2019 04:00:00 -7.4 C 94 % -8.2 C
Sensor: Nr:Datum:Temp:Feuchte:Taupunkt:
Aussen-T/F 626 21-01-2019 04:05:00 -7.6 C 94 % -8.4 C
627 21-01-2019 04:10:00 -7.6 C 94 % -8.4 C
628 21-01-2019 04:15:00 -7.6 C 94 % -8.4 C
629 21-01-2019 04:20:00 -7.6 C 94 % -8.4 C
630 21-01-2019 04:25:00 -7.6 C 94 % -8.4 C
631 21-01-2019 04:30:00 -7.6 C 94 % -8.4 C
632 21-01-2019 04:35:00 -7.6 C 94 % -8.4 C
633 21-01-2019 04:40:00 -7.7 C 93 % -8.63 C
634 21-01-2019 04:45:00 -7.8 C 93 % -8.73 C
635 21-01-2019 04:50:00 -7.8 C 93 % -8.73 C
636 21-01-2019 04:55:00 -7.8 C 93 % -8.73 C
637 21-01-2019 05:00:00 -7.8 C 94 % -8.59 C
638 21-01-2019 05:05:00 -7.7 C 94 % -8.49 C
639 21-01-2019 05:10:00 -7.7 C 94 % -8.49 C
640 21-01-2019 05:15:00 -7.8 C 93 % -8.73 C
641 21-01-2019 05:20:00 -7.8 C 93 % -8.73 C
642 21-01-2019 05:25:00 -7.8 C 93 % -8.73 C
643 21-01-2019 05:30:00 -7.9 C 93 % -8.83 C
644 21-01-2019 05:35:00 -8 C 93 % -8.93 C
645 21-01-2019 05:40:00 -8 C 93 % -8.93 C
646 21-01-2019 05:45:00 -8.1 C 93 % -9.03 C
647 21-01-2019 05:50:00 -8 C 93 % -8.93 C
648 21-01-2019 05:55:00 -8.1 C 93 % -9.03 C
649 21-01-2019 06:00:00 -8.1 C 93 % -9.03 C
650 21-01-2019 06:05:00 -8.1 C 93 % -9.03 C
Sensor: Nr:Datum:Temp:Feuchte:Taupunkt:
Aussen-T/F 651 21-01-2019 06:10:00 -8.1 C 93 % -9.03 C
652 21-01-2019 06:15:00 -8.1 C 93 % -9.03 C
653 21-01-2019 06:20:00 -8.1 C 94 % -8.89 C
654 21-01-2019 06:25:00 -8.1 C 93 % -9.03 C
655 21-01-2019 06:30:00 -8 C 93 % -8.93 C
656 21-01-2019 06:35:00 -8 C 93 % -8.93 C
657 21-01-2019 06:40:00 -8.1 C 93 % -9.03 C
658 21-01-2019 06:45:00 -8.1 C 93 % -9.03 C
659 21-01-2019 06:50:00 -8.1 C 93 % -9.03 C
660 21-01-2019 06:55:00 -8.2 C 93 % -9.13 C
661 21-01-2019 07:00:00 -8.2 C 93 % -9.13 C
662 21-01-2019 07:05:00 -8.3 C 93 % -9.23 C
663 21-01-2019 07:10:00 -8.3 C 93 % -9.23 C
664 21-01-2019 07:15:00 -8.3 C 93 % -9.23 C
665 21-01-2019 07:20:00 -8.3 C 93 % -9.23 C
666 21-01-2019 07:25:00 -8.3 C 93 % -9.23 C
667 21-01-2019 07:30:00 -8.3 C 93 % -9.23 C
668 21-01-2019 07:35:00 -8.4 C 93 % -9.33 C
669 21-01-2019 07:40:00 -8.4 C 93 % -9.33 C
670 21-01-2019 07:45:00 -8.5 C 93 % -9.43 C
671 21-01-2019 07:50:00 -8.5 C 93 % -9.43 C
672 21-01-2019 07:55:00 -8.5 C 93 % -9.43 C
673 21-01-2019 08:00:00 -8.6 C 93 % -9.52 C
674 21-01-2019 08:05:00 -8.5 C 93 % -9.43 C
675 21-01-2019 08:10:00 -8.5 C 93 % -9.43 C
Sensor: Nr:Datum:Temp:Feuchte:Taupunkt:
Aussen-T/F 676 21-01-2019 08:15:00 -8.4 C 93 % -9.33 C
677 21-01-2019 08:20:00 -8.4 C 93 % -9.33 C
678 21-01-2019 08:25:00 -8.5 C 93 % -9.43 C
679 21-01-2019 08:30:00 -8.6 C 93 % -9.52 C
680 21-01-2019 08:35:00 -8.6 C 93 % -9.52 C
681 21-01-2019 08:40:00 -8.6 C 93 % -9.52 C
682 21-01-2019 08:45:00 -8.7 C 93 % -9.62 C
683 21-01-2019 08:50:00 -8.6 C 93 % -9.52 C
684 21-01-2019 08:55:00 -8.6 C 93 % -9.52 C
685 21-01-2019 09:00:00 -8.6 C 93 % -9.52 C
686 21-01-2019 09:05:00 -8.5 C 93 % -9.43 C
687 21-01-2019 09:10:00 -8.4 C 93 % -9.33 C
688 21-01-2019 09:15:00 -8.4 C 93 % -9.33 C
689 21-01-2019 09:20:00 -8.3 C 93 % -9.23 C
690 21-01-2019 09:25:00 -8.3 C 93 % -9.23 C
691 21-01-2019 09:30:00 -8.2 C 93 % -9.13 C
692 21-01-2019 09:35:00 -8.2 C 93 % -9.13 C
693 21-01-2019 09:40:00 -8.1 C 94 % -8.89 C
694 21-01-2019 09:45:00 -8 C 94 % -8.79 C
695 21-01-2019 09:50:00 -7.9 C 94 % -8.69 C
696 21-01-2019 09:55:00 -7.8 C 94 % -8.59 C
697 21-01-2019 10:00:00 -7.8 C 94 % -8.59 C
698 21-01-2019 10:05:00 -7.8 C 94 % -8.59 C
699 21-01-2019 10:10:00 -7.7 C 94 % -8.49 C
700 21-01-2019 10:15:00 -7.7 C 94 % -8.49 C
Sensor: Nr:Datum:Temp:Feuchte:Taupunkt:
Aussen-T/F 701 21-01-2019 10:20:00 -7.7 C 94 % -8.49 C
702 21-01-2019 10:25:00 -7.6 C 94 % -8.4 C
703 21-01-2019 10:30:00 -7.6 C 94 % -8.4 C
704 21-01-2019 10:35:00 -7.6 C 94 % -8.4 C
705 21-01-2019 10:40:00 -7.4 C 94 % -8.2 C
706 21-01-2019 10:45:00 -7.3 C 94 % -8.1 C
707 21-01-2019 10:50:00 -7.2 C 94 % -8 C
708 21-01-2019 10:55:00 -7 C 94 % -7.8 C
709 21-01-2019 11:00:00 -6.7 C 95 % -7.36 C
710 21-01-2019 11:05:00 -6.5 C 95 % -7.17 C
711 21-01-2019 11:10:00 -6.2 C 95 % -6.87 C
712 21-01-2019 11:15:00 -6 C 95 % -6.67 C
713 21-01-2019 11:20:00 -5.8 C 95 % -6.47 C
714 21-01-2019 11:25:00 -5.7 C 95 % -6.37 C
715 21-01-2019 11:30:00 -5.5 C 95 % -6.17 C
716 21-01-2019 11:35:00 -5.3 C 95 % -5.97 C
717 21-01-2019 11:40:00 -5.3 C 95 % -5.97 C
718 21-01-2019 11:45:00 -5.2 C 95 % -5.87 C
719 21-01-2019 11:50:00 -5.2 C 95 % -5.87 C
720 21-01-2019 11:55:00 -5.1 C 95 % -5.77 C
721 21-01-2019 12:00:00 -5 C 95 % -5.67 C
722 21-01-2019 12:05:00 -5 C 95 % -5.67 C
723 21-01-2019 12:10:00 -4.9 C 95 % -5.58 C
724 21-01-2019 12:15:00 -4.9 C 95 % -5.58 C
725 21-01-2019 12:20:00 -4.9 C 95 % -5.58 C
Sensor: Nr:Datum:Temp:Feuchte:Taupunkt:
Aussen-T/F 726 21-01-2019 12:25:00 -4.9 C 95 % -5.58 C
727 21-01-2019 12:30:00 -4.8 C 95 % -5.48 C
728 21-01-2019 12:35:00 -4.8 C 95 % -5.48 C
729 21-01-2019 12:40:00 -4.8 C 95 % -5.48 C
730 21-01-2019 12:45:00 -4.8 C 95 % -5.48 C
731 21-01-2019 12:50:00 -4.8 C 94 % -5.61 C
732 21-01-2019 12:55:00 -4.8 C 94 % -5.61 C
733 21-01-2019 13:00:00 -4.8 C 94 % -5.61 C
734 21-01-2019 13:05:00 -4.8 C 94 % -5.61 C
735 21-01-2019 13:10:00 -4.7 C 95 % -5.38 C
736 21-01-2019 13:15:00 -4.7 C 95 % -5.38 C
737 21-01-2019 13:20:00 -4.6 C 95 % -5.28 C
738 21-01-2019 13:25:00 -4.5 C 95 % -5.18 C
739 21-01-2019 13:30:00 -4.4 C 95 % -5.08 C
740 21-01-2019 13:35:00 -4.4 C 95 % -5.08 C
741 21-01-2019 13:40:00 -4.3 C 95 % -4.98 C
742 21-01-2019 13:45:00 -4.3 C 95 % -4.98 C
743 21-01-2019 13:50:00 -4.2 C 95 % -4.88 C
744 21-01-2019 13:55:00 -4.2 C 95 % -4.88 C
745 21-01-2019 14:00:00 -4.2 C 95 % -4.88 C
746 21-01-2019 14:05:00 -4.1 C 95 % -4.78 C
747 21-01-2019 14:10:00 -4 C 95 % -4.68 C
748 21-01-2019 14:15:00 -3.9 C 95 % -4.58 C
749 21-01-2019 14:20:00 -3.8 C 95 % -4.48 C
750 21-01-2019 14:25:00 -3.8 C 95 % -4.48 C
Sensor: Nr:Datum:Temp:Feuchte:Taupunkt:
Aussen-T/F 751 21-01-2019 14:30:00 -3.7 C 95 % -4.38 C
752 21-01-2019 14:35:00 -3.7 C 95 % -4.38 C
753 21-01-2019 14:40:00 -3.6 C 95 % -4.28 C
754 21-01-2019 14:45:00 -3.6 C 95 % -4.28 C
755 21-01-2019 14:50:00 -3.5 C 95 % -4.18 C
756 21-01-2019 14:55:00 -3.4 C 95 % -4.08 C
757 21-01-2019 15:00:00 -3.4 C 95 % -4.08 C
758 21-01-2019 15:05:00 -3.4 C 95 % -4.08 C
759 21-01-2019 15:10:00 -3.4 C 95 % -4.08 C
760 21-01-2019 15:15:00 -3.3 C 95 % -3.98 C
761 21-01-2019 15:20:00 -3.3 C 95 % -3.98 C
762 21-01-2019 15:25:00 -3.3 C 95 % -3.98 C
763 21-01-2019 15:30:00 -3.2 C 95 % -3.88 C
764 21-01-2019 15:35:00 -3.2 C 95 % -3.88 C
765 21-01-2019 15:40:00 -3.2 C 95 % -3.88 C
766 21-01-2019 15:45:00 -3.2 C 95 % -3.88 C
767 21-01-2019 15:50:00 -3.2 C 95 % -3.88 C
768 21-01-2019 15:55:00 -3.2 C 95 % -3.88 C
769 21-01-2019 16:00:00 -3.2 C 95 % -3.88 C
770 21-01-2019 16:05:00 -3.2 C 95 % -3.88 C
771 21-01-2019 16:10:00 -3.2 C 95 % -3.88 C
772 21-01-2019 16:15:00 -3.2 C 94 % -4.03 C
773 21-01-2019 16:20:00 -3.2 C 94 % -4.03 C
774 21-01-2019 16:25:00 -3.2 C 94 % -4.03 C
775 21-01-2019 16:30:00 -3.2 C 95 % -3.88 C
Sensor: Nr:Datum:Temp:Feuchte:Taupunkt:
Aussen-T/F 776 21-01-2019 16:35:00 -3.3 C 95 % -3.98 C
777 21-01-2019 16:40:00 -3.3 C 94 % -4.13 C
778 21-01-2019 16:45:00 -3.4 C 94 % -4.22 C
779 21-01-2019 16:50:00 -3.4 C 94 % -4.22 C
780 21-01-2019 16:55:00 -3.4 C 94 % -4.22 C
781 21-01-2019 17:00:00 -3.5 C 94 % -4.32 C
782 21-01-2019 17:05:00 -3.6 C 94 % -4.42 C
783 21-01-2019 17:10:00 -3.7 C 94 % -4.52 C
784 21-01-2019 17:15:00 -3.7 C 94 % -4.52 C
785 21-01-2019 17:20:00 -3.8 C 94 % -4.62 C
786 21-01-2019 17:25:00 -3.8 C 94 % -4.62 C
787 21-01-2019 17:30:00 -3.9 C 94 % -4.72 C
788 21-01-2019 17:35:00 -3.9 C 94 % -4.72 C
789 21-01-2019 17:40:00 -3.9 C 94 % -4.72 C
790 21-01-2019 17:45:00 -4 C 94 % -4.82 C
791 21-01-2019 17:50:00 -4.1 C 94 % -4.92 C
792 21-01-2019 17:55:00 -4.1 C 94 % -4.92 C
793 21-01-2019 18:00:00 -4.2 C 94 % -5.02 C
794 21-01-2019 18:05:00 -4.2 C 94 % -5.02 C
795 21-01-2019 18:10:00 -4.3 C 94 % -5.12 C
796 21-01-2019 18:15:00 -4.3 C 94 % -5.12 C
797 21-01-2019 18:20:00 -4.4 C 94 % -5.22 C
798 21-01-2019 18:25:00 -4.4 C 94 % -5.22 C
799 21-01-2019 18:30:00 -4.5 C 94 % -5.32 C
800 21-01-2019 18:35:00 -4.6 C 94 % -5.42 C
Sensor: Nr:Datum:Temp:Feuchte:Taupunkt:
Aussen-T/F 801 21-01-2019 18:40:00 -4.6 C 94 % -5.42 C
802 21-01-2019 18:45:00 -4.7 C 94 % -5.52 C
803 21-01-2019 18:50:00 -4.8 C 93 % -5.75 C
804 21-01-2019 18:55:00 -5 C 93 % -5.95 C
805 21-01-2019 19:00:00 -5.2 C 93 % -6.15 C
806 21-01-2019 19:05:00 -5.3 C 93 % -6.25 C
807 21-01-2019 19:10:00 -5.4 C 93 % -6.35 C
808 21-01-2019 19:15:00 -5.5 C 93 % -6.45 C
809 21-01-2019 19:20:00 -5.4 C 94 % -6.21 C
810 21-01-2019 19:25:00 -5.4 C 94 % -6.21 C
811 21-01-2019 19:30:00 -5.3 C 94 % -6.11 C
812 21-01-2019 19:35:00 -5.3 C 94 % -6.11 C
813 21-01-2019 19:40:00 -5.4 C 94 % -6.21 C
814 21-01-2019 19:45:00 -5.5 C 94 % -6.31 C
815 21-01-2019 19:50:00 -5.6 C 93 % -6.55 C
816 21-01-2019 19:55:00 -5.7 C 93 % -6.65 C
817 21-01-2019 20:00:00 -5.7 C 94 % -6.51 C
818 21-01-2019 20:05:00 -5.7 C 94 % -6.51 C
819 21-01-2019 20:10:00 -5.8 C 93 % -6.75 C
820 21-01-2019 20:15:00 -6 C 93 % -6.95 C
821 21-01-2019 20:20:00 -6.1 C 93 % -7.04 C
822 21-01-2019 20:25:00 -6.1 C 93 % -7.04 C
823 21-01-2019 20:30:00 -6.2 C 93 % -7.14 C
824 21-01-2019 20:35:00 -6.2 C 93 % -7.14 C
825 21-01-2019 20:40:00 -6.2 C 93 % -7.14 C
Sensor: Nr:Datum:Temp:Feuchte:Taupunkt:
Aussen-T/F 826 21-01-2019 20:45:00 -6.2 C 93 % -7.14 C
827 21-01-2019 20:50:00 -6.2 C 93 % -7.14 C
828 21-01-2019 20:55:00 -6.2 C 94 % -7.01 C
829 21-01-2019 21:00:00 -6.2 C 94 % -7.01 C
830 21-01-2019 21:05:00 -6.2 C 94 % -7.01 C
831 21-01-2019 21:10:00 -6.3 C 94 % -7.1 C
832 21-01-2019 21:15:00 -6.3 C 94 % -7.1 C
833 21-01-2019 21:20:00 -6.3 C 94 % -7.1 C
834 21-01-2019 21:25:00 -6.3 C 94 % -7.1 C
835 21-01-2019 21:30:00 -6.4 C 94 % -7.2 C
836 21-01-2019 21:35:00 -6.5 C 93 % -7.44 C
837 21-01-2019 21:40:00 -6.6 C 93 % -7.54 C
838 21-01-2019 21:45:00 -6.6 C 93 % -7.54 C
839 21-01-2019 21:50:00 -6.6 C 94 % -7.4 C
840 21-01-2019 21:55:00 -6.6 C 94 % -7.4 C
841 21-01-2019 22:00:00 -6.6 C 94 % -7.4 C
842 21-01-2019 22:05:00 -6.7 C 94 % -7.5 C
843 21-01-2019 22:10:00 -6.7 C 94 % -7.5 C
844 21-01-2019 22:15:00 -6.6 C 94 % -7.4 C
845 21-01-2019 22:20:00 -6.6 C 94 % -7.4 C
846 21-01-2019 22:25:00 -6.7 C 93 % -7.64 C
847 21-01-2019 22:30:00 -6.8 C 94 % -7.6 C
848 21-01-2019 22:35:00 -6.8 C 93 % -7.74 C
849 21-01-2019 22:40:00 -6.9 C 93 % -7.84 C
850 21-01-2019 22:45:00 -6.9 C 94 % -7.7 C
Sensor: Nr:Datum:Temp:Feuchte:Taupunkt:
Aussen-T/F 851 21-01-2019 22:50:00 -6.9 C 94 % -7.7 C
852 21-01-2019 22:55:00 -6.9 C 94 % -7.7 C
853 21-01-2019 23:00:00 -6.9 C 94 % -7.7 C
854 21-01-2019 23:05:00 -6.9 C 94 % -7.7 C
855 21-01-2019 23:10:00 -7.1 C 94 % -7.9 C
856 21-01-2019 23:15:00 -7.1 C 94 % -7.9 C
857 21-01-2019 23:20:00 -7.1 C 93 % -8.04 C
858 21-01-2019 23:25:00 -7.2 C 93 % -8.14 C
859 21-01-2019 23:30:00 -7.2 C 94 % -8 C
860 21-01-2019 23:35:00 -7.1 C 94 % -7.9 C
861 21-01-2019 23:40:00 -7.1 C 94 % -7.9 C
862 21-01-2019 23:45:00 -7.2 C 93 % -8.14 C
863 21-01-2019 23:50:00 -7.2 C 94 % -8 C
864 21-01-2019 23:55:00 -7.2 C 94 % -8 C
865 22-01-2019 00:00:00 -7.3 C 93 % -8.23 C
866 22-01-2019 00:05:00 -7.3 C 94 % -8.1 C
867 22-01-2019 00:10:00 -7.3 C 94 % -8.1 C
868 22-01-2019 00:15:00 -7.3 C 94 % -8.1 C
869 22-01-2019 00:20:00 -7.4 C 93 % -8.33 C
870 22-01-2019 00:25:00 -7.5 C 93 % -8.43 C
871 22-01-2019 00:30:00 -7.6 C 93 % -8.53 C
872 22-01-2019 00:35:00 -7.6 C 93 % -8.53 C
873 22-01-2019 00:40:00 -7.7 C 93 % -8.63 C
874 22-01-2019 00:45:00 -7.7 C 93 % -8.63 C
875 22-01-2019 00:50:00 -7.7 C 93 % -8.63 C
Sensor: Nr:Datum:Temp:Feuchte:Taupunkt:
Aussen-T/F 876 22-01-2019 00:55:00 -7.7 C 93 % -8.63 C
877 22-01-2019 01:00:00 -7.8 C 93 % -8.73 C
878 22-01-2019 01:05:00 -7.8 C 93 % -8.73 C
879 22-01-2019 01:10:00 -7.8 C 93 % -8.73 C
880 22-01-2019 01:15:00 -7.8 C 93 % -8.73 C
881 22-01-2019 01:20:00 -7.8 C 93 % -8.73 C
882 22-01-2019 01:25:00 -7.8 C 93 % -8.73 C
883 22-01-2019 01:30:00 -7.7 C 94 % -8.49 C
884 22-01-2019 01:35:00 -7.7 C 94 % -8.49 C
885 22-01-2019 01:40:00 -7.8 C 93 % -8.73 C
886 22-01-2019 01:45:00 -7.9 C 93 % -8.83 C
887 22-01-2019 01:50:00 -7.9 C 93 % -8.83 C
888 22-01-2019 01:55:00 -7.9 C 93 % -8.83 C
889 22-01-2019 02:00:00 -8 C 93 % -8.93 C
890 22-01-2019 02:05:00 -8.1 C 93 % -9.03 C
891 22-01-2019 02:10:00 -8.1 C 93 % -9.03 C
892 22-01-2019 02:15:00 -8.1 C 93 % -9.03 C
893 22-01-2019 02:20:00 -8.2 C 93 % -9.13 C
894 22-01-2019 02:25:00 -8 C 93 % -8.93 C
895 22-01-2019 02:30:00 -7.9 C 93 % -8.83 C
896 22-01-2019 02:35:00 -8 C 93 % -8.93 C
897 22-01-2019 02:40:00 -8.1 C 93 % -9.03 C
898 22-01-2019 02:45:00 -8.1 C 93 % -9.03 C
899 22-01-2019 02:50:00 -8.1 C 93 % -9.03 C
900 22-01-2019 02:55:00 -8.2 C 93 % -9.13 C
Sensor: Nr:Datum:Temp:Feuchte:Taupunkt:
Aussen-T/F 901 22-01-2019 03:00:00 -8.2 C 93 % -9.13 C
902 22-01-2019 03:05:00 -8.2 C 93 % -9.13 C
903 22-01-2019 03:10:00 -8.2 C 93 % -9.13 C
904 22-01-2019 03:15:00 -8.2 C 93 % -9.13 C
905 22-01-2019 03:20:00 -8.2 C 93 % -9.13 C
906 22-01-2019 03:25:00 -8.2 C 93 % -9.13 C
907 22-01-2019 03:30:00 -8.2 C 93 % -9.13 C
908 22-01-2019 03:35:00 -8.3 C 93 % -9.23 C
909 22-01-2019 03:40:00 -8.3 C 93 % -9.23 C
910 22-01-2019 03:45:00 -8.4 C 93 % -9.33 C
911 22-01-2019 03:50:00 -8.4 C 93 % -9.33 C
912 22-01-2019 03:55:00 -8.5 C 93 % -9.43 C
913 22-01-2019 04:00:00 -8.5 C 93 % -9.43 C
914 22-01-2019 04:05:00 -8.4 C 93 % -9.33 C
915 22-01-2019 04:10:00 -8.4 C 93 % -9.33 C
916 22-01-2019 04:15:00 -8.4 C 93 % -9.33 C
917 22-01-2019 04:20:00 -8.5 C 93 % -9.43 C
918 22-01-2019 04:25:00 -8.6 C 93 % -9.52 C
919 22-01-2019 04:30:00 -8.6 C 93 % -9.52 C
920 22-01-2019 04:35:00 -8.7 C 93 % -9.62 C
921 22-01-2019 04:40:00 -8.7 C 93 % -9.62 C
922 22-01-2019 04:45:00 -8.7 C 93 % -9.62 C
923 22-01-2019 04:50:00 -8.7 C 93 % -9.62 C
924 22-01-2019 04:55:00 -8.7 C 93 % -9.62 C
925 22-01-2019 05:00:00 -8.6 C 93 % -9.52 C
Sensor: Nr:Datum:Temp:Feuchte:Taupunkt:
Aussen-T/F 926 22-01-2019 05:05:00 -8.6 C 93 % -9.52 C
927 22-01-2019 05:10:00 -8.5 C 93 % -9.43 C
928 22-01-2019 05:15:00 -8.4 C 94 % -9.19 C
929 22-01-2019 05:20:00 -8.3 C 93 % -9.23 C
930 22-01-2019 05:25:00 -8.3 C 93 % -9.23 C
931 22-01-2019 05:30:00 -8.4 C 93 % -9.33 C
932 22-01-2019 05:35:00 -8.4 C 93 % -9.33 C
933 22-01-2019 05:40:00 -8.6 C 93 % -9.52 C
934 22-01-2019 05:45:00 -8.7 C 93 % -9.62 C
935 22-01-2019 05:50:00 -8.7 C 93 % -9.62 C
936 22-01-2019 05:55:00 -8.7 C 93 % -9.62 C
937 22-01-2019 06:00:00 -8.7 C 93 % -9.62 C
938 22-01-2019 06:05:00 -8.7 C 93 % -9.62 C
939 22-01-2019 06:10:00 -8.7 C 93 % -9.62 C
940 22-01-2019 06:15:00 -8.7 C 93 % -9.62 C
941 22-01-2019 06:20:00 -8.7 C 93 % -9.62 C
942 22-01-2019 06:25:00 -8.7 C 93 % -9.62 C
943 22-01-2019 06:30:00 -8.7 C 93 % -9.62 C
944 22-01-2019 06:35:00 -8.8 C 93 % -9.72 C
945 22-01-2019 06:40:00 -8.8 C 93 % -9.72 C
946 22-01-2019 06:45:00 -8.8 C 93 % -9.72 C
947 22-01-2019 06:50:00 -8.8 C 93 % -9.72 C
948 22-01-2019 06:55:00 -8.8 C 93 % -9.72 C
949 22-01-2019 07:00:00 -8.7 C 93 % -9.62 C
950 22-01-2019 07:05:00 -8.7 C 93 % -9.62 C
Sensor: Nr:Datum:Temp:Feuchte:Taupunkt:
Aussen-T/F 951 22-01-2019 07:10:00 -8.6 C 93 % -9.52 C
952 22-01-2019 07:15:00 -8.7 C 93 % -9.62 C
953 22-01-2019 07:20:00 -8.7 C 93 % -9.62 C
954 22-01-2019 07:25:00 -8.7 C 93 % -9.62 C
955 22-01-2019 07:30:00 -8.7 C 93 % -9.62 C
956 22-01-2019 07:35:00 -8.7 C 93 % -9.62 C
957 22-01-2019 07:40:00 -8.7 C 93 % -9.62 C
958 22-01-2019 07:45:00 -8.6 C 93 % -9.52 C
959 22-01-2019 07:50:00 -8.5 C 93 % -9.43 C
960 22-01-2019 07:55:00 -8.5 C 93 % -9.43 C
961 22-01-2019 08:00:00 -8.6 C 93 % -9.52 C
962 22-01-2019 08:05:00 -8.6 C 93 % -9.52 C
963 22-01-2019 08:10:00 -8.6 C 93 % -9.52 C
964 22-01-2019 08:15:00 -8.6 C 93 % -9.52 C
965 22-01-2019 08:20:00 -8.3 C 94 % -9.09 C
966 22-01-2019 08:25:00 -8.1 C 94 % -8.89 C
967 22-01-2019 08:30:00 -8.1 C 94 % -8.89 C
968 22-01-2019 08:35:00 -8 C 94 % -8.79 C
969 22-01-2019 08:40:00 -7.9 C 94 % -8.69 C
970 22-01-2019 08:45:00 -7.9 C 93 % -8.83 C
971 22-01-2019 08:50:00 -7.9 C 93 % -8.83 C
972 22-01-2019 08:55:00 -7.8 C 94 % -8.59 C
973 22-01-2019 09:00:00 -7.8 C 94 % -8.59 C
974 22-01-2019 09:05:00 -7.7 C 94 % -8.49 C
975 22-01-2019 09:10:00 -7.6 C 94 % -8.4 C
Sensor: Nr:Datum:Temp:Feuchte:Taupunkt:
Aussen-T/F 976 22-01-2019 09:15:00 -7.5 C 94 % -8.3 C
977 22-01-2019 09:20:00 -7.4 C 94 % -8.2 C
978 22-01-2019 09:25:00 -7.3 C 94 % -8.1 C
979 22-01-2019 09:30:00 -7.3 C 94 % -8.1 C
980 22-01-2019 09:35:00 -7.2 C 94 % -8 C
981 22-01-2019 09:40:00 -7.2 C 94 % -8 C
982 22-01-2019 09:45:00 -7.1 C 94 % -7.9 C
983 22-01-2019 09:50:00 -7 C 94 % -7.8 C
984 22-01-2019 09:55:00 -6.9 C 94 % -7.7 C
985 22-01-2019 10:00:00 -6.8 C 94 % -7.6 C
986 22-01-2019 10:05:00 -6.8 C 94 % -7.6 C
987 22-01-2019 10:10:00 -6.7 C 94 % -7.5 C
988 22-01-2019 10:15:00 -6.6 C 94 % -7.4 C
989 22-01-2019 10:20:00 -6.5 C 94 % -7.3 C
990 22-01-2019 10:25:00 -6.4 C 94 % -7.2 C
991 22-01-2019 10:30:00 -6.3 C 94 % -7.1 C
992 22-01-2019 10:35:00 -6.2 C 94 % -7.01 C
993 22-01-2019 10:40:00 -6.1 C 94 % -6.91 C
994 22-01-2019 10:45:00 -5.9 C 95 % -6.57 C
995 22-01-2019 10:50:00 -5.8 C 95 % -6.47 C
996 22-01-2019 10:55:00 -5.7 C 95 % -6.37 C
997 22-01-2019 11:00:00 -5.6 C 95 % -6.27 C
998 22-01-2019 11:05:00 -5.5 C 95 % -6.17 C
999 22-01-2019 11:10:00 -5.4 C 95 % -6.07 C
1000 22-01-2019 11:15:00 -5.3 C 95 % -5.97 C
Sensor: Nr:Datum:Temp:Feuchte:Taupunkt:
Aussen-T/F 1001 22-01-2019 11:20:00 -5.2 C 95 % -5.87 C
1002 22-01-2019 11:25:00 -5.1 C 95 % -5.77 C
1003 22-01-2019 11:30:00 -4.9 C 95 % -5.58 C
1004 22-01-2019 11:35:00 -4.8 C 95 % -5.48 C
1005 22-01-2019 11:40:00 -4.7 C 95 % -5.38 C
1006 22-01-2019 11:45:00 -4.6 C 95 % -5.28 C
1007 22-01-2019 11:50:00 -4.5 C 95 % -5.18 C
1008 22-01-2019 11:55:00 -4.3 C 95 % -4.98 C
1009 22-01-2019 12:00:00 -4.2 C 95 % -4.88 C
1010 22-01-2019 12:05:00 -4.1 C 95 % -4.78 C
1011 22-01-2019 12:10:00 -3.8 C 95 % -4.48 C
1012 22-01-2019 12:15:00 -3.6 C 95 % -4.28 C
1013 22-01-2019 12:20:00 -3.4 C 95 % -4.08 C
1014 22-01-2019 12:25:00 -3.3 C 95 % -3.98 C
1015 22-01-2019 12:30:00 -3.1 C 95 % -3.79 C
1016 22-01-2019 12:35:00 -2.9 C 95 % -3.59 C
1017 22-01-2019 12:40:00 -2.7 C 95 % -3.39 C
1018 22-01-2019 12:45:00 -2.5 C 95 % -3.19 C
1019 22-01-2019 12:50:00 -2.3 C 95 % -2.99 C
1020 22-01-2019 12:55:00 -2.2 C 95 % -2.89 C
1021 22-01-2019 13:00:00 -2 C 94 % -2.83 C
1022 22-01-2019 13:05:00 -1.8 C 94 % -2.64 C
1023 22-01-2019 13:10:00 -1.7 C 93 % -2.68 C
1024 22-01-2019 13:15:00 -1.7 C 93 % -2.68 C
1025 22-01-2019 13:20:00 -1.6 C 92 % -2.73 C
Sensor: Nr:Datum:Temp:Feuchte:Taupunkt:
Aussen-T/F 1026 22-01-2019 13:25:00 -1.4 C 92 % -2.53 C
1027 22-01-2019 13:30:00 -1.3 C 91 % -2.58 C
1028 22-01-2019 13:35:00 -1.3 C 92 % -2.43 C
1029 22-01-2019 13:40:00 -1.2 C 91 % -2.48 C
1030 22-01-2019 13:45:00 -1.2 C 91 % -2.48 C
1031 22-01-2019 13:50:00 -1.2 C 90 % -2.63 C
1032 22-01-2019 13:55:00 -1.1 C 90 % -2.53 C
1033 22-01-2019 14:00:00 -1.1 C 89 % -2.68 C
1034 22-01-2019 14:05:00 -1.1 C 89 % -2.68 C
1035 22-01-2019 14:10:00 -0.9 C 89 % -2.48 C
1036 22-01-2019 14:15:00 -0.9 C 89 % -2.48 C
1037 22-01-2019 14:20:00 -0.9 C 89 % -2.48 C
1038 22-01-2019 14:25:00 -0.9 C 89 % -2.48 C
1039 22-01-2019 14:30:00 -0.9 C 88 % -2.63 C
1040 22-01-2019 14:35:00 -0.8 C 89 % -2.38 C
1041 22-01-2019 14:40:00 -0.8 C 88 % -2.53 C
1042 22-01-2019 14:45:00 -0.8 C 88 % -2.53 C
1043 22-01-2019 14:50:00 -0.8 C 88 % -2.53 C
1044 22-01-2019 14:55:00 -0.8 C 87 % -2.69 C
1045 22-01-2019 15:00:00 -0.8 C 88 % -2.53 C
1046 22-01-2019 15:05:00 -0.9 C 87 % -2.79 C
1047 22-01-2019 15:10:00 -0.9 C 87 % -2.79 C
1048 22-01-2019 15:15:00 -1 C 87 % -2.88 C
1049 22-01-2019 15:20:00 -0.9 C 88 % -2.63 C
1050 22-01-2019 15:25:00 -1 C 88 % -2.73 C
Sensor: Nr:Datum:Temp:Feuchte:Taupunkt:
Aussen-T/F 1051 22-01-2019 15:30:00 -1 C 88 % -2.73 C
1052 22-01-2019 15:35:00 -1 C 88 % -2.73 C
1053 22-01-2019 15:40:00 -1.1 C 87 % -2.98 C
1054 22-01-2019 15:45:00 -1.1 C 87 % -2.98 C
1055 22-01-2019 15:50:00 -1.1 C 88 % -2.83 C
1056 22-01-2019 15:55:00 -1.1 C 88 % -2.83 C
1057 22-01-2019 16:00:00 -1.1 C 87 % -2.98 C
1058 22-01-2019 16:05:00 -1.1 C 88 % -2.83 C
1059 22-01-2019 16:10:00 -1.1 C 87 % -2.98 C
1060 22-01-2019 16:15:00 -1.2 C 87 % -3.08 C
1061 22-01-2019 16:20:00 -1.2 C 87 % -3.08 C
1062 22-01-2019 16:25:00 -1.2 C 87 % -3.08 C
1063 22-01-2019 16:30:00 -1.2 C 87 % -3.08 C
1064 22-01-2019 16:35:00 -1.3 C 87 % -3.18 C
1065 22-01-2019 16:40:00 -1.3 C 87 % -3.18 C
1066 22-01-2019 16:45:00 -1.3 C 87 % -3.18 C
1067 22-01-2019 16:50:00 -1.3 C 87 % -3.18 C
1068 22-01-2019 16:55:00 -1.4 C 87 % -3.28 C
1069 22-01-2019 17:00:00 -1.5 C 88 % -3.22 C
1070 22-01-2019 17:05:00 -1.6 C 87 % -3.48 C
1071 22-01-2019 17:10:00 -1.8 C 87 % -3.67 C
1072 22-01-2019 17:15:00 -1.9 C 87 % -3.77 C
1073 22-01-2019 17:20:00 -2.1 C 88 % -3.82 C
1074 22-01-2019 17:25:00 -2.2 C 88 % -3.91 C
1075 22-01-2019 17:30:00 -2.3 C 88 % -4.01 C
Sensor: Nr:Datum:Temp:Feuchte:Taupunkt:
Aussen-T/F 1076 22-01-2019 17:35:00 -2.4 C 89 % -3.96 C
1077 22-01-2019 17:40:00 -2.6 C 89 % -4.16 C
1078 22-01-2019 17:45:00 -2.7 C 89 % -4.26 C
1079 22-01-2019 17:50:00 -2.8 C 89 % -4.36 C
1080 22-01-2019 17:55:00 -2.8 C 89 % -4.36 C
1081 22-01-2019 18:00:00 -2.9 C 90 % -4.31 C
1082 22-01-2019 18:05:00 -2.9 C 90 % -4.31 C
1083 22-01-2019 18:10:00 -2.9 C 90 % -4.31 C
1084 22-01-2019 18:15:00 -2.9 C 90 % -4.31 C
1085 22-01-2019 18:20:00 -2.9 C 91 % -4.16 C
1086 22-01-2019 18:25:00 -2.9 C 91 % -4.16 C
1087 22-01-2019 18:30:00 -2.9 C 91 % -4.16 C
1088 22-01-2019 18:35:00 -2.9 C 91 % -4.16 C
1089 22-01-2019 18:40:00 -2.8 C 91 % -4.06 C
1090 22-01-2019 18:45:00 -2.8 C 91 % -4.06 C
1091 22-01-2019 18:50:00 -2.8 C 91 % -4.06 C
1092 22-01-2019 18:55:00 -2.8 C 91 % -4.06 C
1093 22-01-2019 19:00:00 -2.8 C 91 % -4.06 C
1094 22-01-2019 19:05:00 -2.9 C 91 % -4.16 C
1095 22-01-2019 19:10:00 -2.9 C 91 % -4.16 C
1096 22-01-2019 19:15:00 -3 C 91 % -4.26 C
1097 22-01-2019 19:20:00 -3.1 C 91 % -4.36 C
1098 22-01-2019 19:25:00 -3.1 C 91 % -4.36 C
1099 22-01-2019 19:30:00 -3.2 C 91 % -4.46 C
1100 22-01-2019 19:35:00 -3.2 C 91 % -4.46 C
Sensor: Nr:Datum:Temp:Feuchte:Taupunkt:
Aussen-T/F 1101 22-01-2019 19:40:00 -3.2 C 91 % -4.46 C
1102 22-01-2019 19:45:00 -3.3 C 91 % -4.56 C
1103 22-01-2019 19:50:00 -3.3 C 91 % -4.56 C
1104 22-01-2019 19:55:00 -3.3 C 91 % -4.56 C
1105 22-01-2019 20:00:00 -3.3 C 92 % -4.41 C
1106 22-01-2019 20:05:00 -3.2 C 92 % -4.31 C
1107 22-01-2019 20:10:00 -3.2 C 92 % -4.31 C
1108 22-01-2019 20:15:00 -3.2 C 92 % -4.31 C
1109 22-01-2019 20:20:00 -3.2 C 92 % -4.31 C
1110 22-01-2019 20:25:00 -3.1 C 92 % -4.21 C
1111 22-01-2019 20:30:00 -3.1 C 92 % -4.21 C
1112 22-01-2019 20:35:00 -3.1 C 92 % -4.21 C
1113 22-01-2019 20:40:00 -3.1 C 92 % -4.21 C
1114 22-01-2019 20:45:00 -3.1 C 92 % -4.21 C
1115 22-01-2019 20:50:00 -3 C 93 % -3.97 C
1116 22-01-2019 20:55:00 -2.9 C 93 % -3.87 C
1117 22-01-2019 21:00:00 -2.9 C 92 % -4.01 C
1118 22-01-2019 21:05:00 -2.8 C 92 % -3.92 C
1119 22-01-2019 21:10:00 -2.8 C 92 % -3.92 C
1120 22-01-2019 21:15:00 -2.8 C 92 % -3.92 C
1121 22-01-2019 21:20:00 -2.7 C 92 % -3.82 C
1122 22-01-2019 21:25:00 -2.7 C 93 % -3.67 C
1123 22-01-2019 21:30:00 -2.7 C 93 % -3.67 C
1124 22-01-2019 21:35:00 -2.7 C 93 % -3.67 C
1125 22-01-2019 21:40:00 -2.6 C 93 % -3.57 C
Sensor: Nr:Datum:Temp:Feuchte:Taupunkt:
Aussen-T/F 1126 22-01-2019 21:45:00 -2.6 C 93 % -3.57 C
1127 22-01-2019 21:50:00 -2.5 C 93 % -3.47 C
1128 22-01-2019 21:55:00 -2.5 C 93 % -3.47 C
1129 22-01-2019 22:00:00 -2.4 C 93 % -3.37 C
1130 22-01-2019 22:05:00 -2.4 C 93 % -3.37 C
1131 22-01-2019 22:10:00 -2.4 C 93 % -3.37 C
1132 22-01-2019 22:15:00 -2.4 C 93 % -3.37 C
1133 22-01-2019 22:20:00 -2.4 C 93 % -3.37 C
1134 22-01-2019 22:25:00 -2.4 C 92 % -3.52 C
1135 22-01-2019 22:30:00 -2.4 C 92 % -3.52 C
1136 22-01-2019 22:35:00 -2.4 C 92 % -3.52 C
1137 22-01-2019 22:40:00 -2.4 C 92 % -3.52 C
1138 22-01-2019 22:45:00 -2.3 C 93 % -3.28 C
1139 22-01-2019 22:50:00 -2.3 C 92 % -3.42 C
1140 22-01-2019 22:55:00 -2.3 C 92 % -3.42 C
1141 22-01-2019 23:00:00 -2.2 C 92 % -3.32 C
1142 22-01-2019 23:05:00 -2.2 C 92 % -3.32 C
1143 22-01-2019 23:10:00 -2.2 C 92 % -3.32 C
1144 22-01-2019 23:15:00 -2.2 C 92 % -3.32 C
1145 22-01-2019 23:20:00 -2.2 C 92 % -3.32 C
1146 22-01-2019 23:25:00 -2.1 C 92 % -3.22 C
1147 22-01-2019 23:30:00 -2.1 C 92 % -3.22 C
1148 22-01-2019 23:35:00 -2.1 C 92 % -3.22 C
1149 22-01-2019 23:40:00 -2 C 92 % -3.12 C
1150 22-01-2019 23:45:00 -1.9 C 92 % -3.02 C
Sensor: Nr:Datum:Temp:Feuchte:Taupunkt:
Aussen-T/F 1151 22-01-2019 23:50:00 -1.9 C 91 % -3.17 C
1152 22-01-2019 23:55:00 -1.8 C 91 % -3.07 C
1153 23-01-2019 00:00:00 -1.8 C 91 % -3.07 C
1154 23-01-2019 00:05:00 -1.8 C 90 % -3.22 C
1155 23-01-2019 00:10:00 -1.7 C 90 % -3.12 C
1156 23-01-2019 00:15:00 -1.7 C 89 % -3.27 C
1157 23-01-2019 00:20:00 -1.7 C 89 % -3.27 C
1158 23-01-2019 00:25:00 -1.6 C 88 % -3.32 C
1159 23-01-2019 00:30:00 -1.6 C 88 % -3.32 C
1160 23-01-2019 00:35:00 -1.6 C 88 % -3.32 C
1161 23-01-2019 00:40:00 -1.6 C 88 % -3.32 C
1162 23-01-2019 00:45:00 -1.6 C 88 % -3.32 C
1163 23-01-2019 00:50:00 -1.6 C 89 % -3.17 C
1164 23-01-2019 00:55:00 -1.6 C 89 % -3.17 C
1165 23-01-2019 01:00:00 -1.6 C 89 % -3.17 C
1166 23-01-2019 01:05:00 -1.6 C 89 % -3.17 C
1167 23-01-2019 01:10:00 -1.6 C 89 % -3.17 C
1168 23-01-2019 01:15:00 -1.6 C 89 % -3.17 C
1169 23-01-2019 01:20:00 -1.6 C 89 % -3.17 C
1170 23-01-2019 01:25:00 -1.6 C 90 % -3.02 C
1171 23-01-2019 01:30:00 -1.6 C 90 % -3.02 C
1172 23-01-2019 01:35:00 -1.6 C 90 % -3.02 C
1173 23-01-2019 01:40:00 -1.7 C 90 % -3.12 C
1174 23-01-2019 01:45:00 -1.7 C 90 % -3.12 C
1175 23-01-2019 01:50:00 -1.7 C 90 % -3.12 C
Sensor: Nr:Datum:Temp:Feuchte:Taupunkt:
Aussen-T/F 1176 23-01-2019 01:55:00 -1.7 C 91 % -2.97 C
1177 23-01-2019 02:00:00 -1.7 C 91 % -2.97 C
1178 23-01-2019 02:05:00 -1.7 C 91 % -2.97 C
1179 23-01-2019 02:10:00 -1.7 C 91 % -2.97 C
1180 23-01-2019 02:15:00 -1.7 C 91 % -2.97 C
1181 23-01-2019 02:20:00 -1.7 C 91 % -2.97 C
1182 23-01-2019 02:25:00 -1.7 C 91 % -2.97 C
1183 23-01-2019 02:30:00 -1.7 C 91 % -2.97 C
1184 23-01-2019 02:35:00 -1.7 C 91 % -2.97 C
1185 23-01-2019 02:40:00 -1.7 C 91 % -2.97 C
1186 23-01-2019 02:45:00 -1.7 C 91 % -2.97 C
1187 23-01-2019 02:50:00 -1.7 C 91 % -2.97 C
1188 23-01-2019 02:55:00 -1.7 C 92 % -2.83 C
1189 23-01-2019 03:00:00 -1.7 C 92 % -2.83 C
1190 23-01-2019 03:05:00 -1.7 C 92 % -2.83 C
1191 23-01-2019 03:10:00 -1.7 C 92 % -2.83 C
1192 23-01-2019 03:15:00 -1.8 C 92 % -2.92 C
1193 23-01-2019 03:20:00 -1.8 C 92 % -2.92 C
1194 23-01-2019 03:25:00 -1.8 C 92 % -2.92 C
1195 23-01-2019 03:30:00 -1.8 C 92 % -2.92 C
1196 23-01-2019 03:35:00 -1.8 C 92 % -2.92 C
1197 23-01-2019 03:40:00 -1.8 C 92 % -2.92 C
1198 23-01-2019 03:45:00 -1.8 C 93 % -2.78 C
1199 23-01-2019 03:50:00 -1.8 C 93 % -2.78 C
1200 23-01-2019 03:55:00 -1.8 C 92 % -2.92 C
Sensor: Nr:Datum:Temp:Feuchte:Taupunkt:
Aussen-T/F 1201 23-01-2019 04:00:00 -1.8 C 93 % -2.78 C
1202 23-01-2019 04:05:00 -1.8 C 93 % -2.78 C
1203 23-01-2019 04:10:00 -1.8 C 93 % -2.78 C
1204 23-01-2019 04:15:00 -1.8 C 93 % -2.78 C
1205 23-01-2019 04:20:00 -1.8 C 93 % -2.78 C
1206 23-01-2019 04:25:00 -1.8 C 93 % -2.78 C
1207 23-01-2019 04:30:00 -1.8 C 93 % -2.78 C
1208 23-01-2019 04:35:00 -1.8 C 93 % -2.78 C
1209 23-01-2019 04:40:00 -1.8 C 93 % -2.78 C
1210 23-01-2019 04:45:00 -1.8 C 93 % -2.78 C
1211 23-01-2019 04:50:00 -1.9 C 93 % -2.88 C
1212 23-01-2019 04:55:00 -1.9 C 93 % -2.88 C
1213 23-01-2019 05:00:00 -1.9 C 93 % -2.88 C
1214 23-01-2019 05:05:00 -1.9 C 93 % -2.88 C
1215 23-01-2019 05:10:00 -1.9 C 93 % -2.88 C
1216 23-01-2019 05:15:00 -2 C 93 % -2.98 C
1217 23-01-2019 05:20:00 -2 C 93 % -2.98 C
1218 23-01-2019 05:25:00 -2 C 93 % -2.98 C
1219 23-01-2019 05:30:00 -2.1 C 94 % -2.93 C
1220 23-01-2019 05:35:00 -2.1 C 93 % -3.08 C
1221 23-01-2019 05:40:00 -2.1 C 93 % -3.08 C
1222 23-01-2019 05:45:00 -2.1 C 93 % -3.08 C
1223 23-01-2019 05:50:00 -2.1 C 94 % -2.93 C
1224 23-01-2019 05:55:00 -2.1 C 94 % -2.93 C
1225 23-01-2019 06:00:00 -2.1 C 94 % -2.93 C
Sensor: Nr:Datum:Temp:Feuchte:Taupunkt:
Aussen-T/F 1226 23-01-2019 06:05:00 -2.1 C 94 % -2.93 C
1227 23-01-2019 06:10:00 -2.2 C 94 % -3.03 C
1228 23-01-2019 06:15:00 -2.2 C 94 % -3.03 C
1229 23-01-2019 06:20:00 -2.2 C 94 % -3.03 C
1230 23-01-2019 06:25:00 -2.2 C 94 % -3.03 C
1231 23-01-2019 06:30:00 -2.2 C 94 % -3.03 C
1232 23-01-2019 06:35:00 -2.2 C 94 % -3.03 C
1233 23-01-2019 06:40:00 -2.2 C 94 % -3.03 C
1234 23-01-2019 06:45:00 -2.2 C 94 % -3.03 C
1235 23-01-2019 06:50:00 -2.2 C 94 % -3.03 C
1236 23-01-2019 06:55:00 -2.2 C 94 % -3.03 C
1237 23-01-2019 07:00:00 -2.2 C 94 % -3.03 C
1238 23-01-2019 07:05:00 -2.2 C 94 % -3.03 C
1239 23-01-2019 07:10:00 -2.2 C 94 % -3.03 C
1240 23-01-2019 07:15:00 -2.3 C 94 % -3.13 C
1241 23-01-2019 07:20:00 -2.3 C 94 % -3.13 C
1242 23-01-2019 07:25:00 -2.3 C 94 % -3.13 C
1243 23-01-2019 07:30:00 -2.3 C 94 % -3.13 C
1244 23-01-2019 07:35:00 -2.3 C 94 % -3.13 C
1245 23-01-2019 07:40:00 -2.3 C 94 % -3.13 C
1246 23-01-2019 07:45:00 -2.4 C 94 % -3.23 C
1247 23-01-2019 07:50:00 -2.4 C 94 % -3.23 C
1248 23-01-2019 07:55:00 -2.4 C 94 % -3.23 C
1249 23-01-2019 08:00:00 -2.4 C 94 % -3.23 C
1250 23-01-2019 08:05:00 -2.4 C 94 % -3.23 C
Sensor: Nr:Datum:Temp:Feuchte:Taupunkt:
Aussen-T/F 1251 23-01-2019 08:10:00 -2.4 C 94 % -3.23 C
1252 23-01-2019 08:15:00 -2.4 C 94 % -3.23 C
1253 23-01-2019 08:20:00 -2.4 C 94 % -3.23 C
1254 23-01-2019 08:25:00 -2.4 C 94 % -3.23 C
1255 23-01-2019 08:30:00 -2.4 C 94 % -3.23 C
1256 23-01-2019 08:35:00 -2.4 C 94 % -3.23 C
1257 23-01-2019 08:40:00 -2.4 C 94 % -3.23 C
1258 23-01-2019 08:45:00 -2.4 C 94 % -3.23 C
1259 23-01-2019 08:50:00 -2.4 C 94 % -3.23 C
1260 23-01-2019 08:55:00 -2.4 C 94 % -3.23 C
1261 23-01-2019 09:00:00 -2.4 C 94 % -3.23 C
1262 23-01-2019 09:05:00 -2.4 C 94 % -3.23 C
1263 23-01-2019 09:10:00 -2.4 C 94 % -3.23 C
1264 23-01-2019 09:15:00 -2.3 C 94 % -3.13 C
1265 23-01-2019 09:20:00 -2.3 C 94 % -3.13 C
1266 23-01-2019 09:25:00 -2.3 C 95 % -2.99 C
1267 23-01-2019 09:30:00 -2.3 C 95 % -2.99 C
1268 23-01-2019 09:35:00 -2.3 C 95 % -2.99 C
1269 23-01-2019 09:40:00 -2.2 C 95 % -2.89 C
1270 23-01-2019 09:45:00 -2.2 C 95 % -2.89 C
1271 23-01-2019 09:50:00 -2.1 C 95 % -2.79 C
1272 23-01-2019 09:55:00 -2.1 C 95 % -2.79 C
1273 23-01-2019 10:00:00 -2 C 95 % -2.69 C
1274 23-01-2019 10:05:00 -1.9 C 94 % -2.73 C
1275 23-01-2019 10:10:00 -1.9 C 94 % -2.73 C
Sensor: Nr:Datum:Temp:Feuchte:Taupunkt:
Aussen-T/F 1276 23-01-2019 10:15:00 -1.8 C 94 % -2.64 C
1277 23-01-2019 10:20:00 -1.8 C 94 % -2.64 C
1278 23-01-2019 10:25:00 -1.8 C 94 % -2.64 C
1279 23-01-2019 10:30:00 -1.7 C 94 % -2.54 C
1280 23-01-2019 10:35:00 -1.7 C 94 % -2.54 C
1281 23-01-2019 10:40:00 -1.7 C 94 % -2.54 C
1282 23-01-2019 10:45:00 -1.7 C 94 % -2.54 C
1283 23-01-2019 10:50:00 -1.6 C 94 % -2.44 C
1284 23-01-2019 10:55:00 -1.5 C 94 % -2.34 C
1285 23-01-2019 11:00:00 -1.4 C 94 % -2.24 C
1286 23-01-2019 11:05:00 -1.4 C 93 % -2.38 C
1287 23-01-2019 11:10:00 -1.4 C 93 % -2.38 C
1288 23-01-2019 11:15:00 -1.3 C 93 % -2.28 C
1289 23-01-2019 11:20:00 -1.3 C 92 % -2.43 C
1290 23-01-2019 11:25:00 -1.3 C 92 % -2.43 C
1291 23-01-2019 11:30:00 -1.3 C 92 % -2.43 C
1292 23-01-2019 11:35:00 -1.2 C 92 % -2.33 C
1293 23-01-2019 11:40:00 -1.2 C 92 % -2.33 C
1294 23-01-2019 11:45:00 -1.1 C 91 % -2.38 C
1295 23-01-2019 11:50:00 -1.1 C 91 % -2.38 C
1296 23-01-2019 11:55:00 -1 C 90 % -2.43 C
1297 23-01-2019 12:00:00 -0.9 C 90 % -2.33 C
1298 23-01-2019 12:05:00 -0.8 C 90 % -2.23 C
1299 23-01-2019 12:10:00 -0.8 C 89 % -2.38 C
1300 23-01-2019 12:15:00 -0.8 C 88 % -2.53 C
Sensor: Nr:Datum:Temp:Feuchte:Taupunkt:
Aussen-T/F 1301 23-01-2019 12:20:00 -0.8 C 88 % -2.53 C
1302 23-01-2019 12:25:00 -0.8 C 87 % -2.69 C
1303 23-01-2019 12:30:00 -0.7 C 87 % -2.59 C
1304 23-01-2019 12:35:00 -0.7 C 87 % -2.59 C
1305 23-01-2019 12:40:00 -0.7 C 87 % -2.59 C
1306 23-01-2019 12:45:00 -0.7 C 85 % -2.9 C
1307 23-01-2019 12:50:00 -0.7 C 85 % -2.9 C
1308 23-01-2019 12:55:00 -0.7 C 86 % -2.74 C
1309 23-01-2019 13:00:00 -0.7 C 86 % -2.74 C
1310 23-01-2019 13:05:00 -0.7 C 86 % -2.74 C
1311 23-01-2019 13:10:00 -0.7 C 86 % -2.74 C
1312 23-01-2019 13:15:00 -0.7 C 86 % -2.74 C
1313 23-01-2019 13:20:00 -0.7 C 85 % -2.9 C
1314 23-01-2019 13:25:00 -0.7 C 85 % -2.9 C
1315 23-01-2019 13:30:00 -0.7 C 84 % -3.06 C
1316 23-01-2019 13:35:00 -0.7 C 85 % -2.9 C
1317 23-01-2019 13:40:00 -0.7 C 84 % -3.06 C
1318 23-01-2019 13:45:00 -0.7 C 84 % -3.06 C
1319 23-01-2019 13:50:00 -0.7 C 85 % -2.9 C
1320 23-01-2019 13:55:00 -0.7 C 84 % -3.06 C
1321 23-01-2019 14:00:00 -0.7 C 84 % -3.06 C
1322 23-01-2019 14:05:00 -0.6 C 84 % -2.96 C
1323 23-01-2019 14:10:00 -0.7 C 84 % -3.06 C
1324 23-01-2019 14:15:00 -0.7 C 83 % -3.22 C
1325 23-01-2019 14:20:00 -0.7 C 84 % -3.06 C
Sensor: Nr:Datum:Temp:Feuchte:Taupunkt:
Aussen-T/F 1326 23-01-2019 14:25:00 -0.7 C 84 % -3.06 C
1327 23-01-2019 14:30:00 -0.7 C 84 % -3.06 C
1328 23-01-2019 14:35:00 -0.7 C 83 % -3.22 C
1329 23-01-2019 14:40:00 -0.7 C 83 % -3.22 C
1330 23-01-2019 14:45:00 -0.8 C 83 % -3.32 C
1331 23-01-2019 14:50:00 -0.8 C 83 % -3.32 C
1332 23-01-2019 14:55:00 -0.8 C 84 % -3.16 C
1333 23-01-2019 15:00:00 -0.8 C 83 % -3.32 C
1334 23-01-2019 15:05:00 -0.8 C 84 % -3.16 C
1335 23-01-2019 15:10:00 -0.8 C 83 % -3.32 C
1336 23-01-2019 15:15:00 -0.8 C 84 % -3.16 C
1337 23-01-2019 15:20:00 -0.8 C 83 % -3.32 C
1338 23-01-2019 15:25:00 -0.8 C 82 % -3.48 C
1339 23-01-2019 15:30:00 -0.8 C 83 % -3.32 C
1340 23-01-2019 15:35:00 -0.8 C 83 % -3.32 C
1341 23-01-2019 15:40:00 -0.8 C 83 % -3.32 C
1342 23-01-2019 15:45:00 -0.8 C 83 % -3.32 C
1343 23-01-2019 15:50:00 -0.8 C 82 % -3.48 C
1344 23-01-2019 15:55:00 -0.8 C 83 % -3.32 C
1345 23-01-2019 16:00:00 -0.8 C 83 % -3.32 C
1346 23-01-2019 16:05:00 -0.8 C 83 % -3.32 C
1347 23-01-2019 16:10:00 -0.8 C 83 % -3.32 C
1348 23-01-2019 16:15:00 -0.8 C 84 % -3.16 C
1349 23-01-2019 16:20:00 -0.8 C 84 % -3.16 C
1350 23-01-2019 16:25:00 -0.8 C 84 % -3.16 C
Sensor: Nr:Datum:Temp:Feuchte:Taupunkt:
Aussen-T/F 1351 23-01-2019 16:30:00 -0.8 C 84 % -3.16 C
1352 23-01-2019 16:35:00 -0.8 C 84 % -3.16 C
1353 23-01-2019 16:40:00 -0.9 C 84 % -3.26 C
1354 23-01-2019 16:45:00 -0.9 C 83 % -3.42 C
1355 23-01-2019 16:50:00 -0.9 C 84 % -3.26 C
1356 23-01-2019 16:55:00 -0.9 C 84 % -3.26 C
1357 23-01-2019 17:00:00 -0.9 C 85 % -3.1 C
1358 23-01-2019 17:05:00 -1 C 85 % -3.2 C
1359 23-01-2019 17:10:00 -1.1 C 85 % -3.29 C
1360 23-01-2019 17:15:00 -1.1 C 85 % -3.29 C
1361 23-01-2019 17:20:00 -1.1 C 86 % -3.14 C
1362 23-01-2019 17:25:00 -1.1 C 86 % -3.14 C
1363 23-01-2019 17:30:00 -1.2 C 85 % -3.39 C
1364 23-01-2019 17:35:00 -1.2 C 85 % -3.39 C
1365 23-01-2019 17:40:00 -1.2 C 85 % -3.39 C
1366 23-01-2019 17:45:00 -1.2 C 85 % -3.39 C
1367 23-01-2019 17:50:00 -1.2 C 86 % -3.24 C
1368 23-01-2019 17:55:00 -1.3 C 86 % -3.33 C
1369 23-01-2019 18:00:00 -1.3 C 87 % -3.18 C
1370 23-01-2019 18:05:00 -1.3 C 87 % -3.18 C
1371 23-01-2019 18:10:00 -1.3 C 87 % -3.18 C
1372 23-01-2019 18:15:00 -1.3 C 87 % -3.18 C
1373 23-01-2019 18:20:00 -1.3 C 87 % -3.18 C
1374 23-01-2019 18:25:00 -1.4 C 86 % -3.43 C
1375 23-01-2019 18:30:00 -1.4 C 87 % -3.28 C
Sensor: Nr:Datum:Temp:Feuchte:Taupunkt:
Aussen-T/F 1376 23-01-2019 18:35:00 -1.4 C 87 % -3.28 C
1377 23-01-2019 18:40:00 -1.4 C 87 % -3.28 C
1378 23-01-2019 18:45:00 -1.4 C 87 % -3.28 C
1379 23-01-2019 18:50:00 -1.5 C 87 % -3.38 C
1380 23-01-2019 18:55:00 -1.5 C 87 % -3.38 C
1381 23-01-2019 19:00:00 -1.5 C 87 % -3.38 C
1382 23-01-2019 19:05:00 -1.5 C 87 % -3.38 C
1383 23-01-2019 19:10:00 -1.6 C 87 % -3.48 C
1384 23-01-2019 19:15:00 -1.6 C 86 % -3.63 C
1385 23-01-2019 19:20:00 -1.5 C 85 % -3.69 C
1386 23-01-2019 19:25:00 -1.4 C 85 % -3.59 C
1387 23-01-2019 19:30:00 -1.4 C 86 % -3.43 C
1388 23-01-2019 19:35:00 -1.4 C 86 % -3.43 C
1389 23-01-2019 19:40:00 -1.4 C 86 % -3.43 C
1390 23-01-2019 19:45:00 -1.5 C 86 % -3.53 C
1391 23-01-2019 19:50:00 -1.5 C 87 % -3.38 C
1392 23-01-2019 19:55:00 -1.6 C 87 % -3.48 C
1393 23-01-2019 20:00:00 -1.6 C 87 % -3.48 C
1394 23-01-2019 20:05:00 -1.6 C 87 % -3.48 C
1395 23-01-2019 20:10:00 -1.6 C 87 % -3.48 C
1396 23-01-2019 20:15:00 -1.6 C 88 % -3.32 C
1397 23-01-2019 20:20:00 -1.7 C 88 % -3.42 C
1398 23-01-2019 20:25:00 -1.7 C 88 % -3.42 C
1399 23-01-2019 20:30:00 -1.7 C 88 % -3.42 C
1400 23-01-2019 20:35:00 -1.7 C 88 % -3.42 C
Sensor: Nr:Datum:Temp:Feuchte:Taupunkt:
Aussen-T/F 1401 23-01-2019 20:40:00 -1.8 C 88 % -3.52 C
1402 23-01-2019 20:45:00 -1.8 C 88 % -3.52 C
1403 23-01-2019 20:50:00 -1.8 C 89 % -3.37 C
1404 23-01-2019 20:55:00 -1.8 C 88 % -3.52 C
1405 23-01-2019 21:00:00 -1.8 C 88 % -3.52 C
1406 23-01-2019 21:05:00 -1.8 C 88 % -3.52 C
1407 23-01-2019 21:10:00 -1.8 C 88 % -3.52 C
1408 23-01-2019 21:15:00 -1.8 C 88 % -3.52 C
1409 23-01-2019 21:20:00 -1.8 C 88 % -3.52 C
1410 23-01-2019 21:25:00 -1.8 C 88 % -3.52 C
1411 23-01-2019 21:30:00 -1.8 C 88 % -3.52 C
1412 23-01-2019 21:35:00 -1.8 C 88 % -3.52 C
1413 23-01-2019 21:40:00 -1.8 C 89 % -3.37 C
1414 23-01-2019 21:45:00 -1.8 C 89 % -3.37 C
1415 23-01-2019 21:50:00 -1.9 C 89 % -3.47 C
1416 23-01-2019 21:55:00 -1.9 C 89 % -3.47 C
1417 23-01-2019 22:00:00 -1.9 C 88 % -3.62 C
1418 23-01-2019 22:05:00 -1.9 C 88 % -3.62 C
1419 23-01-2019 22:10:00 -1.9 C 88 % -3.62 C
1420 23-01-2019 22:15:00 -1.9 C 88 % -3.62 C
1421 23-01-2019 22:20:00 -1.9 C 88 % -3.62 C
1422 23-01-2019 22:25:00 -1.8 C 89 % -3.37 C
1423 23-01-2019 22:30:00 -1.8 C 88 % -3.52 C
1424 23-01-2019 22:35:00 -1.8 C 89 % -3.37 C
1425 23-01-2019 22:40:00 -1.9 C 89 % -3.47 C
Sensor: Nr:Datum:Temp:Feuchte:Taupunkt:
Aussen-T/F 1426 23-01-2019 22:45:00 -1.9 C 89 % -3.47 C
1427 23-01-2019 22:50:00 -1.9 C 89 % -3.47 C
1428 23-01-2019 22:55:00 -1.9 C 89 % -3.47 C
1429 23-01-2019 23:00:00 -1.9 C 89 % -3.47 C
1430 23-01-2019 23:05:00 -1.9 C 89 % -3.47 C
1431 23-01-2019 23:10:00 -1.8 C 89 % -3.37 C
1432 23-01-2019 23:15:00 -1.9 C 89 % -3.47 C
1433 23-01-2019 23:20:00 -1.9 C 89 % -3.47 C
1434 23-01-2019 23:25:00 -1.9 C 89 % -3.47 C
1435 23-01-2019 23:30:00 -1.9 C 89 % -3.47 C
1436 23-01-2019 23:35:00 -1.8 C 89 % -3.37 C
1437 23-01-2019 23:40:00 -1.9 C 89 % -3.47 C
1438 23-01-2019 23:45:00 -1.9 C 89 % -3.47 C
1439 23-01-2019 23:50:00 -1.9 C 89 % -3.47 C
1440 23-01-2019 23:55:00 -1.9 C 89 % -3.47 C
1441 24-01-2019 00:00:00 -1.9 C 89 % -3.47 C
1442 24-01-2019 00:05:00 -1.9 C 89 % -3.47 C
1443 24-01-2019 00:10:00 -1.9 C 89 % -3.47 C
1444 24-01-2019 00:15:00 -1.8 C 89 % -3.37 C
1445 24-01-2019 00:20:00 -1.9 C 88 % -3.62 C
1446 24-01-2019 00:25:00 -1.8 C 88 % -3.52 C
1447 24-01-2019 00:30:00 -1.8 C 88 % -3.52 C
1448 24-01-2019 00:35:00 -1.8 C 88 % -3.52 C
1449 24-01-2019 00:40:00 -1.8 C 88 % -3.52 C
1450 24-01-2019 00:45:00 -1.8 C 87 % -3.67 C
Sensor: Nr:Datum:Temp:Feuchte:Taupunkt:
Aussen-T/F 1451 24-01-2019 00:50:00 -1.8 C 87 % -3.67 C
1452 24-01-2019 00:55:00 -1.8 C 86 % -3.83 C
1453 24-01-2019 01:00:00 -1.7 C 86 % -3.73 C
1454 24-01-2019 01:05:00 -1.7 C 85 % -3.88 C
1455 24-01-2019 01:10:00 -1.7 C 85 % -3.88 C
1456 24-01-2019 01:15:00 -1.7 C 84 % -4.04 C
1457 24-01-2019 01:20:00 -1.7 C 83 % -4.2 C
1458 24-01-2019 01:25:00 -1.6 C 83 % -4.1 C
1459 24-01-2019 01:30:00 -1.6 C 83 % -4.1 C
1460 24-01-2019 01:35:00 -1.6 C 83 % -4.1 C
1461 24-01-2019 01:40:00 -1.6 C 82 % -4.26 C
1462 24-01-2019 01:45:00 -1.6 C 82 % -4.26 C
1463 24-01-2019 01:50:00 -1.6 C 82 % -4.26 C
1464 24-01-2019 01:55:00 -1.6 C 82 % -4.26 C
1465 24-01-2019 02:00:00 -1.6 C 82 % -4.26 C
1466 24-01-2019 02:05:00 -1.6 C 82 % -4.26 C
1467 24-01-2019 02:10:00 -1.6 C 82 % -4.26 C
1468 24-01-2019 02:15:00 -1.6 C 83 % -4.1 C
1469 24-01-2019 02:20:00 -1.6 C 83 % -4.1 C
1470 24-01-2019 02:25:00 -1.7 C 82 % -4.36 C
1471 24-01-2019 02:30:00 -1.7 C 82 % -4.36 C
1472 24-01-2019 02:35:00 -1.7 C 82 % -4.36 C
1473 24-01-2019 02:40:00 -1.7 C 82 % -4.36 C
1474 24-01-2019 02:45:00 -1.7 C 82 % -4.36 C
1475 24-01-2019 02:50:00 -1.7 C 82 % -4.36 C
Sensor: Nr:Datum:Temp:Feuchte:Taupunkt:
Aussen-T/F 1476 24-01-2019 02:55:00 -1.7 C 82 % -4.36 C
1477 24-01-2019 03:00:00 -1.7 C 83 % -4.2 C
1478 24-01-2019 03:05:00 -1.7 C 82 % -4.36 C
1479 24-01-2019 03:10:00 -1.7 C 82 % -4.36 C
1480 24-01-2019 03:15:00 -1.7 C 83 % -4.2 C
1481 24-01-2019 03:20:00 -1.7 C 83 % -4.2 C
1482 24-01-2019 03:25:00 -1.7 C 82 % -4.36 C
1483 24-01-2019 03:30:00 -1.7 C 82 % -4.36 C
1484 24-01-2019 03:35:00 -1.7 C 83 % -4.2 C
1485 24-01-2019 03:40:00 -1.7 C 83 % -4.2 C
1486 24-01-2019 03:45:00 -1.8 C 83 % -4.3 C
1487 24-01-2019 03:50:00 -1.8 C 83 % -4.3 C
1488 24-01-2019 03:55:00 -1.8 C 83 % -4.3 C
1489 24-01-2019 04:00:00 -1.8 C 83 % -4.3 C
1490 24-01-2019 04:05:00 -1.8 C 82 % -4.46 C
1491 24-01-2019 04:10:00 -1.8 C 83 % -4.3 C
1492 24-01-2019 04:15:00 -1.8 C 83 % -4.3 C
1493 24-01-2019 04:20:00 -1.8 C 83 % -4.3 C
1494 24-01-2019 04:25:00 -1.8 C 83 % -4.3 C
1495 24-01-2019 04:30:00 -1.8 C 83 % -4.3 C
1496 24-01-2019 04:35:00 -1.8 C 82 % -4.46 C
1497 24-01-2019 04:40:00 -1.9 C 83 % -4.4 C
1498 24-01-2019 04:45:00 -1.9 C 83 % -4.4 C
1499 24-01-2019 04:50:00 -1.9 C 83 % -4.4 C
1500 24-01-2019 04:55:00 -1.9 C 83 % -4.4 C
Sensor: Nr:Datum:Temp:Feuchte:Taupunkt:
Aussen-T/F 1501 24-01-2019 05:00:00 -1.9 C 83 % -4.4 C
1502 24-01-2019 05:05:00 -1.9 C 83 % -4.4 C
1503 24-01-2019 05:10:00 -1.9 C 83 % -4.4 C
1504 24-01-2019 05:15:00 -1.9 C 83 % -4.4 C
1505 24-01-2019 05:20:00 -1.9 C 83 % -4.4 C
1506 24-01-2019 05:25:00 -1.9 C 83 % -4.4 C
1507 24-01-2019 05:30:00 -1.9 C 82 % -4.56 C
1508 24-01-2019 05:35:00 -1.9 C 83 % -4.4 C
1509 24-01-2019 05:40:00 -1.9 C 82 % -4.56 C
1510 24-01-2019 05:45:00 -1.9 C 83 % -4.4 C
1511 24-01-2019 05:50:00 -1.9 C 82 % -4.56 C
1512 24-01-2019 05:55:00 -1.9 C 82 % -4.56 C
1513 24-01-2019 06:00:00 -1.9 C 83 % -4.4 C
1514 24-01-2019 06:05:00 -1.9 C 83 % -4.4 C
1515 24-01-2019 06:10:00 -2 C 83 % -4.49 C
1516 24-01-2019 06:15:00 -2 C 84 % -4.34 C
1517 24-01-2019 06:20:00 -2 C 84 % -4.34 C
1518 24-01-2019 06:25:00 -2 C 84 % -4.34 C
1519 24-01-2019 06:30:00 -2 C 83 % -4.49 C
1520 24-01-2019 06:35:00 -2.1 C 83 % -4.59 C
1521 24-01-2019 06:40:00 -2.1 C 83 % -4.59 C
1522 24-01-2019 06:45:00 -2 C 83 % -4.49 C
1523 24-01-2019 06:50:00 -2.1 C 83 % -4.59 C
1524 24-01-2019 06:55:00 -2.1 C 83 % -4.59 C
1525 24-01-2019 07:00:00 -2.1 C 83 % -4.59 C
Sensor: Nr:Datum:Temp:Feuchte:Taupunkt:
Aussen-T/F 1526 24-01-2019 07:05:00 -2.1 C 83 % -4.59 C
1527 24-01-2019 07:10:00 -2.1 C 83 % -4.59 C
1528 24-01-2019 07:15:00 -2.1 C 83 % -4.59 C
1529 24-01-2019 07:20:00 -2.1 C 83 % -4.59 C
1530 24-01-2019 07:25:00 -2.1 C 83 % -4.59 C
1531 24-01-2019 07:30:00 -2.1 C 84 % -4.43 C
1532 24-01-2019 07:35:00 -2.1 C 83 % -4.59 C
1533 24-01-2019 07:40:00 -2.1 C 83 % -4.59 C
1534 24-01-2019 07:45:00 -2.1 C 84 % -4.43 C
1535 24-01-2019 07:50:00 -2.1 C 83 % -4.59 C
1536 24-01-2019 07:55:00 -2.1 C 84 % -4.43 C
1537 24-01-2019 08:00:00 -2.1 C 83 % -4.59 C
1538 24-01-2019 08:05:00 -2.1 C 84 % -4.43 C
1539 24-01-2019 08:10:00 -2.1 C 84 % -4.43 C
1540 24-01-2019 08:15:00 -2.1 C 84 % -4.43 C
1541 24-01-2019 08:20:00 -2.2 C 83 % -4.69 C
1542 24-01-2019 08:25:00 -2.2 C 84 % -4.53 C
1543 24-01-2019 08:30:00 -2.2 C 83 % -4.69 C
1544 24-01-2019 08:35:00 -2.2 C 83 % -4.69 C
1545 24-01-2019 08:40:00 -2.2 C 84 % -4.53 C
1546 24-01-2019 08:45:00 -2.2 C 84 % -4.53 C
1547 24-01-2019 08:50:00 -2.2 C 84 % -4.53 C
1548 24-01-2019 08:55:00 -2.2 C 84 % -4.53 C
1549 24-01-2019 09:00:00 -2.2 C 84 % -4.53 C
1550 24-01-2019 09:05:00 -2.2 C 84 % -4.53 C
Sensor: Nr:Datum:Temp:Feuchte:Taupunkt:
Aussen-T/F 1551 24-01-2019 09:10:00 -2.2 C 83 % -4.69 C
1552 24-01-2019 09:15:00 -2.2 C 84 % -4.53 C
1553 24-01-2019 09:20:00 -2.2 C 83 % -4.69 C
1554 24-01-2019 09:25:00 -2.2 C 83 % -4.69 C
1555 24-01-2019 09:30:00 -2.2 C 83 % -4.69 C
1556 24-01-2019 09:35:00 -2.1 C 83 % -4.59 C
1557 24-01-2019 09:40:00 -2.1 C 83 % -4.59 C
1558 24-01-2019 09:45:00 -2.1 C 84 % -4.43 C
1559 24-01-2019 09:50:00 -2 C 83 % -4.49 C
1560 24-01-2019 09:55:00 -2 C 83 % -4.49 C
1561 24-01-2019 10:00:00 -2 C 83 % -4.49 C
1562 24-01-2019 10:05:00 -1.9 C 83 % -4.4 C
1563 24-01-2019 10:10:00 -1.9 C 83 % -4.4 C
1564 24-01-2019 10:15:00 -1.9 C 83 % -4.4 C
1565 24-01-2019 10:20:00 -1.9 C 83 % -4.4 C
1566 24-01-2019 10:25:00 -1.9 C 83 % -4.4 C
1567 24-01-2019 10:30:00 -1.9 C 83 % -4.4 C
1568 24-01-2019 10:35:00 -1.9 C 84 % -4.24 C
1569 24-01-2019 10:40:00 -1.9 C 84 % -4.24 C
1570 24-01-2019 10:45:00 -1.9 C 85 % -4.08 C
1571 24-01-2019 10:50:00 -1.9 C 85 % -4.08 C
1572 24-01-2019 10:55:00 -1.9 C 85 % -4.08 C
1573 24-01-2019 11:00:00 -1.9 C 86 % -3.92 C
1574 24-01-2019 11:05:00 -1.9 C 87 % -3.77 C
1575 24-01-2019 11:10:00 -1.9 C 87 % -3.77 C
Sensor: Nr:Datum:Temp:Feuchte:Taupunkt:
Aussen-T/F 1576 24-01-2019 11:15:00 -2 C 88 % -3.72 C
1577 24-01-2019 11:20:00 -2.1 C 88 % -3.82 C
1578 24-01-2019 11:25:00 -2.1 C 89 % -3.66 C
1579 24-01-2019 11:30:00 -2.1 C 89 % -3.66 C
1580 24-01-2019 11:35:00 -2.1 C 89 % -3.66 C
1581 24-01-2019 11:40:00 -2.1 C 89 % -3.66 C
1582 24-01-2019 11:45:00 -2.2 C 89 % -3.76 C
1583 24-01-2019 11:50:00 -2.2 C 90 % -3.61 C
1584 24-01-2019 11:55:00 -2.1 C 90 % -3.52 C
1585 24-01-2019 12:00:00 -2.1 C 90 % -3.52 C
1586 24-01-2019 12:05:00 -2.1 C 90 % -3.52 C
1587 24-01-2019 12:10:00 -2.1 C 89 % -3.66 C
1588 24-01-2019 12:15:00 -2.1 C 89 % -3.66 C
1589 24-01-2019 12:20:00 -2 C 89 % -3.57 C
1590 24-01-2019 12:25:00 -1.9 C 89 % -3.47 C
1591 24-01-2019 12:30:00 -1.8 C 88 % -3.52 C
1592 24-01-2019 12:35:00 -1.8 C 88 % -3.52 C
1593 24-01-2019 12:40:00 -1.7 C 88 % -3.42 C
1594 24-01-2019 12:45:00 -1.6 C 88 % -3.32 C
1595 24-01-2019 12:50:00 -1.6 C 88 % -3.32 C
1596 24-01-2019 12:55:00 -1.6 C 87 % -3.48 C
1597 24-01-2019 13:00:00 -1.6 C 87 % -3.48 C
1598 24-01-2019 13:05:00 -1.5 C 88 % -3.22 C
1599 24-01-2019 13:10:00 -1.4 C 87 % -3.28 C
1600 24-01-2019 13:15:00 -1.4 C 86 % -3.43 C
Sensor: Nr:Datum:Temp:Feuchte:Taupunkt:
Aussen-T/F 1601 24-01-2019 13:20:00 -1.4 C 86 % -3.43 C
1602 24-01-2019 13:25:00 -1.3 C 85 % -3.49 C
1603 24-01-2019 13:30:00 -1.3 C 85 % -3.49 C
1604 24-01-2019 13:35:00 -1.3 C 84 % -3.65 C
1605 24-01-2019 13:40:00 -1.3 C 84 % -3.65 C
1606 24-01-2019 13:45:00 -1.2 C 84 % -3.55 C
1607 24-01-2019 13:50:00 -1.2 C 84 % -3.55 C
1608 24-01-2019 13:55:00 -1.2 C 83 % -3.71 C
1609 24-01-2019 14:00:00 -1.2 C 83 % -3.71 C
1610 24-01-2019 14:05:00 -1.2 C 83 % -3.71 C
1611 24-01-2019 14:10:00 -1.1 C 83 % -3.61 C
1612 24-01-2019 14:15:00 -1.2 C 82 % -3.87 C
1613 24-01-2019 14:20:00 -1.2 C 82 % -3.87 C
1614 24-01-2019 14:25:00 -1.3 C 83 % -3.81 C
1615 24-01-2019 14:30:00 -1.3 C 82 % -3.97 C
1616 24-01-2019 14:35:00 -1.3 C 83 % -3.81 C
1617 24-01-2019 14:40:00 -1.2 C 83 % -3.71 C
1618 24-01-2019 14:45:00 -1.2 C 82 % -3.87 C
1619 24-01-2019 14:50:00 -1.2 C 81 % -4.04 C
1620 24-01-2019 14:55:00 -1.2 C 81 % -4.04 C
1621 24-01-2019 15:00:00 -1.2 C 81 % -4.04 C
1622 24-01-2019 15:05:00 -1.3 C 80 % -4.3 C
1623 24-01-2019 15:10:00 -1.3 C 80 % -4.3 C
1624 24-01-2019 15:15:00 -1.4 C 79 % -4.56 C
1625 24-01-2019 15:20:00 -1.4 C 80 % -4.4 C
Sensor: Nr:Datum:Temp:Feuchte:Taupunkt:
Aussen-T/F 1626 24-01-2019 15:25:00 -1.4 C 80 % -4.4 C
1627 24-01-2019 15:30:00 -1.4 C 80 % -4.4 C
1628 24-01-2019 15:35:00 -1.3 C 80 % -4.3 C
1629 24-01-2019 15:40:00 -1.3 C 80 % -4.3 C
1630 24-01-2019 15:45:00 -1.3 C 80 % -4.3 C
1631 24-01-2019 15:50:00 -1.3 C 80 % -4.3 C
1632 24-01-2019 15:55:00 -1.3 C 79 % -4.46 C
1633 24-01-2019 16:00:00 -1.3 C 79 % -4.46 C
1634 24-01-2019 16:05:00 -1.4 C 79 % -4.56 C
1635 24-01-2019 16:10:00 -1.4 C 80 % -4.4 C
1636 24-01-2019 16:15:00 -1.4 C 80 % -4.4 C
1637 24-01-2019 16:20:00 -1.4 C 80 % -4.4 C
1638 24-01-2019 16:25:00 -1.4 C 80 % -4.4 C
1639 24-01-2019 16:30:00 -1.4 C 81 % -4.23 C
1640 24-01-2019 16:35:00 -1.5 C 81 % -4.33 C
1641 24-01-2019 16:40:00 -1.6 C 81 % -4.43 C
1642 24-01-2019 16:45:00 -1.6 C 81 % -4.43 C
1643 24-01-2019 16:50:00 -1.6 C 82 % -4.26 C
1644 24-01-2019 16:55:00 -1.7 C 82 % -4.36 C
1645 24-01-2019 17:00:00 -1.7 C 83 % -4.2 C
1646 24-01-2019 17:05:00 -1.7 C 83 % -4.2 C
1647 24-01-2019 17:10:00 -1.7 C 83 % -4.2 C
1648 24-01-2019 17:15:00 -1.7 C 82 % -4.36 C
1649 24-01-2019 17:20:00 -1.7 C 83 % -4.2 C
1650 24-01-2019 17:25:00 -1.8 C 81 % -4.62 C
Sensor: Nr:Datum:Temp:Feuchte:Taupunkt:
Aussen-T/F 1651 24-01-2019 17:30:00 -1.8 C 81 % -4.62 C
1652 24-01-2019 17:35:00 -1.8 C 81 % -4.62 C
1653 24-01-2019 17:40:00 -1.8 C 80 % -4.79 C
1654 24-01-2019 17:45:00 -1.8 C 80 % -4.79 C
1655 24-01-2019 17:50:00 -1.8 C 80 % -4.79 C
1656 24-01-2019 17:55:00 -1.8 C 80 % -4.79 C
1657 24-01-2019 18:00:00 -1.9 C 80 % -4.88 C
1658 24-01-2019 18:05:00 -1.9 C 81 % -4.72 C
1659 24-01-2019 18:10:00 -1.9 C 80 % -4.88 C
1660 24-01-2019 18:15:00 -1.9 C 82 % -4.56 C
1661 24-01-2019 18:20:00 -1.9 C 81 % -4.72 C
1662 24-01-2019 18:25:00 -1.9 C 82 % -4.56 C
1663 24-01-2019 18:30:00 -1.9 C 82 % -4.56 C
1664 24-01-2019 18:35:00 -2 C 81 % -4.82 C
1665 24-01-2019 18:40:00 -2 C 80 % -4.98 C
1666 24-01-2019 18:45:00 -1.9 C 81 % -4.72 C
1667 24-01-2019 18:50:00 -1.9 C 81 % -4.72 C
1668 24-01-2019 18:55:00 -1.9 C 82 % -4.56 C
1669 24-01-2019 19:00:00 -2 C 81 % -4.82 C
1670 24-01-2019 19:05:00 -2 C 81 % -4.82 C
1671 24-01-2019 19:10:00 -2 C 81 % -4.82 C
1672 24-01-2019 19:15:00 -2 C 82 % -4.65 C
1673 24-01-2019 19:20:00 -2 C 83 % -4.49 C
1674 24-01-2019 19:25:00 -2.1 C 83 % -4.59 C
1675 24-01-2019 19:30:00 -2.1 C 83 % -4.59 C
Sensor: Nr:Datum:Temp:Feuchte:Taupunkt:
Aussen-T/F 1676 24-01-2019 19:35:00 -2.1 C 83 % -4.59 C
1677 24-01-2019 19:40:00 -2.1 C 84 % -4.43 C
1678 24-01-2019 19:45:00 -2.2 C 84 % -4.53 C
1679 24-01-2019 19:50:00 -2.2 C 84 % -4.53 C
1680 24-01-2019 19:55:00 -2.2 C 84 % -4.53 C
1681 24-01-2019 20:00:00 -2.3 C 84 % -4.63 C
1682 24-01-2019 20:05:00 -2.3 C 84 % -4.63 C
1683 24-01-2019 20:10:00 -2.3 C 84 % -4.63 C
1684 24-01-2019 20:15:00 -2.3 C 85 % -4.47 C
1685 24-01-2019 20:20:00 -2.3 C 85 % -4.47 C
1686 24-01-2019 20:25:00 -2.4 C 84 % -4.73 C
1687 24-01-2019 20:30:00 -2.5 C 84 % -4.83 C
1688 24-01-2019 20:35:00 -2.6 C 84 % -4.92 C
1689 24-01-2019 20:40:00 -2.7 C 84 % -5.02 C
1690 24-01-2019 20:45:00 -2.7 C 85 % -4.87 C
1691 24-01-2019 20:50:00 -2.7 C 85 % -4.87 C
1692 24-01-2019 20:55:00 -2.7 C 85 % -4.87 C
1693 24-01-2019 21:00:00 -2.7 C 86 % -4.71 C
1694 24-01-2019 21:05:00 -2.7 C 86 % -4.71 C
1695 24-01-2019 21:10:00 -2.7 C 86 % -4.71 C
1696 24-01-2019 21:15:00 -2.7 C 86 % -4.71 C
1697 24-01-2019 21:20:00 -2.6 C 87 % -4.46 C
1698 24-01-2019 21:25:00 -2.6 C 87 % -4.46 C
1699 24-01-2019 21:30:00 -2.6 C 86 % -4.61 C
1700 24-01-2019 21:35:00 -2.6 C 86 % -4.61 C
Sensor: Nr:Datum:Temp:Feuchte:Taupunkt:
Aussen-T/F 1701 24-01-2019 21:40:00 -2.6 C 86 % -4.61 C
1702 24-01-2019 21:45:00 -2.6 C 86 % -4.61 C
1703 24-01-2019 21:50:00 -2.6 C 86 % -4.61 C
1704 24-01-2019 21:55:00 -2.6 C 87 % -4.46 C
1705 24-01-2019 22:00:00 -2.6 C 86 % -4.61 C
1706 24-01-2019 22:05:00 -2.6 C 86 % -4.61 C
1707 24-01-2019 22:10:00 -2.6 C 86 % -4.61 C
1708 24-01-2019 22:15:00 -2.6 C 86 % -4.61 C
1709 24-01-2019 22:20:00 -2.6 C 86 % -4.61 C
1710 24-01-2019 22:25:00 -2.6 C 86 % -4.61 C
1711 24-01-2019 22:30:00 -2.5 C 86 % -4.51 C
1712 24-01-2019 22:35:00 -2.5 C 87 % -4.36 C
1713 24-01-2019 22:40:00 -2.5 C 87 % -4.36 C
1714 24-01-2019 22:45:00 -2.5 C 87 % -4.36 C
1715 24-01-2019 22:50:00 -2.4 C 87 % -4.26 C
1716 24-01-2019 22:55:00 -2.4 C 87 % -4.26 C
1717 24-01-2019 23:00:00 -2.4 C 87 % -4.26 C
1718 24-01-2019 23:05:00 -2.4 C 87 % -4.26 C
1719 24-01-2019 23:10:00 -2.4 C 87 % -4.26 C
1720 24-01-2019 23:15:00 -2.4 C 87 % -4.26 C
1721 24-01-2019 23:20:00 -2.4 C 87 % -4.26 C
1722 24-01-2019 23:25:00 -2.4 C 87 % -4.26 C
1723 24-01-2019 23:30:00 -2.4 C 87 % -4.26 C
1724 24-01-2019 23:35:00 -2.4 C 87 % -4.26 C
1725 24-01-2019 23:40:00 -2.4 C 88 % -4.11 C
Sensor: Nr:Datum:Temp:Feuchte:Taupunkt:
Aussen-T/F 1726 24-01-2019 23:45:00 -2.4 C 87 % -4.26 C
1727 24-01-2019 23:50:00 -2.4 C 87 % -4.26 C
1728 24-01-2019 23:55:00 -2.4 C 87 % -4.26 C
1729 25-01-2019 00:00:00 -2.4 C 87 % -4.26 C
1730 25-01-2019 00:05:00 -2.4 C 87 % -4.26 C
1731 25-01-2019 00:10:00 -2.4 C 87 % -4.26 C
1732 25-01-2019 00:15:00 -2.4 C 87 % -4.26 C
1733 25-01-2019 00:20:00 -2.4 C 87 % -4.26 C
1734 25-01-2019 00:25:00 -2.4 C 87 % -4.26 C
1735 25-01-2019 00:30:00 -2.4 C 87 % -4.26 C
1736 25-01-2019 00:35:00 -2.4 C 86 % -4.42 C
1737 25-01-2019 00:40:00 -2.4 C 86 % -4.42 C
1738 25-01-2019 00:45:00 -2.3 C 86 % -4.32 C
1739 25-01-2019 00:50:00 -2.3 C 86 % -4.32 C
1740 25-01-2019 00:55:00 -2.3 C 86 % -4.32 C
1741 25-01-2019 01:00:00 -2.3 C 86 % -4.32 C
1742 25-01-2019 01:05:00 -2.3 C 86 % -4.32 C
1743 25-01-2019 01:10:00 -2.2 C 86 % -4.22 C
1744 25-01-2019 01:15:00 -2.2 C 86 % -4.22 C
1745 25-01-2019 01:20:00 -2.2 C 86 % -4.22 C
1746 25-01-2019 01:25:00 -2.2 C 86 % -4.22 C
1747 25-01-2019 01:30:00 -2.1 C 86 % -4.12 C
1748 25-01-2019 01:35:00 -2.1 C 86 % -4.12 C
1749 25-01-2019 01:40:00 -2.1 C 86 % -4.12 C
1750 25-01-2019 01:45:00 -2 C 86 % -4.02 C
Sensor: Nr:Datum:Temp:Feuchte:Taupunkt:
Aussen-T/F 1751 25-01-2019 01:50:00 -2 C 86 % -4.02 C
1752 25-01-2019 01:55:00 -1.9 C 86 % -3.92 C
1753 25-01-2019 02:00:00 -1.9 C 86 % -3.92 C
1754 25-01-2019 02:05:00 -1.9 C 86 % -3.92 C
1755 25-01-2019 02:10:00 -1.9 C 86 % -3.92 C
1756 25-01-2019 02:15:00 -1.8 C 86 % -3.83 C
1757 25-01-2019 02:20:00 -1.8 C 87 % -3.67 C
1758 25-01-2019 02:25:00 -1.8 C 86 % -3.83 C
1759 25-01-2019 02:30:00 -1.8 C 87 % -3.67 C
1760 25-01-2019 02:35:00 -1.8 C 86 % -3.83 C
1761 25-01-2019 02:40:00 -1.8 C 87 % -3.67 C
1762 25-01-2019 02:45:00 -1.8 C 87 % -3.67 C
1763 25-01-2019 02:50:00 -1.7 C 87 % -3.57 C
1764 25-01-2019 02:55:00 -1.7 C 87 % -3.57 C
1765 25-01-2019 03:00:00 -1.7 C 87 % -3.57 C
1766 25-01-2019 03:05:00 -1.7 C 87 % -3.57 C
1767 25-01-2019 03:10:00 -1.7 C 87 % -3.57 C
1768 25-01-2019 03:15:00 -1.7 C 87 % -3.57 C
1769 25-01-2019 03:20:00 -1.7 C 88 % -3.42 C
1770 25-01-2019 03:25:00 -1.7 C 88 % -3.42 C
1771 25-01-2019 03:30:00 -1.7 C 88 % -3.42 C
1772 25-01-2019 03:35:00 -1.7 C 88 % -3.42 C
1773 25-01-2019 03:40:00 -1.7 C 88 % -3.42 C
1774 25-01-2019 03:45:00 -1.7 C 88 % -3.42 C
1775 25-01-2019 03:50:00 -1.7 C 88 % -3.42 C
Sensor: Nr:Datum:Temp:Feuchte:Taupunkt:
Aussen-T/F 1776 25-01-2019 03:55:00 -1.7 C 88 % -3.42 C
1777 25-01-2019 04:00:00 -1.6 C 88 % -3.32 C
1778 25-01-2019 04:05:00 -1.6 C 88 % -3.32 C
1779 25-01-2019 04:10:00 -1.6 C 88 % -3.32 C
1780 25-01-2019 04:15:00 -1.6 C 88 % -3.32 C
1781 25-01-2019 04:20:00 -1.6 C 88 % -3.32 C
1782 25-01-2019 04:25:00 -1.6 C 88 % -3.32 C
1783 25-01-2019 04:30:00 -1.6 C 88 % -3.32 C
1784 25-01-2019 04:35:00 -1.6 C 89 % -3.17 C
1785 25-01-2019 04:40:00 -1.5 C 89 % -3.07 C
1786 25-01-2019 04:45:00 -1.5 C 89 % -3.07 C
1787 25-01-2019 04:50:00 -1.5 C 89 % -3.07 C
1788 25-01-2019 04:55:00 -1.5 C 89 % -3.07 C
1789 25-01-2019 05:00:00 -1.4 C 89 % -2.97 C
1790 25-01-2019 05:05:00 -1.4 C 89 % -2.97 C
1791 25-01-2019 05:10:00 -1.4 C 89 % -2.97 C
1792 25-01-2019 05:15:00 -1.4 C 89 % -2.97 C
1793 25-01-2019 05:20:00 -1.4 C 89 % -2.97 C
1794 25-01-2019 05:25:00 -1.4 C 89 % -2.97 C
1795 25-01-2019 05:30:00 -1.4 C 89 % -2.97 C
1796 25-01-2019 05:35:00 -1.4 C 89 % -2.97 C
1797 25-01-2019 05:40:00 -1.4 C 89 % -2.97 C
1798 25-01-2019 05:45:00 -1.4 C 90 % -2.82 C
1799 25-01-2019 05:50:00 -1.4 C 90 % -2.82 C
1800 25-01-2019 05:55:00 -1.4 C 90 % -2.82 C
Sensor: Nr:Datum:Temp:Feuchte:Taupunkt:
Aussen-T/F 1801 25-01-2019 06:00:00 -1.3 C 90 % -2.73 C
1802 25-01-2019 06:05:00 -1.3 C 90 % -2.73 C
1803 25-01-2019 06:10:00 -1.3 C 90 % -2.73 C
1804 25-01-2019 06:15:00 -1.3 C 90 % -2.73 C
1805 25-01-2019 06:20:00 -1.3 C 90 % -2.73 C
1806 25-01-2019 06:25:00 -1.3 C 90 % -2.73 C
1807 25-01-2019 06:30:00 -1.3 C 90 % -2.73 C
1808 25-01-2019 06:35:00 -1.3 C 90 % -2.73 C
1809 25-01-2019 06:40:00 -1.3 C 90 % -2.73 C
1810 25-01-2019 06:45:00 -1.3 C 90 % -2.73 C
1811 25-01-2019 06:50:00 -1.3 C 90 % -2.73 C
1812 25-01-2019 06:55:00 -1.3 C 90 % -2.73 C
1813 25-01-2019 07:00:00 -1.3 C 90 % -2.73 C
1814 25-01-2019 07:05:00 -1.3 C 90 % -2.73 C
1815 25-01-2019 07:10:00 -1.3 C 90 % -2.73 C
1816 25-01-2019 07:15:00 -1.3 C 90 % -2.73 C
1817 25-01-2019 07:20:00 -1.3 C 90 % -2.73 C
1818 25-01-2019 07:25:00 -1.2 C 90 % -2.63 C
1819 25-01-2019 07:30:00 -1.2 C 90 % -2.63 C
1820 25-01-2019 07:35:00 -1.2 C 90 % -2.63 C
1821 25-01-2019 07:40:00 -1.2 C 90 % -2.63 C
1822 25-01-2019 07:45:00 -1.2 C 91 % -2.48 C
1823 25-01-2019 07:50:00 -1.2 C 91 % -2.48 C
1824 25-01-2019 07:55:00 -1.2 C 91 % -2.48 C
1825 25-01-2019 08:00:00 -1.2 C 91 % -2.48 C
Sensor: Nr:Datum:Temp:Feuchte:Taupunkt:
Aussen-T/F 1826 25-01-2019 08:05:00 -1.2 C 91 % -2.48 C
1827 25-01-2019 08:10:00 -1.2 C 91 % -2.48 C
1828 25-01-2019 08:15:00 -1.2 C 91 % -2.48 C
1829 25-01-2019 08:20:00 -1.2 C 91 % -2.48 C
1830 25-01-2019 08:25:00 -1.1 C 91 % -2.38 C
1831 25-01-2019 08:30:00 -1.1 C 91 % -2.38 C
1832 25-01-2019 08:35:00 -1.1 C 91 % -2.38 C
1833 25-01-2019 08:40:00 -1 C 91 % -2.28 C
1834 25-01-2019 08:45:00 -1 C 91 % -2.28 C
1835 25-01-2019 08:50:00 -1 C 91 % -2.28 C
1836 25-01-2019 08:55:00 -0.9 C 91 % -2.18 C
1837 25-01-2019 09:00:00 -0.9 C 91 % -2.18 C
1838 25-01-2019 09:05:00 -0.9 C 91 % -2.18 C
1839 25-01-2019 09:10:00 -0.9 C 91 % -2.18 C
1840 25-01-2019 09:15:00 -0.8 C 91 % -2.08 C
1841 25-01-2019 09:20:00 -0.8 C 91 % -2.08 C
1842 25-01-2019 09:25:00 -0.8 C 91 % -2.08 C
1843 25-01-2019 09:30:00 -0.8 C 91 % -2.08 C
1844 25-01-2019 09:35:00 -0.7 C 91 % -1.98 C
1845 25-01-2019 09:40:00 -0.7 C 91 % -1.98 C
1846 25-01-2019 09:45:00 -0.6 C 91 % -1.88 C
1847 25-01-2019 09:50:00 -0.6 C 91 % -1.88 C
1848 25-01-2019 09:55:00 -0.5 C 91 % -1.78 C
1849 25-01-2019 10:00:00 -0.5 C 91 % -1.78 C
1850 25-01-2019 10:05:00 -0.4 C 91 % -1.69 C
Sensor: Nr:Datum:Temp:Feuchte:Taupunkt:
Aussen-T/F 1851 25-01-2019 10:10:00 -0.4 C 91 % -1.69 C
1852 25-01-2019 10:15:00 -0.3 C 91 % -1.59 C
1853 25-01-2019 10:20:00 -0.3 C 91 % -1.59 C
1854 25-01-2019 10:25:00 -0.2 C 91 % -1.49 C
1855 25-01-2019 10:30:00 -0.2 C 91 % -1.49 C
1856 25-01-2019 10:35:00 -0.1 C 91 % -1.39 C
1857 25-01-2019 10:40:00 -0.1 C 91 % -1.39 C
1858 25-01-2019 10:45:00 0 C 92 % -1.14 C
1859 25-01-2019 10:50:00 0 C 91 % -1.29 C
1860 25-01-2019 10:55:00 0.1 C 91 % -1.19 C
1861 25-01-2019 11:00:00 0.1 C 91 % -1.19 C
1862 25-01-2019 11:05:00 0.2 C 91 % -1.09 C
1863 25-01-2019 11:10:00 0.3 C 91 % -0.99 C
1864 25-01-2019 11:15:00 0.4 C 91 % -0.89 C
1865 25-01-2019 11:20:00 0.4 C 90 % -1.04 C
1866 25-01-2019 11:25:00 0.5 C 90 % -0.95 C
1867 25-01-2019 11:30:00 0.7 C 90 % -0.75 C
1868 25-01-2019 11:35:00 0.8 C 90 % -0.65 C
1869 25-01-2019 11:40:00 0.9 C 90 % -0.55 C
1870 25-01-2019 11:45:00 1 C 89 % -0.6 C
1871 25-01-2019 11:50:00 1.1 C 89 % -0.51 C
1872 25-01-2019 11:55:00 1.2 C 88 % -0.56 C
1873 25-01-2019 12:00:00 1.2 C 88 % -0.56 C
1874 25-01-2019 12:05:00 1.2 C 88 % -0.56 C
1875 25-01-2019 12:10:00 1.3 C 88 % -0.46 C
Sensor: Nr:Datum:Temp:Feuchte:Taupunkt:
Aussen-T/F 1876 25-01-2019 12:15:00 1.4 C 88 % -0.36 C
1877 25-01-2019 12:20:00 1.5 C 87 % -0.42 C
1878 25-01-2019 12:25:00 1.6 C 87 % -0.32 C
1879 25-01-2019 12:30:00 1.7 C 86 % -0.38 C
1880 25-01-2019 12:35:00 1.7 C 86 % -0.38 C
1881 25-01-2019 12:40:00 1.8 C 86 % -0.29 C
1882 25-01-2019 12:45:00 1.9 C 86 % -0.19 C
1883 25-01-2019 12:50:00 2.1 C 85 % -0.15 C
1884 25-01-2019 12:55:00 2.2 C 84 % -0.22 C
1885 25-01-2019 13:00:00 2.3 C 84 % -0.12 C
1886 25-01-2019 13:05:00 2.3 C 83 % -0.28 C
1887 25-01-2019 13:10:00 2.4 C 82 % -0.35 C
1888 25-01-2019 13:15:00 2.5 C 81 % -0.42 C
1889 25-01-2019 13:20:00 2.6 C 81 % -0.32 C
1890 25-01-2019 13:25:00 2.6 C 80 % -0.49 C
1891 25-01-2019 13:30:00 2.6 C 81 % -0.32 C
1892 25-01-2019 13:35:00 2.6 C 80 % -0.49 C
1893 25-01-2019 13:40:00 2.4 C 81 % -0.52 C
1894 25-01-2019 13:45:00 2.4 C 81 % -0.52 C
1895 25-01-2019 13:50:00 2.4 C 81 % -0.52 C
1896 25-01-2019 13:55:00 2.4 C 80 % -0.69 C
1897 25-01-2019 14:00:00 2.3 C 80 % -0.79 C
1898 25-01-2019 14:05:00 2.3 C 81 % -0.62 C
1899 25-01-2019 14:10:00 2.3 C 81 % -0.62 C
1900 25-01-2019 14:15:00 2.3 C 81 % -0.62 C
Sensor: Nr:Datum:Temp:Feuchte:Taupunkt:
Aussen-T/F 1901 25-01-2019 14:20:00 2.3 C 81 % -0.62 C
1902 25-01-2019 14:25:00 2.2 C 81 % -0.71 C
1903 25-01-2019 14:30:00 2.2 C 81 % -0.71 C
1904 25-01-2019 14:35:00 2.2 C 81 % -0.71 C
1905 25-01-2019 14:40:00 2.2 C 81 % -0.71 C
1906 25-01-2019 14:45:00 2.2 C 82 % -0.55 C
1907 25-01-2019 14:50:00 2.2 C 81 % -0.71 C
1908 25-01-2019 14:55:00 2.2 C 81 % -0.71 C
1909 25-01-2019 15:00:00 2.2 C 82 % -0.55 C
1910 25-01-2019 15:05:00 2.2 C 82 % -0.55 C
1911 25-01-2019 15:10:00 2.2 C 82 % -0.55 C
1912 25-01-2019 15:15:00 2.1 C 82 % -0.64 C
1913 25-01-2019 15:20:00 2 C 82 % -0.74 C
1914 25-01-2019 15:25:00 1.9 C 83 % -0.67 C
1915 25-01-2019 15:30:00 1.9 C 83 % -0.67 C
1916 25-01-2019 15:35:00 1.9 C 83 % -0.67 C
1917 25-01-2019 15:40:00 1.8 C 83 % -0.77 C
1918 25-01-2019 15:45:00 1.8 C 83 % -0.77 C
1919 25-01-2019 15:50:00 1.8 C 83 % -0.77 C
1920 25-01-2019 15:55:00 1.8 C 84 % -0.61 C
1921 25-01-2019 16:00:00 1.8 C 84 % -0.61 C
1922 25-01-2019 16:05:00 1.8 C 84 % -0.61 C
1923 25-01-2019 16:10:00 1.8 C 84 % -0.61 C
1924 25-01-2019 16:15:00 1.8 C 85 % -0.45 C
1925 25-01-2019 16:20:00 1.7 C 85 % -0.54 C
Sensor: Nr:Datum:Temp:Feuchte:Taupunkt:
Aussen-T/F 1926 25-01-2019 16:25:00 1.7 C 85 % -0.54 C
1927 25-01-2019 16:30:00 1.7 C 85 % -0.54 C
1928 25-01-2019 16:35:00 1.7 C 86 % -0.38 C
1929 25-01-2019 16:40:00 1.7 C 86 % -0.38 C
1930 25-01-2019 16:45:00 1.6 C 86 % -0.48 C
1931 25-01-2019 16:50:00 1.7 C 86 % -0.38 C
1932 25-01-2019 16:55:00 1.7 C 86 % -0.38 C
1933 25-01-2019 17:00:00 1.7 C 86 % -0.38 C
1934 25-01-2019 17:05:00 1.7 C 87 % -0.23 C
1935 25-01-2019 17:10:00 1.7 C 87 % -0.23 C
1936 25-01-2019 17:15:00 1.7 C 87 % -0.23 C
1937 25-01-2019 17:20:00 1.7 C 87 % -0.23 C
1938 25-01-2019 17:25:00 1.7 C 87 % -0.23 C
1939 25-01-2019 17:30:00 1.7 C 87 % -0.23 C
1940 25-01-2019 17:35:00 1.7 C 87 % -0.23 C
1941 25-01-2019 17:40:00 1.7 C 87 % -0.23 C
1942 25-01-2019 17:45:00 1.7 C 87 % -0.23 C
1943 25-01-2019 17:50:00 1.7 C 87 % -0.23 C
1944 25-01-2019 17:55:00 1.7 C 87 % -0.23 C
1945 25-01-2019 18:00:00 1.7 C 87 % -0.23 C
1946 25-01-2019 18:05:00 1.7 C 87 % -0.23 C
1947 25-01-2019 18:10:00 1.7 C 87 % -0.23 C
1948 25-01-2019 18:15:00 1.7 C 87 % -0.23 C
1949 25-01-2019 18:20:00 1.8 C 87 % -0.13 C
1950 25-01-2019 18:25:00 1.8 C 87 % -0.13 C
Sensor: Nr:Datum:Temp:Feuchte:Taupunkt:
Aussen-T/F 1951 25-01-2019 18:30:00 1.8 C 87 % -0.13 C
1952 25-01-2019 18:35:00 1.8 C 87 % -0.13 C
1953 25-01-2019 18:40:00 1.8 C 87 % -0.13 C
1954 25-01-2019 18:45:00 1.8 C 87 % -0.13 C
1955 25-01-2019 18:50:00 1.8 C 87 % -0.13 C
1956 25-01-2019 18:55:00 1.8 C 87 % -0.13 C
1957 25-01-2019 19:00:00 1.8 C 87 % -0.13 C
1958 25-01-2019 19:05:00 1.8 C 88 % 0.03 C
1959 25-01-2019 19:10:00 1.7 C 88 % -0.07 C
1960 25-01-2019 19:15:00 1.7 C 89 % 0.09 C
1961 25-01-2019 19:20:00 1.6 C 89 % -0.01 C
1962 25-01-2019 19:25:00 1.6 C 90 % 0.14 C
1963 25-01-2019 19:30:00 1.4 C 90 % -0.06 C
1964 25-01-2019 19:35:00 1.4 C 91 % 0.1 C
1965 25-01-2019 19:40:00 1.3 C 91 % 0 C
1966 25-01-2019 19:45:00 1.3 C 91 % 0 C
1967 25-01-2019 19:50:00 1.3 C 91 % 0 C
1968 25-01-2019 19:55:00 1.3 C 92 % 0.15 C
1969 25-01-2019 20:00:00 1.4 C 92 % 0.25 C
1970 25-01-2019 20:05:00 1.4 C 92 % 0.25 C
1971 25-01-2019 20:10:00 1.4 C 91 % 0.1 C
1972 25-01-2019 20:15:00 1.4 C 91 % 0.1 C
1973 25-01-2019 20:20:00 1.5 C 91 % 0.19 C
1974 25-01-2019 20:25:00 1.6 C 91 % 0.29 C
1975 25-01-2019 20:30:00 1.6 C 91 % 0.29 C
Sensor: Nr:Datum:Temp:Feuchte:Taupunkt:
Aussen-T/F 1976 25-01-2019 20:35:00 1.6 C 91 % 0.29 C
1977 25-01-2019 20:40:00 1.6 C 91 % 0.29 C
1978 25-01-2019 20:45:00 1.5 C 91 % 0.19 C
1979 25-01-2019 20:50:00 1.5 C 91 % 0.19 C
1980 25-01-2019 20:55:00 1.5 C 91 % 0.19 C
1981 25-01-2019 21:00:00 1.6 C 91 % 0.29 C
1982 25-01-2019 21:05:00 1.6 C 91 % 0.29 C
1983 25-01-2019 21:10:00 1.6 C 91 % 0.29 C
1984 25-01-2019 21:15:00 1.6 C 91 % 0.29 C
1985 25-01-2019 21:20:00 1.7 C 91 % 0.39 C
1986 25-01-2019 21:25:00 1.7 C 91 % 0.39 C
1987 25-01-2019 21:30:00 1.7 C 91 % 0.39 C
1988 25-01-2019 21:35:00 1.7 C 91 % 0.39 C
1989 25-01-2019 21:40:00 1.7 C 91 % 0.39 C
1990 25-01-2019 21:45:00 1.7 C 91 % 0.39 C
1991 25-01-2019 21:50:00 1.7 C 91 % 0.39 C
1992 25-01-2019 21:55:00 1.7 C 91 % 0.39 C
1993 25-01-2019 22:00:00 1.7 C 91 % 0.39 C
1994 25-01-2019 22:05:00 1.7 C 91 % 0.39 C
1995 25-01-2019 22:10:00 1.8 C 91 % 0.49 C
1996 25-01-2019 22:15:00 1.8 C 91 % 0.49 C
1997 25-01-2019 22:20:00 1.8 C 91 % 0.49 C
1998 25-01-2019 22:25:00 1.8 C 91 % 0.49 C
1999 25-01-2019 22:30:00 1.8 C 92 % 0.64 C
2000 25-01-2019 22:35:00 1.8 C 92 % 0.64 C
Sensor: Nr:Datum:Temp:Feuchte:Taupunkt:
Aussen-T/F 2001 25-01-2019 22:40:00 1.8 C 92 % 0.64 C
2002 25-01-2019 22:45:00 1.8 C 92 % 0.64 C
2003 25-01-2019 22:50:00 1.8 C 92 % 0.64 C
2004 25-01-2019 22:55:00 1.8 C 93 % 0.79 C
2005 25-01-2019 23:00:00 1.8 C 93 % 0.79 C
2006 25-01-2019 23:05:00 1.8 C 93 % 0.79 C
2007 25-01-2019 23:10:00 1.8 C 93 % 0.79 C
2008 25-01-2019 23:15:00 1.8 C 93 % 0.79 C
2009 25-01-2019 23:20:00 1.8 C 93 % 0.79 C
2010 25-01-2019 23:25:00 1.8 C 93 % 0.79 C
2011 25-01-2019 23:30:00 1.8 C 93 % 0.79 C
2012 25-01-2019 23:35:00 1.8 C 94 % 0.94 C
2013 25-01-2019 23:40:00 1.8 C 94 % 0.94 C
2014 25-01-2019 23:45:00 1.8 C 94 % 0.94 C
2015 25-01-2019 23:50:00 1.8 C 94 % 0.94 C
2016 25-01-2019 23:55:00 1.8 C 94 % 0.94 C
2017 26-01-2019 00:00:00 1.8 C 94 % 0.94 C
2018 26-01-2019 00:05:00 1.8 C 94 % 0.94 C
2019 26-01-2019 00:10:00 1.8 C 94 % 0.94 C
2020 26-01-2019 00:15:00 1.8 C 94 % 0.94 C
2021 26-01-2019 00:20:00 1.8 C 94 % 0.94 C
2022 26-01-2019 00:25:00 1.8 C 94 % 0.94 C
2023 26-01-2019 00:30:00 1.9 C 94 % 1.04 C
2024 26-01-2019 00:35:00 1.9 C 94 % 1.04 C
2025 26-01-2019 00:40:00 1.9 C 94 % 1.04 C
Sensor: Nr:Datum:Temp:Feuchte:Taupunkt:
Aussen-T/F 2026 26-01-2019 00:45:00 1.9 C 95 % 1.19 C
2027 26-01-2019 00:50:00 1.9 C 95 % 1.19 C
2028 26-01-2019 00:55:00 1.9 C 95 % 1.19 C
2029 26-01-2019 01:00:00 1.9 C 95 % 1.19 C
2030 26-01-2019 01:05:00 1.9 C 95 % 1.19 C
2031 26-01-2019 01:10:00 1.9 C 95 % 1.19 C
2032 26-01-2019 01:15:00 2 C 95 % 1.29 C
2033 26-01-2019 01:20:00 2 C 95 % 1.29 C
2034 26-01-2019 01:25:00 2.1 C 95 % 1.38 C
2035 26-01-2019 01:30:00 2.1 C 95 % 1.38 C
2036 26-01-2019 01:35:00 2.1 C 95 % 1.38 C
2037 26-01-2019 01:40:00 2.1 C 94 % 1.24 C
2038 26-01-2019 01:45:00 2.1 C 94 % 1.24 C
2039 26-01-2019 01:50:00 2.1 C 94 % 1.24 C
2040 26-01-2019 01:55:00 2.2 C 94 % 1.34 C
2041 26-01-2019 02:00:00 2.2 C 94 % 1.34 C
2042 26-01-2019 02:05:00 2.2 C 94 % 1.34 C
2043 26-01-2019 02:10:00 2.3 C 94 % 1.44 C
2044 26-01-2019 02:15:00 2.3 C 94 % 1.44 C
2045 26-01-2019 02:20:00 2.3 C 94 % 1.44 C
2046 26-01-2019 02:25:00 2.3 C 94 % 1.44 C
2047 26-01-2019 02:30:00 2.3 C 94 % 1.44 C
2048 26-01-2019 02:35:00 2.4 C 94 % 1.54 C
2049 26-01-2019 02:40:00 2.4 C 94 % 1.54 C
2050 26-01-2019 02:45:00 2.4 C 94 % 1.54 C
Sensor: Nr:Datum:Temp:Feuchte:Taupunkt:
Aussen-T/F 2051 26-01-2019 02:50:00 2.4 C 94 % 1.54 C
2052 26-01-2019 02:55:00 2.4 C 94 % 1.54 C
2053 26-01-2019 03:00:00 2.5 C 94 % 1.63 C
2054 26-01-2019 03:05:00 2.5 C 94 % 1.63 C
2055 26-01-2019 03:10:00 2.5 C 94 % 1.63 C
2056 26-01-2019 03:15:00 2.5 C 93 % 1.49 C
2057 26-01-2019 03:20:00 2.6 C 93 % 1.59 C
2058 26-01-2019 03:25:00 2.6 C 94 % 1.73 C
2059 26-01-2019 03:30:00 2.6 C 94 % 1.73 C
2060 26-01-2019 03:35:00 2.7 C 93 % 1.68 C
2061 26-01-2019 03:40:00 2.7 C 93 % 1.68 C
2062 26-01-2019 03:45:00 2.7 C 93 % 1.68 C
2063 26-01-2019 03:50:00 2.8 C 93 % 1.78 C
2064 26-01-2019 03:55:00 2.8 C 93 % 1.78 C
2065 26-01-2019 04:00:00 2.8 C 93 % 1.78 C
2066 26-01-2019 04:05:00 2.8 C 93 % 1.78 C
2067 26-01-2019 04:10:00 2.8 C 93 % 1.78 C
2068 26-01-2019 04:15:00 2.9 C 93 % 1.88 C
2069 26-01-2019 04:20:00 2.9 C 93 % 1.88 C
2070 26-01-2019 04:25:00 2.9 C 93 % 1.88 C
2071 26-01-2019 04:30:00 3 C 93 % 1.98 C
2072 26-01-2019 04:35:00 3 C 93 % 1.98 C
2073 26-01-2019 04:40:00 3.1 C 93 % 2.08 C
2074 26-01-2019 04:45:00 3.1 C 92 % 1.93 C
2075 26-01-2019 04:50:00 3.2 C 93 % 2.18 C
Sensor: Nr:Datum:Temp:Feuchte:Taupunkt:
Aussen-T/F 2076 26-01-2019 04:55:00 3.2 C 92 % 2.03 C
2077 26-01-2019 05:00:00 3.3 C 92 % 2.13 C
2078 26-01-2019 05:05:00 3.3 C 92 % 2.13 C
2079 26-01-2019 05:10:00 3.3 C 92 % 2.13 C
2080 26-01-2019 05:15:00 3.4 C 92 % 2.23 C
2081 26-01-2019 05:20:00 3.4 C 92 % 2.23 C
2082 26-01-2019 05:25:00 3.4 C 92 % 2.23 C
2083 26-01-2019 05:30:00 3.4 C 92 % 2.23 C
2084 26-01-2019 05:35:00 3.4 C 92 % 2.23 C
2085 26-01-2019 05:40:00 3.4 C 92 % 2.23 C
2086 26-01-2019 05:45:00 3.4 C 92 % 2.23 C
2087 26-01-2019 05:50:00 3.3 C 92 % 2.13 C
2088 26-01-2019 05:55:00 3.3 C 92 % 2.13 C
2089 26-01-2019 06:00:00 3.3 C 92 % 2.13 C
2090 26-01-2019 06:05:00 3.3 C 92 % 2.13 C
2091 26-01-2019 06:10:00 3.3 C 92 % 2.13 C
2092 26-01-2019 06:15:00 3.3 C 92 % 2.13 C
2093 26-01-2019 06:20:00 3.2 C 92 % 2.03 C
2094 26-01-2019 06:25:00 3.2 C 93 % 2.18 C
2095 26-01-2019 06:30:00 3.2 C 93 % 2.18 C
2096 26-01-2019 06:35:00 3.2 C 93 % 2.18 C
2097 26-01-2019 06:40:00 3.2 C 93 % 2.18 C
2098 26-01-2019 06:45:00 3.2 C 93 % 2.18 C
2099 26-01-2019 06:50:00 3.3 C 93 % 2.28 C
2100 26-01-2019 06:55:00 3.2 C 93 % 2.18 C
Sensor: Nr:Datum:Temp:Feuchte:Taupunkt:
Aussen-T/F 2101 26-01-2019 07:00:00 3.2 C 93 % 2.18 C
2102 26-01-2019 07:05:00 3.2 C 93 % 2.18 C
2103 26-01-2019 07:10:00 3.2 C 93 % 2.18 C
2104 26-01-2019 07:15:00 3.2 C 93 % 2.18 C
2105 26-01-2019 07:20:00 3.2 C 93 % 2.18 C
2106 26-01-2019 07:25:00 3.2 C 94 % 2.33 C
2107 26-01-2019 07:30:00 3.3 C 94 % 2.43 C
2108 26-01-2019 07:35:00 3.3 C 94 % 2.43 C
2109 26-01-2019 07:40:00 3.3 C 94 % 2.43 C
2110 26-01-2019 07:45:00 3.3 C 94 % 2.43 C
2111 26-01-2019 07:50:00 3.3 C 94 % 2.43 C
2112 26-01-2019 07:55:00 3.4 C 94 % 2.53 C
2113 26-01-2019 08:00:00 3.4 C 94 % 2.53 C
2114 26-01-2019 08:05:00 3.6 C 94 % 2.73 C
2115 26-01-2019 08:10:00 3.7 C 94 % 2.83 C
2116 26-01-2019 08:15:00 3.7 C 94 % 2.83 C
2117 26-01-2019 08:20:00 3.7 C 94 % 2.83 C
2118 26-01-2019 08:25:00 3.8 C 94 % 2.93 C
2119 26-01-2019 08:30:00 3.8 C 94 % 2.93 C
2120 26-01-2019 08:35:00 3.8 C 94 % 2.93 C
2121 26-01-2019 08:40:00 3.8 C 94 % 2.93 C
2122 26-01-2019 08:45:00 3.9 C 94 % 3.02 C
2123 26-01-2019 08:50:00 3.9 C 94 % 3.02 C
2124 26-01-2019 08:55:00 4 C 93 % 2.97 C
2125 26-01-2019 09:00:00 4.1 C 93 % 3.07 C
Sensor: Nr:Datum:Temp:Feuchte:Taupunkt:
Aussen-T/F 2126 26-01-2019 09:05:00 4.1 C 93 % 3.07 C
2127 26-01-2019 09:10:00 4.1 C 93 % 3.07 C
2128 26-01-2019 09:15:00 4.2 C 93 % 3.17 C
2129 26-01-2019 09:20:00 4.2 C 93 % 3.17 C
2130 26-01-2019 09:25:00 4.2 C 93 % 3.17 C
2131 26-01-2019 09:30:00 4.2 C 93 % 3.17 C
2132 26-01-2019 09:35:00 4.3 C 93 % 3.27 C
2133 26-01-2019 09:40:00 4.4 C 93 % 3.37 C
2134 26-01-2019 09:45:00 4.6 C 93 % 3.57 C
2135 26-01-2019 09:50:00 4.7 C 93 % 3.67 C
2136 26-01-2019 09:55:00 4.8 C 92 % 3.61 C
2137 26-01-2019 10:00:00 4.9 C 92 % 3.71 C
2138 26-01-2019 10:05:00 4.9 C 92 % 3.71 C
2139 26-01-2019 10:10:00 4.9 C 91 % 3.56 C
2140 26-01-2019 10:15:00 4.9 C 92 % 3.71 C
2141 26-01-2019 10:20:00 4.9 C 92 % 3.71 C
2142 26-01-2019 10:25:00 4.8 C 92 % 3.61 C
2143 26-01-2019 10:30:00 4.8 C 92 % 3.61 C
2144 26-01-2019 10:35:00 4.8 C 92 % 3.61 C
2145 26-01-2019 10:40:00 4.8 C 92 % 3.61 C
2146 26-01-2019 10:45:00 4.7 C 92 % 3.51 C
2147 26-01-2019 10:50:00 4.8 C 92 % 3.61 C
2148 26-01-2019 10:55:00 4.8 C 92 % 3.61 C
2149 26-01-2019 11:00:00 4.9 C 92 % 3.71 C
2150 26-01-2019 11:05:00 4.9 C 92 % 3.71 C
Sensor: Nr:Datum:Temp:Feuchte:Taupunkt:
Aussen-T/F 2151 26-01-2019 11:10:00 5 C 92 % 3.81 C
2152 26-01-2019 11:15:00 5.1 C 92 % 3.91 C
2153 26-01-2019 11:20:00 5.1 C 92 % 3.91 C
2154 26-01-2019 11:25:00 5.2 C 92 % 4.01 C
2155 26-01-2019 11:30:00 5.2 C 92 % 4.01 C
2156 26-01-2019 11:35:00 5.2 C 92 % 4.01 C
2157 26-01-2019 11:40:00 5.3 C 92 % 4.11 C
2158 26-01-2019 11:45:00 5.3 C 92 % 4.11 C
2159 26-01-2019 11:50:00 5.4 C 92 % 4.21 C
2160 26-01-2019 11:55:00 5.4 C 92 % 4.21 C
2161 26-01-2019 12:00:00 5.4 C 92 % 4.21 C
2162 26-01-2019 12:05:00 5.5 C 92 % 4.31 C
2163 26-01-2019 12:10:00 5.6 C 91 % 4.25 C
2164 26-01-2019 12:15:00 5.6 C 91 % 4.25 C
2165 26-01-2019 12:20:00 5.7 C 91 % 4.35 C
2166 26-01-2019 12:25:00 5.8 C 91 % 4.45 C
2167 26-01-2019 12:30:00 5.9 C 91 % 4.55 C
2168 26-01-2019 12:35:00 5.9 C 90 % 4.39 C
2169 26-01-2019 12:40:00 6 C 90 % 4.49 C
2170 26-01-2019 12:45:00 6 C 90 % 4.49 C
2171 26-01-2019 12:50:00 6.1 C 90 % 4.59 C
2172 26-01-2019 12:55:00 6.2 C 90 % 4.69 C
2173 26-01-2019 13:00:00 6.2 C 90 % 4.69 C
2174 26-01-2019 13:05:00 6.1 C 90 % 4.59 C
2175 26-01-2019 13:10:00 6.1 C 90 % 4.59 C
Sensor: Nr:Datum:Temp:Feuchte:Taupunkt:
Aussen-T/F 2176 26-01-2019 13:15:00 6 C 90 % 4.49 C
2177 26-01-2019 13:20:00 5.9 C 90 % 4.39 C
2178 26-01-2019 13:25:00 5.9 C 90 % 4.39 C
2179 26-01-2019 13:30:00 5.9 C 90 % 4.39 C
2180 26-01-2019 13:35:00 5.9 C 90 % 4.39 C
2181 26-01-2019 13:40:00 5.9 C 90 % 4.39 C
2182 26-01-2019 13:45:00 5.9 C 90 % 4.39 C
2183 26-01-2019 13:50:00 5.8 C 90 % 4.29 C
2184 26-01-2019 13:55:00 5.8 C 90 % 4.29 C
2185 26-01-2019 14:00:00 5.8 C 90 % 4.29 C
2186 26-01-2019 14:05:00 5.8 C 90 % 4.29 C
2187 26-01-2019 14:10:00 5.8 C 91 % 4.45 C
2188 26-01-2019 14:15:00 5.8 C 91 % 4.45 C
2189 26-01-2019 14:20:00 5.9 C 91 % 4.55 C
2190 26-01-2019 14:25:00 5.9 C 91 % 4.55 C
2191 26-01-2019 14:30:00 5.9 C 91 % 4.55 C
2192 26-01-2019 14:35:00 6 C 91 % 4.65 C
2193 26-01-2019 14:40:00 6.1 C 91 % 4.74 C
2194 26-01-2019 14:45:00 6.1 C 90 % 4.59 C
2195 26-01-2019 14:50:00 6.2 C 91 % 4.84 C
2196 26-01-2019 14:55:00 6.2 C 90 % 4.69 C
2197 26-01-2019 15:00:00 6.3 C 90 % 4.78 C
2198 26-01-2019 15:05:00 6.3 C 90 % 4.78 C
2199 26-01-2019 15:10:00 6.3 C 89 % 4.62 C
2200 26-01-2019 15:15:00 6.3 C 89 % 4.62 C
Sensor: Nr:Datum:Temp:Feuchte:Taupunkt:
Aussen-T/F 2201 26-01-2019 15:20:00 6.3 C 89 % 4.62 C
2202 26-01-2019 15:25:00 6.2 C 89 % 4.53 C
2203 26-01-2019 15:30:00 6.2 C 89 % 4.53 C
2204 26-01-2019 15:35:00 6.2 C 89 % 4.53 C
2205 26-01-2019 15:40:00 6.2 C 89 % 4.53 C
2206 26-01-2019 15:45:00 6.1 C 89 % 4.43 C
2207 26-01-2019 15:50:00 6.1 C 89 % 4.43 C
2208 26-01-2019 15:55:00 6.1 C 90 % 4.59 C
2209 26-01-2019 16:00:00 6.1 C 90 % 4.59 C
2210 26-01-2019 16:05:00 6.1 C 90 % 4.59 C
2211 26-01-2019 16:10:00 6 C 90 % 4.49 C
2212 26-01-2019 16:15:00 6 C 90 % 4.49 C
2213 26-01-2019 16:20:00 6 C 90 % 4.49 C
2214 26-01-2019 16:25:00 5.9 C 90 % 4.39 C
2215 26-01-2019 16:30:00 5.9 C 90 % 4.39 C
2216 26-01-2019 16:35:00 5.9 C 90 % 4.39 C
2217 26-01-2019 16:40:00 5.9 C 90 % 4.39 C
2218 26-01-2019 16:45:00 5.9 C 90 % 4.39 C
2219 26-01-2019 16:50:00 5.9 C 90 % 4.39 C
2220 26-01-2019 16:55:00 5.9 C 90 % 4.39 C
2221 26-01-2019 17:00:00 5.9 C 90 % 4.39 C
2222 26-01-2019 17:05:00 5.9 C 90 % 4.39 C
2223 26-01-2019 17:10:00 5.8 C 89 % 4.13 C
2224 26-01-2019 17:15:00 5.7 C 90 % 4.19 C
2225 26-01-2019 17:20:00 5.7 C 90 % 4.19 C
Sensor: Nr:Datum:Temp:Feuchte:Taupunkt:
Aussen-T/F 2226 26-01-2019 17:25:00 5.6 C 90 % 4.09 C
2227 26-01-2019 17:30:00 5.6 C 90 % 4.09 C
2228 26-01-2019 17:35:00 5.6 C 90 % 4.09 C
2229 26-01-2019 17:40:00 5.4 C 90 % 3.89 C
2230 26-01-2019 17:45:00 5.3 C 90 % 3.8 C
2231 26-01-2019 17:50:00 5.2 C 90 % 3.7 C
2232 26-01-2019 17:55:00 5.1 C 90 % 3.6 C
2233 26-01-2019 18:00:00 5.1 C 91 % 3.76 C
2234 26-01-2019 18:05:00 5 C 91 % 3.66 C
2235 26-01-2019 18:10:00 4.9 C 92 % 3.71 C
2236 26-01-2019 18:15:00 4.9 C 92 % 3.71 C
2237 26-01-2019 18:20:00 4.9 C 92 % 3.71 C
2238 26-01-2019 18:25:00 4.8 C 92 % 3.61 C
2239 26-01-2019 18:30:00 4.8 C 92 % 3.61 C
2240 26-01-2019 18:35:00 4.7 C 93 % 3.67 C
2241 26-01-2019 18:40:00 4.7 C 93 % 3.67 C
2242 26-01-2019 18:45:00 4.9 C 93 % 3.87 C
2243 26-01-2019 18:50:00 5 C 94 % 4.12 C
2244 26-01-2019 18:55:00 5 C 93 % 3.96 C
2245 26-01-2019 19:00:00 5.1 C 93 % 4.06 C
2246 26-01-2019 19:05:00 5.1 C 94 % 4.22 C
2247 26-01-2019 19:10:00 5.1 C 94 % 4.22 C
2248 26-01-2019 19:15:00 5.1 C 93 % 4.06 C
2249 26-01-2019 19:20:00 5 C 93 % 3.96 C
2250 26-01-2019 19:25:00 5 C 94 % 4.12 C
Sensor: Nr:Datum:Temp:Feuchte:Taupunkt:
Aussen-T/F 2251 26-01-2019 19:30:00 5 C 94 % 4.12 C
2252 26-01-2019 19:35:00 5 C 94 % 4.12 C
2253 26-01-2019 19:40:00 5 C 94 % 4.12 C
2254 26-01-2019 19:45:00 4.9 C 94 % 4.02 C
2255 26-01-2019 19:50:00 4.9 C 94 % 4.02 C
2256 26-01-2019 19:55:00 4.9 C 94 % 4.02 C
2257 26-01-2019 20:00:00 5 C 94 % 4.12 C
2258 26-01-2019 20:05:00 5.1 C 94 % 4.22 C
2259 26-01-2019 20:10:00 5.2 C 95 % 4.47 C
2260 26-01-2019 20:15:00 5.3 C 94 % 4.41 C
2261 26-01-2019 20:20:00 5.4 C 94 % 4.51 C
2262 26-01-2019 20:25:00 5.4 C 94 % 4.51 C
2263 26-01-2019 20:30:00 5.4 C 94 % 4.51 C
2264 26-01-2019 20:35:00 5.3 C 94 % 4.41 C
2265 26-01-2019 20:40:00 5.4 C 94 % 4.51 C
2266 26-01-2019 20:45:00 5.4 C 94 % 4.51 C
2267 26-01-2019 20:50:00 5.4 C 94 % 4.51 C
2268 26-01-2019 20:55:00 5.5 C 94 % 4.61 C
2269 26-01-2019 21:00:00 5.5 C 93 % 4.46 C
2270 26-01-2019 21:05:00 5.5 C 93 % 4.46 C
2271 26-01-2019 21:10:00 5.5 C 93 % 4.46 C
2272 26-01-2019 21:15:00 5.5 C 93 % 4.46 C
2273 26-01-2019 21:20:00 5.6 C 93 % 4.56 C
2274 26-01-2019 21:25:00 5.6 C 93 % 4.56 C
2275 26-01-2019 21:30:00 5.7 C 93 % 4.66 C
Sensor: Nr:Datum:Temp:Feuchte:Taupunkt:
Aussen-T/F 2276 26-01-2019 21:35:00 5.7 C 93 % 4.66 C
2277 26-01-2019 21:40:00 5.7 C 93 % 4.66 C
2278 26-01-2019 21:45:00 5.7 C 93 % 4.66 C
2279 26-01-2019 21:50:00 5.8 C 92 % 4.6 C
2280 26-01-2019 21:55:00 5.8 C 92 % 4.6 C
2281 26-01-2019 22:00:00 5.9 C 92 % 4.7 C
2282 26-01-2019 22:05:00 5.9 C 92 % 4.7 C
2283 26-01-2019 22:10:00 5.9 C 91 % 4.55 C
2284 26-01-2019 22:15:00 5.9 C 91 % 4.55 C
2285 26-01-2019 22:20:00 5.9 C 91 % 4.55 C
2286 26-01-2019 22:25:00 6.1 C 91 % 4.74 C
2287 26-01-2019 22:30:00 6.1 C 91 % 4.74 C
2288 26-01-2019 22:35:00 6.1 C 91 % 4.74 C
2289 26-01-2019 22:40:00 6.1 C 91 % 4.74 C
2290 26-01-2019 22:45:00 6 C 91 % 4.65 C
2291 26-01-2019 22:50:00 5.9 C 91 % 4.55 C
2292 26-01-2019 22:55:00 5.9 C 91 % 4.55 C
2293 26-01-2019 23:00:00 5.8 C 92 % 4.6 C
2294 26-01-2019 23:05:00 5.8 C 92 % 4.6 C
2295 26-01-2019 23:10:00 5.7 C 92 % 4.5 C
2296 26-01-2019 23:15:00 5.6 C 92 % 4.41 C
2297 26-01-2019 23:20:00 5.5 C 93 % 4.46 C
2298 26-01-2019 23:25:00 5.5 C 93 % 4.46 C
2299 26-01-2019 23:30:00 5.4 C 93 % 4.36 C
2300 26-01-2019 23:35:00 5.4 C 93 % 4.36 C
Sensor: Nr:Datum:Temp:Feuchte:Taupunkt:
Aussen-T/F 2301 26-01-2019 23:40:00 5.4 C 93 % 4.36 C
2302 26-01-2019 23:45:00 5.4 C 94 % 4.51 C
2303 26-01-2019 23:50:00 5.4 C 94 % 4.51 C
2304 26-01-2019 23:55:00 5.5 C 94 % 4.61 C
2305 27-01-2019 00:00:00 5.6 C 94 % 4.71 C
2306 27-01-2019 00:05:00 5.7 C 94 % 4.81 C
2307 27-01-2019 00:10:00 5.8 C 93 % 4.76 C
2308 27-01-2019 00:15:00 5.8 C 93 % 4.76 C
2309 27-01-2019 00:20:00 5.8 C 93 % 4.76 C
2310 27-01-2019 00:25:00 5.9 C 93 % 4.86 C
2311 27-01-2019 00:30:00 5.9 C 92 % 4.7 C
2312 27-01-2019 00:35:00 5.9 C 92 % 4.7 C
2313 27-01-2019 00:40:00 5.8 C 92 % 4.6 C
2314 27-01-2019 00:45:00 5.8 C 92 % 4.6 C
2315 27-01-2019 00:50:00 5.8 C 92 % 4.6 C
2316 27-01-2019 00:55:00 5.8 C 92 % 4.6 C
2317 27-01-2019 01:00:00 5.7 C 93 % 4.66 C
2318 27-01-2019 01:05:00 5.7 C 93 % 4.66 C
2319 27-01-2019 01:10:00 5.7 C 93 % 4.66 C
2320 27-01-2019 01:15:00 5.8 C 93 % 4.76 C
2321 27-01-2019 01:20:00 5.7 C 93 % 4.66 C
2322 27-01-2019 01:25:00 5.7 C 93 % 4.66 C
2323 27-01-2019 01:30:00 5.6 C 93 % 4.56 C
2324 27-01-2019 01:35:00 5.7 C 93 % 4.66 C
2325 27-01-2019 01:40:00 5.7 C 93 % 4.66 C
Sensor: Nr:Datum:Temp:Feuchte:Taupunkt:
Aussen-T/F 2326 27-01-2019 01:45:00 5.7 C 93 % 4.66 C
2327 27-01-2019 01:50:00 5.7 C 93 % 4.66 C
2328 27-01-2019 01:55:00 5.7 C 93 % 4.66 C
2329 27-01-2019 02:00:00 5.7 C 93 % 4.66 C
2330 27-01-2019 02:05:00 5.8 C 93 % 4.76 C
2331 27-01-2019 02:10:00 5.8 C 93 % 4.76 C
2332 27-01-2019 02:15:00 5.8 C 93 % 4.76 C
2333 27-01-2019 02:20:00 5.9 C 92 % 4.7 C
2334 27-01-2019 02:25:00 5.9 C 92 % 4.7 C
2335 27-01-2019 02:30:00 6 C 92 % 4.8 C
2336 27-01-2019 02:35:00 6.1 C 92 % 4.9 C
2337 27-01-2019 02:40:00 6.1 C 92 % 4.9 C
2338 27-01-2019 02:45:00 6.1 C 92 % 4.9 C
2339 27-01-2019 02:50:00 6.2 C 92 % 5 C
2340 27-01-2019 02:55:00 6.3 C 91 % 4.94 C
2341 27-01-2019 03:00:00 6.3 C 91 % 4.94 C
2342 27-01-2019 03:05:00 6.3 C 91 % 4.94 C
2343 27-01-2019 03:10:00 6.3 C 91 % 4.94 C
2344 27-01-2019 03:15:00 6.3 C 91 % 4.94 C
2345 27-01-2019 03:20:00 6.4 C 91 % 5.04 C
2346 27-01-2019 03:25:00 6.4 C 91 % 5.04 C
2347 27-01-2019 03:30:00 6.5 C 90 % 4.98 C
2348 27-01-2019 03:35:00 6.5 C 90 % 4.98 C
2349 27-01-2019 03:40:00 6.5 C 90 % 4.98 C
2350 27-01-2019 03:45:00 6.5 C 91 % 5.14 C
Sensor: Nr:Datum:Temp:Feuchte:Taupunkt:
Aussen-T/F 2351 27-01-2019 03:50:00 6.5 C 91 % 5.14 C
2352 27-01-2019 03:55:00 6.5 C 90 % 4.98 C
2353 27-01-2019 04:00:00 6.5 C 90 % 4.98 C
2354 27-01-2019 04:05:00 6.4 C 90 % 4.88 C
2355 27-01-2019 04:10:00 6.4 C 90 % 4.88 C
2356 27-01-2019 04:15:00 6.4 C 91 % 5.04 C
2357 27-01-2019 04:20:00 6.3 C 91 % 4.94 C
2358 27-01-2019 04:25:00 6.2 C 91 % 4.84 C
2359 27-01-2019 04:30:00 6.2 C 92 % 5 C
2360 27-01-2019 04:35:00 6.1 C 91 % 4.74 C
2361 27-01-2019 04:40:00 6 C 92 % 4.8 C
2362 27-01-2019 04:45:00 5.9 C 92 % 4.7 C
2363 27-01-2019 04:50:00 5.9 C 92 % 4.7 C
2364 27-01-2019 04:55:00 5.9 C 92 % 4.7 C
2365 27-01-2019 05:00:00 5.9 C 92 % 4.7 C
2366 27-01-2019 05:05:00 5.9 C 92 % 4.7 C
2367 27-01-2019 05:10:00 5.9 C 92 % 4.7 C
2368 27-01-2019 05:15:00 5.9 C 92 % 4.7 C
2369 27-01-2019 05:20:00 5.9 C 92 % 4.7 C
2370 27-01-2019 05:25:00 5.9 C 92 % 4.7 C
2371 27-01-2019 05:30:00 5.9 C 91 % 4.55 C
2372 27-01-2019 05:35:00 5.9 C 91 % 4.55 C
2373 27-01-2019 05:40:00 5.9 C 91 % 4.55 C
2374 27-01-2019 05:45:00 5.9 C 91 % 4.55 C
2375 27-01-2019 05:50:00 5.9 C 91 % 4.55 C
Sensor: Nr:Datum:Temp:Feuchte:Taupunkt:
Aussen-T/F 2376 27-01-2019 05:55:00 5.9 C 91 % 4.55 C
2377 27-01-2019 06:00:00 5.9 C 91 % 4.55 C
2378 27-01-2019 06:05:00 6 C 91 % 4.65 C
2379 27-01-2019 06:10:00 6.1 C 91 % 4.74 C
2380 27-01-2019 06:15:00 6.1 C 90 % 4.59 C
2381 27-01-2019 06:20:00 6.1 C 90 % 4.59 C
2382 27-01-2019 06:25:00 6.1 C 90 % 4.59 C
2383 27-01-2019 06:30:00 6.2 C 90 % 4.69 C
2384 27-01-2019 06:35:00 6.2 C 90 % 4.69 C
2385 27-01-2019 06:40:00 6.2 C 90 % 4.69 C
2386 27-01-2019 06:45:00 6.2 C 90 % 4.69 C
2387 27-01-2019 06:50:00 6.2 C 91 % 4.84 C
2388 27-01-2019 06:55:00 6.3 C 91 % 4.94 C
2389 27-01-2019 07:00:00 6.4 C 91 % 5.04 C
2390 27-01-2019 07:05:00 6.4 C 90 % 4.88 C
2391 27-01-2019 07:10:00 6.4 C 90 % 4.88 C
2392 27-01-2019 07:15:00 6.5 C 91 % 5.14 C
2393 27-01-2019 07:20:00 6.5 C 91 % 5.14 C
2394 27-01-2019 07:25:00 6.6 C 91 % 5.24 C
2395 27-01-2019 07:30:00 6.6 C 91 % 5.24 C
2396 27-01-2019 07:35:00 6.6 C 91 % 5.24 C
2397 27-01-2019 07:40:00 6.6 C 91 % 5.24 C
2398 27-01-2019 07:45:00 6.6 C 91 % 5.24 C
2399 27-01-2019 07:50:00 6.6 C 91 % 5.24 C
2400 27-01-2019 07:55:00 6.4 C 91 % 5.04 C
Sensor: Nr:Datum:Temp:Feuchte:Taupunkt:
Aussen-T/F 2401 27-01-2019 08:00:00 6.4 C 91 % 5.04 C
2402 27-01-2019 08:05:00 6.4 C 91 % 5.04 C
2403 27-01-2019 08:10:00 6.6 C 91 % 5.24 C
2404 27-01-2019 08:15:00 6.6 C 90 % 5.08 C
2405 27-01-2019 08:20:00 6.6 C 90 % 5.08 C
2406 27-01-2019 08:25:00 6.6 C 90 % 5.08 C
2407 27-01-2019 08:30:00 6.6 C 90 % 5.08 C
2408 27-01-2019 08:35:00 6.6 C 90 % 5.08 C
2409 27-01-2019 08:40:00 6.5 C 91 % 5.14 C
2410 27-01-2019 08:45:00 6.4 C 91 % 5.04 C
2411 27-01-2019 08:50:00 6.4 C 92 % 5.2 C
2412 27-01-2019 08:55:00 6.3 C 92 % 5.1 C
2413 27-01-2019 09:00:00 6.3 C 92 % 5.1 C
2414 27-01-2019 09:05:00 6.2 C 92 % 5 C
2415 27-01-2019 09:10:00 6.2 C 93 % 5.15 C
2416 27-01-2019 09:15:00 6.1 C 93 % 5.06 C
2417 27-01-2019 09:20:00 6.1 C 93 % 5.06 C
2418 27-01-2019 09:25:00 6 C 93 % 4.96 C
2419 27-01-2019 09:30:00 5.9 C 93 % 4.86 C
2420 27-01-2019 09:35:00 5.9 C 93 % 4.86 C
2421 27-01-2019 09:40:00 5.9 C 93 % 4.86 C
2422 27-01-2019 09:45:00 5.8 C 94 % 4.91 C
2423 27-01-2019 09:50:00 5.8 C 94 % 4.91 C
2424 27-01-2019 09:55:00 5.7 C 94 % 4.81 C
2425 27-01-2019 10:00:00 5.7 C 94 % 4.81 C
Sensor: Nr:Datum:Temp:Feuchte:Taupunkt:
Aussen-T/F 2426 27-01-2019 10:05:00 5.7 C 94 % 4.81 C
2427 27-01-2019 10:10:00 5.7 C 94 % 4.81 C
2428 27-01-2019 10:15:00 5.6 C 94 % 4.71 C
2429 27-01-2019 10:20:00 5.5 C 95 % 4.76 C
2430 27-01-2019 10:25:00 5.4 C 94 % 4.51 C
2431 27-01-2019 10:30:00 5.4 C 95 % 4.66 C
2432 27-01-2019 10:35:00 5.6 C 95 % 4.86 C
2433 27-01-2019 10:40:00 5.8 C 95 % 5.06 C
2434 27-01-2019 10:45:00 6 C 96 % 5.41 C
2435 27-01-2019 10:50:00 6.2 C 95 % 5.46 C
2436 27-01-2019 10:55:00 6.3 C 95 % 5.56 C
2437 27-01-2019 11:00:00 6.4 C 95 % 5.66 C
2438 27-01-2019 11:05:00 6.6 C 94 % 5.71 C
2439 27-01-2019 11:10:00 6.7 C 94 % 5.8 C
2440 27-01-2019 11:15:00 6.8 C 93 % 5.75 C
2441 27-01-2019 11:20:00 6.9 C 92 % 5.69 C
2442 27-01-2019 11:25:00 7.1 C 92 % 5.89 C
2443 27-01-2019 11:30:00 7.2 C 91 % 5.83 C
2444 27-01-2019 11:35:00 7.2 C 90 % 5.67 C
2445 27-01-2019 11:40:00 7.3 C 90 % 5.77 C
2446 27-01-2019 11:45:00 7.3 C 90 % 5.77 C
2447 27-01-2019 11:50:00 7.4 C 90 % 5.87 C
2448 27-01-2019 11:55:00 7.4 C 90 % 5.87 C
2449 27-01-2019 12:00:00 7.6 C 90 % 6.07 C
2450 27-01-2019 12:05:00 7.6 C 89 % 5.91 C
Sensor: Nr:Datum:Temp:Feuchte:Taupunkt:
Aussen-T/F 2451 27-01-2019 12:10:00 7.7 C 89 % 6 C
2452 27-01-2019 12:15:00 7.7 C 88 % 5.84 C
2453 27-01-2019 12:20:00 7.7 C 88 % 5.84 C
2454 27-01-2019 12:25:00 7.7 C 87 % 5.68 C
2455 27-01-2019 12:30:00 7.7 C 86 % 5.51 C
2456 27-01-2019 12:35:00 7.7 C 86 % 5.51 C
2457 27-01-2019 12:40:00 7.8 C 87 % 5.78 C
2458 27-01-2019 12:45:00 7.7 C 87 % 5.68 C
2459 27-01-2019 12:50:00 7.7 C 86 % 5.51 C
2460 27-01-2019 12:55:00 7.7 C 86 % 5.51 C
2461 27-01-2019 13:00:00 7.6 C 86 % 5.41 C
2462 27-01-2019 13:05:00 7.6 C 86 % 5.41 C
2463 27-01-2019 13:10:00 7.6 C 86 % 5.41 C
2464 27-01-2019 13:15:00 7.6 C 87 % 5.58 C
2465 27-01-2019 13:20:00 7.6 C 87 % 5.58 C
2466 27-01-2019 13:25:00 7.6 C 87 % 5.58 C
2467 27-01-2019 13:30:00 7.7 C 87 % 5.68 C
2468 27-01-2019 13:35:00 7.8 C 88 % 5.94 C
2469 27-01-2019 13:40:00 7.8 C 87 % 5.78 C
2470 27-01-2019 13:45:00 8 C 87 % 5.97 C
2471 27-01-2019 13:50:00 8.1 C 86 % 5.9 C
2472 27-01-2019 13:55:00 8.1 C 86 % 5.9 C
2473 27-01-2019 14:00:00 8.1 C 86 % 5.9 C
2474 27-01-2019 14:05:00 8.2 C 85 % 5.83 C
2475 27-01-2019 14:10:00 8.2 C 85 % 5.83 C
Sensor: Nr:Datum:Temp:Feuchte:Taupunkt:
Aussen-T/F 2476 27-01-2019 14:15:00 8.3 C 84 % 5.76 C
2477 27-01-2019 14:20:00 8.3 C 84 % 5.76 C
2478 27-01-2019 14:25:00 8.2 C 84 % 5.66 C
2479 27-01-2019 14:30:00 8.1 C 84 % 5.56 C
2480 27-01-2019 14:35:00 8.1 C 85 % 5.73 C
2481 27-01-2019 14:40:00 8.2 C 85 % 5.83 C
2482 27-01-2019 14:45:00 8.2 C 85 % 5.83 C
2483 27-01-2019 14:50:00 8.1 C 85 % 5.73 C
2484 27-01-2019 14:55:00 8.1 C 85 % 5.73 C
2485 27-01-2019 15:00:00 8 C 85 % 5.64 C
2486 27-01-2019 15:05:00 7.9 C 86 % 5.71 C
2487 27-01-2019 15:10:00 7.9 C 86 % 5.71 C
2488 27-01-2019 15:15:00 7.9 C 86 % 5.71 C
2489 27-01-2019 15:20:00 7.9 C 87 % 5.87 C
2490 27-01-2019 15:25:00 7.8 C 87 % 5.78 C
2491 27-01-2019 15:30:00 7.8 C 88 % 5.94 C
2492 27-01-2019 15:35:00 7.7 C 89 % 6 C
2493 27-01-2019 15:40:00 7.6 C 89 % 5.91 C
2494 27-01-2019 15:45:00 7.5 C 90 % 5.97 C
2495 27-01-2019 15:50:00 7.4 C 90 % 5.87 C
2496 27-01-2019 15:55:00 7.4 C 90 % 5.87 C
2497 27-01-2019 16:00:00 7.4 C 90 % 5.87 C
2498 27-01-2019 16:05:00 7.3 C 90 % 5.77 C
2499 27-01-2019 16:10:00 7.3 C 91 % 5.93 C
2500 27-01-2019 16:15:00 7.2 C 90 % 5.67 C
Sensor: Nr:Datum:Temp:Feuchte:Taupunkt:
Aussen-T/F 2501 27-01-2019 16:20:00 7.1 C 89 % 5.41 C
2502 27-01-2019 16:25:00 7.1 C 89 % 5.41 C
2503 27-01-2019 16:30:00 7 C 89 % 5.31 C
2504 27-01-2019 16:35:00 7 C 88 % 5.15 C
2505 27-01-2019 16:40:00 6.9 C 88 % 5.05 C
2506 27-01-2019 16:45:00 6.9 C 88 % 5.05 C
2507 27-01-2019 16:50:00 6.8 C 88 % 4.96 C
2508 27-01-2019 16:55:00 6.8 C 88 % 4.96 C
2509 27-01-2019 17:00:00 6.8 C 88 % 4.96 C
2510 27-01-2019 17:05:00 6.7 C 88 % 4.86 C
2511 27-01-2019 17:10:00 6.7 C 88 % 4.86 C
2512 27-01-2019 17:15:00 6.6 C 88 % 4.76 C
2513 27-01-2019 17:20:00 6.6 C 88 % 4.76 C
2514 27-01-2019 17:25:00 6.6 C 88 % 4.76 C
2515 27-01-2019 17:30:00 6.6 C 88 % 4.76 C
2516 27-01-2019 17:35:00 6.6 C 88 % 4.76 C
2517 27-01-2019 17:40:00 6.6 C 88 % 4.76 C
2518 27-01-2019 17:45:00 6.6 C 87 % 4.6 C
2519 27-01-2019 17:50:00 6.5 C 87 % 4.5 C
2520 27-01-2019 17:55:00 6.3 C 87 % 4.3 C
2521 27-01-2019 18:00:00 6.1 C 88 % 4.27 C
2522 27-01-2019 18:05:00 6 C 89 % 4.33 C
2523 27-01-2019 18:10:00 5.9 C 89 % 4.23 C
2524 27-01-2019 18:15:00 5.8 C 89 % 4.13 C
2525 27-01-2019 18:20:00 5.7 C 90 % 4.19 C
Sensor: Nr:Datum:Temp:Feuchte:Taupunkt:
Aussen-T/F 2526 27-01-2019 18:25:00 5.6 C 90 % 4.09 C
2527 27-01-2019 18:30:00 5.4 C 90 % 3.89 C
2528 27-01-2019 18:35:00 5.3 C 90 % 3.8 C
2529 27-01-2019 18:40:00 5.2 C 90 % 3.7 C
2530 27-01-2019 18:45:00 5.1 C 90 % 3.6 C
2531 27-01-2019 18:50:00 5 C 90 % 3.5 C
2532 27-01-2019 18:55:00 4.9 C 89 % 3.24 C
2533 27-01-2019 19:00:00 4.8 C 90 % 3.3 C
2534 27-01-2019 19:05:00 4.8 C 90 % 3.3 C
2535 27-01-2019 19:10:00 4.7 C 90 % 3.2 C
2536 27-01-2019 19:15:00 4.6 C 90 % 3.1 C
2537 27-01-2019 19:20:00 4.6 C 90 % 3.1 C
2538 27-01-2019 19:25:00 4.5 C 91 % 3.16 C
2539 27-01-2019 19:30:00 4.5 C 90 % 3.01 C
2540 27-01-2019 19:35:00 4.4 C 91 % 3.06 C
2541 27-01-2019 19:40:00 4.4 C 91 % 3.06 C
2542 27-01-2019 19:45:00 4.4 C 91 % 3.06 C
2543 27-01-2019 19:50:00 4.4 C 91 % 3.06 C
2544 27-01-2019 19:55:00 4.3 C 91 % 2.96 C
2545 27-01-2019 20:00:00 4.2 C 91 % 2.87 C
2546 27-01-2019 20:05:00 4.2 C 91 % 2.87 C
2547 27-01-2019 20:10:00 4 C 91 % 2.67 C
2548 27-01-2019 20:15:00 3.9 C 90 % 2.41 C
2549 27-01-2019 20:20:00 3.9 C 90 % 2.41 C
2550 27-01-2019 20:25:00 3.8 C 90 % 2.31 C
Sensor: Nr:Datum:Temp:Feuchte:Taupunkt:
Aussen-T/F 2551 27-01-2019 20:30:00 3.8 C 89 % 2.16 C
2552 27-01-2019 20:35:00 3.8 C 88 % 2 C
2553 27-01-2019 20:40:00 3.8 C 87 % 1.84 C
2554 27-01-2019 20:45:00 3.8 C 87 % 1.84 C
2555 27-01-2019 20:50:00 3.8 C 88 % 2 C
2556 27-01-2019 20:55:00 3.7 C 87 % 1.74 C
2557 27-01-2019 21:00:00 3.7 C 87 % 1.74 C
2558 27-01-2019 21:05:00 3.7 C 88 % 1.9 C
2559 27-01-2019 21:10:00 3.7 C 88 % 1.9 C
2560 27-01-2019 21:15:00 3.6 C 88 % 1.8 C
2561 27-01-2019 21:20:00 3.6 C 89 % 1.96 C
2562 27-01-2019 21:25:00 3.4 C 89 % 1.76 C
2563 27-01-2019 21:30:00 3.3 C 89 % 1.67 C
2564 27-01-2019 21:35:00 3.3 C 89 % 1.67 C
2565 27-01-2019 21:40:00 3.3 C 89 % 1.67 C
2566 27-01-2019 21:45:00 3.3 C 90 % 1.82 C
2567 27-01-2019 21:50:00 3.3 C 90 % 1.82 C
2568 27-01-2019 21:55:00 3.3 C 90 % 1.82 C
2569 27-01-2019 22:00:00 3.3 C 90 % 1.82 C
2570 27-01-2019 22:05:00 3.3 C 90 % 1.82 C
2571 27-01-2019 22:10:00 3.3 C 90 % 1.82 C
2572 27-01-2019 22:15:00 3.2 C 90 % 1.72 C
2573 27-01-2019 22:20:00 3.2 C 90 % 1.72 C
2574 27-01-2019 22:25:00 3.2 C 90 % 1.72 C
2575 27-01-2019 22:30:00 3.2 C 90 % 1.72 C
Sensor: Nr:Datum:Temp:Feuchte:Taupunkt:
Aussen-T/F 2576 27-01-2019 22:35:00 3.3 C 90 % 1.82 C
2577 27-01-2019 22:40:00 3.3 C 90 % 1.82 C
2578 27-01-2019 22:45:00 3.2 C 89 % 1.57 C
2579 27-01-2019 22:50:00 3.3 C 89 % 1.67 C
2580 27-01-2019 22:55:00 3.3 C 89 % 1.67 C
2581 27-01-2019 23:00:00 3.4 C 88 % 1.61 C
2582 27-01-2019 23:05:00 3.5 C 88 % 1.7 C
2583 27-01-2019 23:10:00 3.4 C 88 % 1.61 C
2584 27-01-2019 23:15:00 3.4 C 87 % 1.45 C
2585 27-01-2019 23:20:00 3.3 C 88 % 1.51 C
2586 27-01-2019 23:25:00 3.2 C 88 % 1.41 C
2587 27-01-2019 23:30:00 3.1 C 88 % 1.31 C
2588 27-01-2019 23:35:00 2.9 C 89 % 1.27 C
2589 27-01-2019 23:40:00 2.9 C 89 % 1.27 C
2590 27-01-2019 23:45:00 3 C 89 % 1.37 C
2591 27-01-2019 23:50:00 2.9 C 89 % 1.27 C
2592 27-01-2019 23:55:00 2.8 C 89 % 1.17 C
2593 28-01-2019 00:00:00 2.8 C 90 % 1.33 C
2594 28-01-2019 00:05:00 2.8 C 90 % 1.33 C
2595 28-01-2019 00:10:00 2.8 C 90 % 1.33 C
2596 28-01-2019 00:15:00 2.8 C 90 % 1.33 C
2597 28-01-2019 00:20:00 2.9 C 90 % 1.43 C
2598 28-01-2019 00:25:00 3.1 C 90 % 1.62 C
2599 28-01-2019 00:30:00 3.2 C 90 % 1.72 C
2600 28-01-2019 00:35:00 3.2 C 90 % 1.72 C
Sensor: Nr:Datum:Temp:Feuchte:Taupunkt:
Aussen-T/F 2601 28-01-2019 00:40:00 3.2 C 90 % 1.72 C
2602 28-01-2019 00:45:00 3.3 C 89 % 1.67 C
2603 28-01-2019 00:50:00 3.3 C 89 % 1.67 C
2604 28-01-2019 00:55:00 3.4 C 89 % 1.76 C
2605 28-01-2019 01:00:00 3.4 C 89 % 1.76 C
2606 28-01-2019 01:05:00 3.6 C 88 % 1.8 C
2607 28-01-2019 01:10:00 3.6 C 88 % 1.8 C
2608 28-01-2019 01:15:00 3.6 C 88 % 1.8 C
2609 28-01-2019 01:20:00 3.5 C 88 % 1.7 C
2610 28-01-2019 01:25:00 3.4 C 88 % 1.61 C
2611 28-01-2019 01:30:00 3.3 C 88 % 1.51 C
2612 28-01-2019 01:35:00 3.3 C 88 % 1.51 C
2613 28-01-2019 01:40:00 3.3 C 89 % 1.67 C
2614 28-01-2019 01:45:00 3.3 C 89 % 1.67 C
2615 28-01-2019 01:50:00 3.3 C 89 % 1.67 C
2616 28-01-2019 01:55:00 3.3 C 89 % 1.67 C
2617 28-01-2019 02:00:00 3.3 C 89 % 1.67 C
2618 28-01-2019 02:05:00 3.4 C 89 % 1.76 C
2619 28-01-2019 02:10:00 3.4 C 89 % 1.76 C
2620 28-01-2019 02:15:00 3.3 C 89 % 1.67 C
2621 28-01-2019 02:20:00 3.3 C 89 % 1.67 C
2622 28-01-2019 02:25:00 3.2 C 89 % 1.57 C
2623 28-01-2019 02:30:00 3.2 C 89 % 1.57 C
2624 28-01-2019 02:35:00 3.1 C 90 % 1.62 C
2625 28-01-2019 02:40:00 3.1 C 90 % 1.62 C
Sensor: Nr:Datum:Temp:Feuchte:Taupunkt:
Aussen-T/F 2626 28-01-2019 02:45:00 3.1 C 90 % 1.62 C
2627 28-01-2019 02:50:00 3.1 C 90 % 1.62 C
2628 28-01-2019 02:55:00 3.1 C 89 % 1.47 C
2629 28-01-2019 03:00:00 3.1 C 89 % 1.47 C
2630 28-01-2019 03:05:00 3.2 C 89 % 1.57 C
2631 28-01-2019 03:10:00 3.2 C 89 % 1.57 C
2632 28-01-2019 03:15:00 3.3 C 89 % 1.67 C
2633 28-01-2019 03:20:00 3.3 C 89 % 1.67 C
2634 28-01-2019 03:25:00 3.3 C 90 % 1.82 C
2635 28-01-2019 03:30:00 3.3 C 90 % 1.82 C
2636 28-01-2019 03:35:00 3.3 C 90 % 1.82 C
2637 28-01-2019 03:40:00 3.3 C 90 % 1.82 C
2638 28-01-2019 03:45:00 3.2 C 91 % 1.88 C
2639 28-01-2019 03:50:00 3.2 C 91 % 1.88 C
2640 28-01-2019 03:55:00 3.2 C 91 % 1.88 C
2641 28-01-2019 04:00:00 3.2 C 91 % 1.88 C
2642 28-01-2019 04:05:00 3.2 C 91 % 1.88 C
2643 28-01-2019 04:10:00 3.2 C 91 % 1.88 C
2644 28-01-2019 04:15:00 3.1 C 91 % 1.78 C
2645 28-01-2019 04:20:00 3.2 C 91 % 1.88 C
2646 28-01-2019 04:25:00 3.2 C 91 % 1.88 C
2647 28-01-2019 04:30:00 3.2 C 90 % 1.72 C
2648 28-01-2019 04:35:00 3.3 C 90 % 1.82 C
2649 28-01-2019 04:40:00 3.3 C 90 % 1.82 C
2650 28-01-2019 04:45:00 3.3 C 90 % 1.82 C
Sensor: Nr:Datum:Temp:Feuchte:Taupunkt:
Aussen-T/F 2651 28-01-2019 04:50:00 3.3 C 90 % 1.82 C
2652 28-01-2019 04:55:00 3.3 C 90 % 1.82 C
2653 28-01-2019 05:00:00 3.2 C 90 % 1.72 C
2654 28-01-2019 05:05:00 3.2 C 90 % 1.72 C
2655 28-01-2019 05:10:00 3.2 C 90 % 1.72 C
2656 28-01-2019 05:15:00 3.3 C 90 % 1.82 C
2657 28-01-2019 05:20:00 3.3 C 90 % 1.82 C
2658 28-01-2019 05:25:00 3.3 C 90 % 1.82 C
2659 28-01-2019 05:30:00 3.3 C 90 % 1.82 C
2660 28-01-2019 05:35:00 3.2 C 89 % 1.57 C
2661 28-01-2019 05:40:00 3.3 C 89 % 1.67 C
2662 28-01-2019 05:45:00 3.3 C 89 % 1.67 C
2663 28-01-2019 05:50:00 3.3 C 89 % 1.67 C
2664 28-01-2019 05:55:00 3.3 C 89 % 1.67 C
2665 28-01-2019 06:00:00 3.3 C 89 % 1.67 C
2666 28-01-2019 06:05:00 3.3 C 89 % 1.67 C
2667 28-01-2019 06:10:00 3.3 C 89 % 1.67 C
2668 28-01-2019 06:15:00 3.3 C 89 % 1.67 C
2669 28-01-2019 06:20:00 3.3 C 89 % 1.67 C
2670 28-01-2019 06:25:00 3.3 C 89 % 1.67 C
2671 28-01-2019 06:30:00 3.2 C 90 % 1.72 C
2672 28-01-2019 06:35:00 3.1 C 90 % 1.62 C
2673 28-01-2019 06:40:00 3.1 C 91 % 1.78 C
2674 28-01-2019 06:45:00 3 C 91 % 1.68 C
2675 28-01-2019 06:50:00 2.9 C 91 % 1.58 C
Sensor: Nr:Datum:Temp:Feuchte:Taupunkt:
Aussen-T/F 2676 28-01-2019 06:55:00 2.9 C 91 % 1.58 C
2677 28-01-2019 07:00:00 2.9 C 92 % 1.73 C
2678 28-01-2019 07:05:00 2.9 C 92 % 1.73 C
2679 28-01-2019 07:10:00 2.8 C 92 % 1.63 C
2680 28-01-2019 07:15:00 2.8 C 92 % 1.63 C
2681 28-01-2019 07:20:00 2.7 C 92 % 1.53 C
2682 28-01-2019 07:25:00 2.7 C 93 % 1.68 C
2683 28-01-2019 07:30:00 2.7 C 93 % 1.68 C
2684 28-01-2019 07:35:00 2.7 C 93 % 1.68 C
2685 28-01-2019 07:40:00 2.6 C 93 % 1.59 C
2686 28-01-2019 07:45:00 2.6 C 93 % 1.59 C
2687 28-01-2019 07:50:00 2.6 C 94 % 1.73 C
2688 28-01-2019 07:55:00 2.6 C 94 % 1.73 C
2689 28-01-2019 08:00:00 2.6 C 93 % 1.59 C
2690 28-01-2019 08:05:00 2.5 C 93 % 1.49 C
2691 28-01-2019 08:10:00 2.5 C 94 % 1.63 C
2692 28-01-2019 08:15:00 2.4 C 94 % 1.54 C
2693 28-01-2019 08:20:00 2.5 C 94 % 1.63 C
2694 28-01-2019 08:25:00 2.5 C 94 % 1.63 C
2695 28-01-2019 08:30:00 2.5 C 94 % 1.63 C
2696 28-01-2019 08:35:00 2.5 C 93 % 1.49 C
2697 28-01-2019 08:40:00 2.5 C 93 % 1.49 C
2698 28-01-2019 08:45:00 2.5 C 93 % 1.49 C
2699 28-01-2019 08:50:00 2.5 C 94 % 1.63 C
2700 28-01-2019 08:55:00 2.5 C 94 % 1.63 C
Sensor: Nr:Datum:Temp:Feuchte:Taupunkt:
Aussen-T/F 2701 28-01-2019 09:00:00 2.4 C 94 % 1.54 C
2702 28-01-2019 09:05:00 2.4 C 94 % 1.54 C
2703 28-01-2019 09:10:00 2.4 C 94 % 1.54 C
2704 28-01-2019 09:15:00 2.3 C 94 % 1.44 C
2705 28-01-2019 09:20:00 2.3 C 94 % 1.44 C
2706 28-01-2019 09:25:00 2.2 C 94 % 1.34 C
2707 28-01-2019 09:30:00 2.1 C 94 % 1.24 C
2708 28-01-2019 09:35:00 2.1 C 94 % 1.24 C
2709 28-01-2019 09:40:00 2.1 C 95 % 1.38 C
2710 28-01-2019 09:45:00 2.2 C 95 % 1.48 C
2711 28-01-2019 09:50:00 2.2 C 95 % 1.48 C
2712 28-01-2019 09:55:00 2.2 C 95 % 1.48 C
2713 28-01-2019 10:00:00 2.2 C 95 % 1.48 C
2714 28-01-2019 10:05:00 2.3 C 95 % 1.58 C
2715 28-01-2019 10:10:00 2.3 C 95 % 1.58 C
2716 28-01-2019 10:15:00 2.3 C 95 % 1.58 C
2717 28-01-2019 10:20:00 2.3 C 95 % 1.58 C
2718 28-01-2019 10:25:00 2.3 C 95 % 1.58 C
2719 28-01-2019 10:30:00 2.4 C 95 % 1.68 C
2720 28-01-2019 10:35:00 2.4 C 95 % 1.68 C
2721 28-01-2019 10:40:00 2.5 C 95 % 1.78 C
2722 28-01-2019 10:45:00 2.6 C 95 % 1.88 C
2723 28-01-2019 10:50:00 2.6 C 95 % 1.88 C
2724 28-01-2019 10:55:00 2.7 C 95 % 1.98 C
2725 28-01-2019 11:00:00 2.7 C 95 % 1.98 C
Sensor: Nr:Datum:Temp:Feuchte:Taupunkt:
Aussen-T/F 2726 28-01-2019 11:05:00 2.8 C 95 % 2.08 C
2727 28-01-2019 11:10:00 2.8 C 95 % 2.08 C
2728 28-01-2019 11:15:00 2.9 C 95 % 2.18 C
2729 28-01-2019 11:20:00 2.9 C 95 % 2.18 C
2730 28-01-2019 11:25:00 2.9 C 95 % 2.18 C
2731 28-01-2019 11:30:00 2.9 C 95 % 2.18 C
2732 28-01-2019 11:35:00 2.9 C 95 % 2.18 C
2733 28-01-2019 11:40:00 3 C 95 % 2.28 C
2734 28-01-2019 11:45:00 3.1 C 95 % 2.38 C
2735 28-01-2019 11:50:00 3.1 C 95 % 2.38 C
2736 28-01-2019 11:55:00 3.1 C 95 % 2.38 C
2737 28-01-2019 12:00:00 3.1 C 95 % 2.38 C
2738 28-01-2019 12:05:00 3.2 C 95 % 2.48 C
2739 28-01-2019 12:10:00 3.2 C 95 % 2.48 C
2740 28-01-2019 12:15:00 3.2 C 95 % 2.48 C
2741 28-01-2019 12:20:00 3.3 C 95 % 2.58 C
2742 28-01-2019 12:25:00 3.3 C 95 % 2.58 C
2743 28-01-2019 12:30:00 3.3 C 95 % 2.58 C
2744 28-01-2019 12:35:00 3.4 C 95 % 2.68 C
2745 28-01-2019 12:40:00 3.4 C 94 % 2.53 C
2746 28-01-2019 12:45:00 3.4 C 94 % 2.53 C
2747 28-01-2019 12:50:00 3.4 C 94 % 2.53 C
2748 28-01-2019 12:55:00 3.4 C 94 % 2.53 C
2749 28-01-2019 13:00:00 3.3 C 94 % 2.43 C
2750 28-01-2019 13:05:00 3.3 C 94 % 2.43 C
Sensor: Nr:Datum:Temp:Feuchte:Taupunkt:
Aussen-T/F 2751 28-01-2019 13:10:00 3.3 C 95 % 2.58 C
2752 28-01-2019 13:15:00 3.4 C 95 % 2.68 C
2753 28-01-2019 13:20:00 3.4 C 95 % 2.68 C
2754 28-01-2019 13:25:00 3.5 C 95 % 2.78 C
2755 28-01-2019 13:30:00 3.6 C 95 % 2.88 C
2756 28-01-2019 13:35:00 3.6 C 94 % 2.73 C
2757 28-01-2019 13:40:00 3.7 C 94 % 2.83 C
2758 28-01-2019 13:45:00 3.8 C 94 % 2.93 C
2759 28-01-2019 13:50:00 3.8 C 94 % 2.93 C
2760 28-01-2019 13:55:00 3.9 C 93 % 2.87 C
2761 28-01-2019 14:00:00 3.9 C 93 % 2.87 C
2762 28-01-2019 14:05:00 4 C 92 % 2.82 C
2763 28-01-2019 14:10:00 4.1 C 92 % 2.92 C
2764 28-01-2019 14:15:00 4.1 C 92 % 2.92 C
2765 28-01-2019 14:20:00 4.1 C 92 % 2.92 C
2766 28-01-2019 14:25:00 4.1 C 92 % 2.92 C
2767 28-01-2019 14:30:00 4.1 C 92 % 2.92 C
2768 28-01-2019 14:35:00 4 C 92 % 2.82 C
2769 28-01-2019 14:40:00 4 C 92 % 2.82 C
2770 28-01-2019 14:45:00 4 C 92 % 2.82 C
2771 28-01-2019 14:50:00 4 C 92 % 2.82 C
2772 28-01-2019 14:55:00 4 C 92 % 2.82 C
2773 28-01-2019 15:00:00 4 C 91 % 2.67 C
2774 28-01-2019 15:05:00 4.1 C 91 % 2.77 C
2775 28-01-2019 15:10:00 4.1 C 91 % 2.77 C
Sensor: Nr:Datum:Temp:Feuchte:Taupunkt:
Aussen-T/F 2776 28-01-2019 15:15:00 4.1 C 90 % 2.61 C
2777 28-01-2019 15:20:00 4.1 C 90 % 2.61 C
2778 28-01-2019 15:25:00 4.1 C 91 % 2.77 C
2779 28-01-2019 15:30:00 4.1 C 91 % 2.77 C
2780 28-01-2019 15:35:00 4 C 90 % 2.51 C
2781 28-01-2019 15:40:00 3.9 C 91 % 2.57 C
2782 28-01-2019 15:45:00 3.9 C 91 % 2.57 C
2783 28-01-2019 15:50:00 3.9 C 91 % 2.57 C
2784 28-01-2019 15:55:00 3.9 C 90 % 2.41 C
2785 28-01-2019 16:00:00 3.9 C 90 % 2.41 C
2786 28-01-2019 16:05:00 3.8 C 91 % 2.47 C
2787 28-01-2019 16:10:00 3.6 C 91 % 2.27 C
2788 28-01-2019 16:15:00 3.5 C 91 % 2.17 C
2789 28-01-2019 16:20:00 3.4 C 92 % 2.23 C
2790 28-01-2019 16:25:00 3.3 C 92 % 2.13 C
2791 28-01-2019 16:30:00 3.3 C 92 % 2.13 C
2792 28-01-2019 16:35:00 3.3 C 92 % 2.13 C
2793 28-01-2019 16:40:00 3.3 C 92 % 2.13 C
2794 28-01-2019 16:45:00 3.3 C 92 % 2.13 C
2795 28-01-2019 16:50:00 3.3 C 92 % 2.13 C
2796 28-01-2019 16:55:00 3.3 C 92 % 2.13 C
2797 28-01-2019 17:00:00 3.2 C 92 % 2.03 C
2798 28-01-2019 17:05:00 3.2 C 92 % 2.03 C
2799 28-01-2019 17:10:00 3.1 C 92 % 1.93 C
2800 28-01-2019 17:15:00 3.1 C 93 % 2.08 C
Sensor: Nr:Datum:Temp:Feuchte:Taupunkt:
Aussen-T/F 2801 28-01-2019 17:20:00 3 C 93 % 1.98 C
2802 28-01-2019 17:25:00 2.9 C 93 % 1.88 C
2803 28-01-2019 17:30:00 2.9 C 93 % 1.88 C
2804 28-01-2019 17:35:00 2.9 C 93 % 1.88 C
2805 28-01-2019 17:40:00 2.8 C 93 % 1.78 C
2806 28-01-2019 17:45:00 2.8 C 93 % 1.78 C
2807 28-01-2019 17:50:00 2.9 C 93 % 1.88 C
2808 28-01-2019 17:55:00 2.9 C 92 % 1.73 C
2809 28-01-2019 18:00:00 2.9 C 92 % 1.73 C
2810 28-01-2019 18:05:00 2.8 C 93 % 1.78 C
2811 28-01-2019 18:10:00 2.9 C 93 % 1.88 C
2812 28-01-2019 18:15:00 2.9 C 93 % 1.88 C
2813 28-01-2019 18:20:00 2.9 C 93 % 1.88 C
2814 28-01-2019 18:25:00 2.9 C 93 % 1.88 C
2815 28-01-2019 18:30:00 2.9 C 93 % 1.88 C
2816 28-01-2019 18:35:00 2.8 C 93 % 1.78 C
2817 28-01-2019 18:40:00 2.8 C 93 % 1.78 C
2818 28-01-2019 18:45:00 2.7 C 92 % 1.53 C
2819 28-01-2019 18:50:00 2.6 C 92 % 1.43 C
2820 28-01-2019 18:55:00 2.6 C 92 % 1.43 C
2821 28-01-2019 19:00:00 2.6 C 92 % 1.43 C
2822 28-01-2019 19:05:00 2.6 C 92 % 1.43 C
2823 28-01-2019 19:10:00 2.7 C 91 % 1.38 C
2824 28-01-2019 19:15:00 2.8 C 90 % 1.33 C
2825 28-01-2019 19:20:00 2.9 C 89 % 1.27 C
Sensor: Nr:Datum:Temp:Feuchte:Taupunkt:
Aussen-T/F 2826 28-01-2019 19:25:00 3 C 88 % 1.21 C
2827 28-01-2019 19:30:00 3.1 C 88 % 1.31 C
2828 28-01-2019 19:35:00 3.2 C 87 % 1.25 C
2829 28-01-2019 19:40:00 3.2 C 86 % 1.09 C
2830 28-01-2019 19:45:00 3.3 C 86 % 1.19 C
2831 28-01-2019 19:50:00 3.3 C 88 % 1.51 C
2832 28-01-2019 19:55:00 3.3 C 88 % 1.51 C
2833 28-01-2019 20:00:00 3.2 C 87 % 1.25 C
2834 28-01-2019 20:05:00 3.3 C 86 % 1.19 C
2835 28-01-2019 20:10:00 3.5 C 86 % 1.38 C
2836 28-01-2019 20:15:00 3.6 C 86 % 1.48 C
2837 28-01-2019 20:20:00 3.7 C 85 % 1.42 C
2838 28-01-2019 20:25:00 3.7 C 85 % 1.42 C
2839 28-01-2019 20:30:00 3.6 C 85 % 1.32 C
2840 28-01-2019 20:35:00 3.5 C 86 % 1.38 C
2841 28-01-2019 20:40:00 3.4 C 86 % 1.29 C
2842 28-01-2019 20:45:00 3.4 C 86 % 1.29 C
2843 28-01-2019 20:50:00 3.4 C 86 % 1.29 C
2844 28-01-2019 20:55:00 3.3 C 86 % 1.19 C
2845 28-01-2019 21:00:00 3.3 C 87 % 1.35 C
2846 28-01-2019 21:05:00 3.3 C 87 % 1.35 C
2847 28-01-2019 21:10:00 3.3 C 87 % 1.35 C
2848 28-01-2019 21:15:00 3.4 C 86 % 1.29 C
2849 28-01-2019 21:20:00 3.4 C 86 % 1.29 C
2850 28-01-2019 21:25:00 3.4 C 87 % 1.45 C
Sensor: Nr:Datum:Temp:Feuchte:Taupunkt:
Aussen-T/F 2851 28-01-2019 21:30:00 3.3 C 87 % 1.35 C
2852 28-01-2019 21:35:00 3.3 C 87 % 1.35 C
2853 28-01-2019 21:40:00 3.3 C 87 % 1.35 C
2854 28-01-2019 21:45:00 3.4 C 87 % 1.45 C
2855 28-01-2019 21:50:00 3.4 C 87 % 1.45 C
2856 28-01-2019 21:55:00 3.5 C 86 % 1.38 C
2857 28-01-2019 22:00:00 3.6 C 86 % 1.48 C
2858 28-01-2019 22:05:00 3.6 C 86 % 1.48 C
2859 28-01-2019 22:10:00 3.6 C 86 % 1.48 C
2860 28-01-2019 22:15:00 3.6 C 86 % 1.48 C
2861 28-01-2019 22:20:00 3.5 C 86 % 1.38 C
2862 28-01-2019 22:25:00 3.5 C 87 % 1.55 C
2863 28-01-2019 22:30:00 3.4 C 87 % 1.45 C
2864 28-01-2019 22:35:00 3.4 C 86 % 1.29 C
2865 28-01-2019 22:40:00 3.4 C 86 % 1.29 C
2866 28-01-2019 22:45:00 3.4 C 86 % 1.29 C
2867 28-01-2019 22:50:00 3.4 C 86 % 1.29 C
2868 28-01-2019 22:55:00 3.4 C 86 % 1.29 C
2869 28-01-2019 23:00:00 3.5 C 86 % 1.38 C
2870 28-01-2019 23:05:00 3.5 C 86 % 1.38 C
2871 28-01-2019 23:10:00 3.5 C 86 % 1.38 C
2872 28-01-2019 23:15:00 3.4 C 86 % 1.29 C
2873 28-01-2019 23:20:00 3.4 C 87 % 1.45 C
2874 28-01-2019 23:25:00 3.4 C 87 % 1.45 C
2875 28-01-2019 23:30:00 3.3 C 88 % 1.51 C
Sensor: Nr:Datum:Temp:Feuchte:Taupunkt:
Aussen-T/F 2876 28-01-2019 23:35:00 3.2 C 88 % 1.41 C
2877 28-01-2019 23:40:00 3.2 C 88 % 1.41 C
2878 28-01-2019 23:45:00 3.1 C 88 % 1.31 C
2879 28-01-2019 23:50:00 3 C 88 % 1.21 C
2880 28-01-2019 23:55:00 2.9 C 88 % 1.11 C
2881 29-01-2019 00:00:00 2.9 C 88 % 1.11 C
2882 29-01-2019 00:05:00 2.9 C 88 % 1.11 C
2883 29-01-2019 00:10:00 2.8 C 88 % 1.02 C
2884 29-01-2019 00:15:00 2.8 C 89 % 1.17 C
2885 29-01-2019 00:20:00 2.8 C 89 % 1.17 C
2886 29-01-2019 00:25:00 2.7 C 89 % 1.07 C
2887 29-01-2019 00:30:00 2.7 C 89 % 1.07 C
2888 29-01-2019 00:35:00 2.7 C 89 % 1.07 C
2889 29-01-2019 00:40:00 2.7 C 89 % 1.07 C
2890 29-01-2019 00:45:00 2.7 C 89 % 1.07 C
2891 29-01-2019 00:50:00 2.7 C 89 % 1.07 C
2892 29-01-2019 00:55:00 2.6 C 90 % 1.13 C
2893 29-01-2019 01:00:00 2.6 C 90 % 1.13 C
2894 29-01-2019 01:05:00 2.6 C 90 % 1.13 C
2895 29-01-2019 01:10:00 2.6 C 90 % 1.13 C
2896 29-01-2019 01:15:00 2.5 C 90 % 1.03 C
2897 29-01-2019 01:20:00 2.6 C 90 % 1.13 C
2898 29-01-2019 01:25:00 2.5 C 90 % 1.03 C
2899 29-01-2019 01:30:00 2.4 C 91 % 1.08 C
2900 29-01-2019 01:35:00 2.3 C 91 % 0.99 C
Sensor: Nr:Datum:Temp:Feuchte:Taupunkt:
Aussen-T/F 2901 29-01-2019 01:40:00 2.2 C 91 % 0.89 C
2902 29-01-2019 01:45:00 2.1 C 92 % 0.94 C
2903 29-01-2019 01:50:00 2.1 C 92 % 0.94 C
2904 29-01-2019 01:55:00 2.1 C 92 % 0.94 C
2905 29-01-2019 02:00:00 2.1 C 92 % 0.94 C
2906 29-01-2019 02:05:00 2 C 92 % 0.84 C
2907 29-01-2019 02:10:00 1.9 C 92 % 0.74 C
2908 29-01-2019 02:15:00 1.9 C 93 % 0.89 C
2909 29-01-2019 02:20:00 1.9 C 93 % 0.89 C
2910 29-01-2019 02:25:00 1.9 C 93 % 0.89 C
2911 29-01-2019 02:30:00 1.9 C 93 % 0.89 C
2912 29-01-2019 02:35:00 1.9 C 93 % 0.89 C
2913 29-01-2019 02:40:00 1.9 C 93 % 0.89 C
2914 29-01-2019 02:45:00 1.9 C 93 % 0.89 C
2915 29-01-2019 02:50:00 1.9 C 93 % 0.89 C
2916 29-01-2019 02:55:00 1.8 C 93 % 0.79 C
2917 29-01-2019 03:00:00 1.7 C 93 % 0.69 C
2918 29-01-2019 03:05:00 1.7 C 93 % 0.69 C
2919 29-01-2019 03:10:00 1.7 C 94 % 0.84 C
2920 29-01-2019 03:15:00 1.7 C 94 % 0.84 C
2921 29-01-2019 03:20:00 1.7 C 94 % 0.84 C
2922 29-01-2019 03:25:00 1.6 C 94 % 0.74 C
2923 29-01-2019 03:30:00 1.6 C 94 % 0.74 C
2924 29-01-2019 03:35:00 1.6 C 94 % 0.74 C
2925 29-01-2019 03:40:00 1.6 C 94 % 0.74 C
Sensor: Nr:Datum:Temp:Feuchte:Taupunkt:
Aussen-T/F 2926 29-01-2019 03:45:00 1.5 C 94 % 0.64 C
2927 29-01-2019 03:50:00 1.4 C 94 % 0.54 C
2928 29-01-2019 03:55:00 1.3 C 94 % 0.44 C
2929 29-01-2019 04:00:00 1.2 C 94 % 0.34 C
2930 29-01-2019 04:05:00 1.2 C 94 % 0.34 C
2931 29-01-2019 04:10:00 1.1 C 94 % 0.24 C
2932 29-01-2019 04:15:00 1.1 C 94 % 0.24 C
2933 29-01-2019 04:20:00 1.1 C 94 % 0.24 C
2934 29-01-2019 04:25:00 1 C 94 % 0.15 C
2935 29-01-2019 04:30:00 1 C 94 % 0.15 C
2936 29-01-2019 04:35:00 0.9 C 94 % 0.05 C
2937 29-01-2019 04:40:00 0.9 C 94 % 0.05 C
2938 29-01-2019 04:45:00 1 C 94 % 0.15 C
2939 29-01-2019 04:50:00 1.1 C 94 % 0.24 C
2940 29-01-2019 04:55:00 0.9 C 94 % 0.05 C
2941 29-01-2019 05:00:00 0.8 C 94 % -0.05 C
2942 29-01-2019 05:05:00 0.8 C 94 % -0.05 C
2943 29-01-2019 05:10:00 0.7 C 94 % -0.15 C
2944 29-01-2019 05:15:00 0.7 C 94 % -0.15 C
2945 29-01-2019 05:20:00 0.7 C 94 % -0.15 C
2946 29-01-2019 05:25:00 0.6 C 94 % -0.25 C
2947 29-01-2019 05:30:00 0.6 C 94 % -0.25 C
2948 29-01-2019 05:35:00 0.6 C 94 % -0.25 C
2949 29-01-2019 05:40:00 0.6 C 94 % -0.25 C
2950 29-01-2019 05:45:00 0.7 C 95 % -0.01 C
Sensor: Nr:Datum:Temp:Feuchte:Taupunkt:
Aussen-T/F 2951 29-01-2019 05:50:00 0.7 C 95 % -0.01 C
2952 29-01-2019 05:55:00 0.8 C 95 % 0.09 C
2953 29-01-2019 06:00:00 0.9 C 95 % 0.19 C
2954 29-01-2019 06:05:00 1 C 95 % 0.29 C
2955 29-01-2019 06:10:00 1 C 95 % 0.29 C
2956 29-01-2019 06:15:00 0.9 C 95 % 0.19 C
2957 29-01-2019 06:20:00 0.9 C 94 % 0.05 C
2958 29-01-2019 06:25:00 0.9 C 95 % 0.19 C
2959 29-01-2019 06:30:00 0.9 C 95 % 0.19 C
2960 29-01-2019 06:35:00 0.9 C 95 % 0.19 C
2961 29-01-2019 06:40:00 0.9 C 95 % 0.19 C
2962 29-01-2019 06:45:00 1 C 95 % 0.29 C
2963 29-01-2019 06:50:00 1 C 95 % 0.29 C
2964 29-01-2019 06:55:00 1.1 C 94 % 0.24 C
2965 29-01-2019 07:00:00 1.1 C 94 % 0.24 C
2966 29-01-2019 07:05:00 1.1 C 94 % 0.24 C
2967 29-01-2019 07:10:00 1.1 C 94 % 0.24 C
2968 29-01-2019 07:15:00 1.1 C 94 % 0.24 C
2969 29-01-2019 07:20:00 1.2 C 94 % 0.34 C
2970 29-01-2019 07:25:00 1.1 C 94 % 0.24 C
2971 29-01-2019 07:30:00 1.1 C 94 % 0.24 C
2972 29-01-2019 07:35:00 1.2 C 94 % 0.34 C
2973 29-01-2019 07:40:00 1.2 C 94 % 0.34 C
2974 29-01-2019 07:45:00 1.2 C 95 % 0.49 C
2975 29-01-2019 07:50:00 1.2 C 94 % 0.34 C
Sensor: Nr:Datum:Temp:Feuchte:Taupunkt:
Aussen-T/F 2976 29-01-2019 07:55:00 1.2 C 94 % 0.34 C
2977 29-01-2019 08:00:00 1.2 C 94 % 0.34 C
2978 29-01-2019 08:05:00 1.2 C 94 % 0.34 C
2979 29-01-2019 08:10:00 1.2 C 94 % 0.34 C
2980 29-01-2019 08:15:00 1.2 C 94 % 0.34 C
2981 29-01-2019 08:20:00 1.2 C 94 % 0.34 C
2982 29-01-2019 08:25:00 1.2 C 94 % 0.34 C
2983 29-01-2019 08:30:00 1.2 C 94 % 0.34 C
2984 29-01-2019 08:35:00 1.2 C 94 % 0.34 C
2985 29-01-2019 08:40:00 1.2 C 94 % 0.34 C
2986 29-01-2019 08:45:00 1.2 C 94 % 0.34 C
2987 29-01-2019 08:50:00 1.1 C 94 % 0.24 C
2988 29-01-2019 08:55:00 1.1 C 94 % 0.24 C
2989 29-01-2019 09:00:00 1 C 94 % 0.15 C
2990 29-01-2019 09:05:00 0.9 C 94 % 0.05 C
2991 29-01-2019 09:10:00 0.9 C 94 % 0.05 C
2992 29-01-2019 09:15:00 0.8 C 94 % -0.05 C
2993 29-01-2019 09:20:00 0.8 C 94 % -0.05 C
2994 29-01-2019 09:25:00 0.8 C 94 % -0.05 C
2995 29-01-2019 09:30:00 0.9 C 94 % 0.05 C
2996 29-01-2019 09:35:00 0.9 C 94 % 0.05 C
2997 29-01-2019 09:40:00 1.1 C 94 % 0.24 C
2998 29-01-2019 09:45:00 1.2 C 94 % 0.34 C
2999 29-01-2019 09:50:00 1.3 C 94 % 0.44 C
3000 29-01-2019 09:55:00 1.5 C 94 % 0.64 C
Sensor: Nr:Datum:Temp:Feuchte:Taupunkt:
Aussen-T/F 3001 29-01-2019 10:00:00 1.6 C 93 % 0.59 C
3002 29-01-2019 10:05:00 1.7 C 93 % 0.69 C
3003 29-01-2019 10:10:00 1.8 C 92 % 0.64 C
3004 29-01-2019 10:15:00 1.9 C 92 % 0.74 C
3005 29-01-2019 10:20:00 2 C 92 % 0.84 C
3006 29-01-2019 10:25:00 2.1 C 91 % 0.79 C
3007 29-01-2019 10:30:00 2.2 C 91 % 0.89 C
3008 29-01-2019 10:35:00 2.2 C 90 % 0.73 C
3009 29-01-2019 10:40:00 2.3 C 90 % 0.83 C
3010 29-01-2019 10:45:00 2.3 C 90 % 0.83 C
3011 29-01-2019 10:50:00 2.3 C 89 % 0.68 C
3012 29-01-2019 10:55:00 2.4 C 89 % 0.78 C
3013 29-01-2019 11:00:00 2.5 C 89 % 0.88 C
3014 29-01-2019 11:05:00 2.6 C 89 % 0.97 C
3015 29-01-2019 11:10:00 2.7 C 88 % 0.92 C
3016 29-01-2019 11:15:00 2.8 C 88 % 1.02 C
3017 29-01-2019 11:20:00 2.8 C 88 % 1.02 C
3018 29-01-2019 11:25:00 2.9 C 88 % 1.11 C
3019 29-01-2019 11:30:00 2.9 C 88 % 1.11 C
3020 29-01-2019 11:35:00 3 C 88 % 1.21 C
3021 29-01-2019 11:40:00 3.1 C 87 % 1.15 C
3022 29-01-2019 11:45:00 3.2 C 87 % 1.25 C
3023 29-01-2019 11:50:00 3.2 C 87 % 1.25 C
3024 29-01-2019 11:55:00 3.3 C 87 % 1.35 C
3025 29-01-2019 12:00:00 3.4 C 86 % 1.29 C
Sensor: Nr:Datum:Temp:Feuchte:Taupunkt:
Aussen-T/F 3026 29-01-2019 12:05:00 3.4 C 86 % 1.29 C
3027 29-01-2019 12:10:00 3.5 C 86 % 1.38 C
3028 29-01-2019 12:15:00 3.5 C 86 % 1.38 C
3029 29-01-2019 12:20:00 3.6 C 86 % 1.48 C
3030 29-01-2019 12:25:00 3.6 C 86 % 1.48 C
3031 29-01-2019 12:30:00 3.7 C 86 % 1.58 C
3032 29-01-2019 12:35:00 3.7 C 85 % 1.42 C
3033 29-01-2019 12:40:00 3.8 C 85 % 1.52 C
3034 29-01-2019 12:45:00 3.8 C 84 % 1.35 C
3035 29-01-2019 12:50:00 3.8 C 84 % 1.35 C
3036 29-01-2019 12:55:00 3.8 C 84 % 1.35 C
3037 29-01-2019 13:00:00 3.8 C 84 % 1.35 C
3038 29-01-2019 13:05:00 3.9 C 84 % 1.45 C
3039 29-01-2019 13:10:00 3.9 C 84 % 1.45 C
3040 29-01-2019 13:15:00 4 C 84 % 1.55 C
3041 29-01-2019 13:20:00 4 C 84 % 1.55 C
3042 29-01-2019 13:25:00 3.9 C 84 % 1.45 C
3043 29-01-2019 13:30:00 4 C 84 % 1.55 C
3044 29-01-2019 13:35:00 4 C 84 % 1.55 C
3045 29-01-2019 13:40:00 4.1 C 84 % 1.65 C
3046 29-01-2019 13:45:00 4 C 84 % 1.55 C
3047 29-01-2019 13:50:00 4 C 83 % 1.38 C
3048 29-01-2019 13:55:00 4 C 84 % 1.55 C
3049 29-01-2019 14:00:00 4 C 83 % 1.38 C
3050 29-01-2019 14:05:00 4.1 C 83 % 1.48 C
Sensor: Nr:Datum:Temp:Feuchte:Taupunkt:
Aussen-T/F 3051 29-01-2019 14:10:00 4 C 83 % 1.38 C
3052 29-01-2019 14:15:00 4 C 83 % 1.38 C
3053 29-01-2019 14:20:00 3.9 C 82 % 1.12 C
3054 29-01-2019 14:25:00 3.9 C 83 % 1.28 C
3055 29-01-2019 14:30:00 3.8 C 83 % 1.19 C
3056 29-01-2019 14:35:00 3.7 C 83 % 1.09 C
3057 29-01-2019 14:40:00 3.7 C 83 % 1.09 C
3058 29-01-2019 14:45:00 3.7 C 83 % 1.09 C
3059 29-01-2019 14:50:00 3.7 C 82 % 0.92 C
3060 29-01-2019 14:55:00 3.7 C 82 % 0.92 C
3061 29-01-2019 15:00:00 3.7 C 81 % 0.75 C
3062 29-01-2019 15:05:00 3.7 C 82 % 0.92 C
3063 29-01-2019 15:10:00 3.7 C 82 % 0.92 C
3064 29-01-2019 15:15:00 3.7 C 82 % 0.92 C
3065 29-01-2019 15:20:00 3.8 C 81 % 0.85 C
3066 29-01-2019 15:25:00 3.8 C 82 % 1.02 C
3067 29-01-2019 15:30:00 3.8 C 82 % 1.02 C
3068 29-01-2019 15:35:00 3.8 C 82 % 1.02 C
3069 29-01-2019 15:40:00 3.9 C 81 % 0.95 C
3070 29-01-2019 15:45:00 3.9 C 81 % 0.95 C
3071 29-01-2019 15:50:00 3.9 C 81 % 0.95 C
3072 29-01-2019 15:55:00 3.9 C 81 % 0.95 C
3073 29-01-2019 16:00:00 4 C 81 % 1.04 C
3074 29-01-2019 16:05:00 3.9 C 80 % 0.77 C
3075 29-01-2019 16:10:00 3.9 C 81 % 0.95 C
Sensor: Nr:Datum:Temp:Feuchte:Taupunkt:
Aussen-T/F 3076 29-01-2019 16:15:00 3.9 C 80 % 0.77 C
3077 29-01-2019 16:20:00 3.9 C 80 % 0.77 C
3078 29-01-2019 16:25:00 3.8 C 81 % 0.85 C
3079 29-01-2019 16:30:00 3.8 C 83 % 1.19 C
3080 29-01-2019 16:35:00 3.7 C 81 % 0.75 C
3081 29-01-2019 16:40:00 3.7 C 83 % 1.09 C
3082 29-01-2019 16:45:00 3.6 C 83 % 0.99 C
3083 29-01-2019 16:50:00 3.6 C 83 % 0.99 C
3084 29-01-2019 16:55:00 3.4 C 83 % 0.79 C
3085 29-01-2019 17:00:00 3.4 C 84 % 0.96 C
3086 29-01-2019 17:05:00 3.2 C 84 % 0.76 C
3087 29-01-2019 17:10:00 3.1 C 83 % 0.5 C
3088 29-01-2019 17:15:00 2.9 C 83 % 0.31 C
3089 29-01-2019 17:20:00 2.9 C 84 % 0.47 C
3090 29-01-2019 17:25:00 2.8 C 84 % 0.37 C
3091 29-01-2019 17:30:00 2.7 C 84 % 0.27 C
3092 29-01-2019 17:35:00 2.7 C 85 % 0.44 C
3093 29-01-2019 17:40:00 2.6 C 86 % 0.5 C
3094 29-01-2019 17:45:00 2.4 C 86 % 0.3 C
3095 29-01-2019 17:50:00 2.4 C 86 % 0.3 C
3096 29-01-2019 17:55:00 2.3 C 86 % 0.21 C
3097 29-01-2019 18:00:00 2.2 C 86 % 0.11 C
3098 29-01-2019 18:05:00 2 C 86 % -0.09 C
3099 29-01-2019 18:10:00 1.8 C 86 % -0.29 C
3100 29-01-2019 18:15:00 1.7 C 86 % -0.38 C
Sensor: Nr:Datum:Temp:Feuchte:Taupunkt:
Aussen-T/F 3101 29-01-2019 18:20:00 1.4 C 87 % -0.52 C
3102 29-01-2019 18:25:00 1.3 C 87 % -0.62 C
3103 29-01-2019 18:30:00 1.1 C 87 % -0.82 C
3104 29-01-2019 18:35:00 1 C 88 % -0.76 C
3105 29-01-2019 18:40:00 0.9 C 88 % -0.86 C
3106 29-01-2019 18:45:00 0.8 C 88 % -0.96 C
3107 29-01-2019 18:50:00 0.7 C 89 % -0.9 C
3108 29-01-2019 18:55:00 0.7 C 89 % -0.9 C
3109 29-01-2019 19:00:00 0.6 C 89 % -1 C
3110 29-01-2019 19:05:00 0.6 C 90 % -0.85 C
3111 29-01-2019 19:10:00 0.5 C 90 % -0.95 C
3112 29-01-2019 19:15:00 0.5 C 90 % -0.95 C
3113 29-01-2019 19:20:00 0.4 C 90 % -1.04 C
3114 29-01-2019 19:25:00 0.3 C 90 % -1.14 C
3115 29-01-2019 19:30:00 0.2 C 90 % -1.24 C
3116 29-01-2019 19:35:00 0.1 C 90 % -1.34 C
3117 29-01-2019 19:40:00 0.1 C 90 % -1.34 C
3118 29-01-2019 19:45:00 0 C 90 % -1.44 C
3119 29-01-2019 19:50:00 -0.1 C 90 % -1.54 C
3120 29-01-2019 19:55:00 -0.1 C 90 % -1.54 C
3121 29-01-2019 20:00:00 -0.1 C 91 % -1.39 C
3122 29-01-2019 20:05:00 -0.2 C 90 % -1.64 C
3123 29-01-2019 20:10:00 -0.2 C 91 % -1.49 C
3124 29-01-2019 20:15:00 -0.2 C 91 % -1.49 C
3125 29-01-2019 20:20:00 -0.3 C 91 % -1.59 C
Sensor: Nr:Datum:Temp:Feuchte:Taupunkt:
Aussen-T/F 3126 29-01-2019 20:25:00 -0.3 C 91 % -1.59 C
3127 29-01-2019 20:30:00 -0.3 C 91 % -1.59 C
3128 29-01-2019 20:35:00 -0.3 C 91 % -1.59 C
3129 29-01-2019 20:40:00 -0.3 C 91 % -1.59 C
3130 29-01-2019 20:45:00 -0.3 C 91 % -1.59 C
3131 29-01-2019 20:50:00 -0.3 C 91 % -1.59 C
3132 29-01-2019 20:55:00 -0.3 C 91 % -1.59 C
3133 29-01-2019 21:00:00 -0.3 C 91 % -1.59 C
3134 29-01-2019 21:05:00 -0.3 C 91 % -1.59 C
3135 29-01-2019 21:10:00 -0.3 C 91 % -1.59 C
3136 29-01-2019 21:15:00 -0.3 C 91 % -1.59 C
3137 29-01-2019 21:20:00 -0.3 C 91 % -1.59 C
3138 29-01-2019 21:25:00 -0.3 C 91 % -1.59 C
3139 29-01-2019 21:30:00 -0.3 C 91 % -1.59 C
3140 29-01-2019 21:35:00 -0.3 C 91 % -1.59 C
3141 29-01-2019 21:40:00 -0.3 C 91 % -1.59 C
3142 29-01-2019 21:45:00 -0.3 C 91 % -1.59 C
3143 29-01-2019 21:50:00 -0.3 C 91 % -1.59 C
3144 29-01-2019 21:55:00 -0.3 C 91 % -1.59 C
3145 29-01-2019 22:00:00 -0.3 C 91 % -1.59 C
3146 29-01-2019 22:05:00 -0.3 C 91 % -1.59 C
3147 29-01-2019 22:10:00 -0.3 C 91 % -1.59 C
3148 29-01-2019 22:15:00 -0.4 C 91 % -1.69 C
3149 29-01-2019 22:20:00 -0.4 C 91 % -1.69 C
3150 29-01-2019 22:25:00 -0.4 C 91 % -1.69 C
Sensor: Nr:Datum:Temp:Feuchte:Taupunkt:
Aussen-T/F 3151 29-01-2019 22:30:00 -0.4 C 91 % -1.69 C
3152 29-01-2019 22:35:00 -0.4 C 91 % -1.69 C
3153 29-01-2019 22:40:00 -0.4 C 91 % -1.69 C
3154 29-01-2019 22:45:00 -0.4 C 92 % -1.54 C
3155 29-01-2019 22:50:00 -0.4 C 92 % -1.54 C
3156 29-01-2019 22:55:00 -0.4 C 92 % -1.54 C
3157 29-01-2019 23:00:00 -0.4 C 92 % -1.54 C
3158 29-01-2019 23:05:00 -0.5 C 92 % -1.64 C
3159 29-01-2019 23:10:00 -0.5 C 92 % -1.64 C
3160 29-01-2019 23:15:00 -0.5 C 92 % -1.64 C
3161 29-01-2019 23:20:00 -0.5 C 92 % -1.64 C
3162 29-01-2019 23:25:00 -0.6 C 92 % -1.74 C
3163 29-01-2019 23:30:00 -0.6 C 92 % -1.74 C
3164 29-01-2019 23:35:00 -0.6 C 92 % -1.74 C
3165 29-01-2019 23:40:00 -0.6 C 93 % -1.59 C
3166 29-01-2019 23:45:00 -0.6 C 93 % -1.59 C
3167 29-01-2019 23:50:00 -0.6 C 93 % -1.59 C
3168 29-01-2019 23:55:00 -0.6 C 93 % -1.59 C
3169 30-01-2019 00:00:00 -0.6 C 93 % -1.59 C
3170 30-01-2019 00:05:00 -0.6 C 93 % -1.59 C
3171 30-01-2019 00:10:00 -0.6 C 93 % -1.59 C
3172 30-01-2019 00:15:00 -0.6 C 93 % -1.59 C
3173 30-01-2019 00:20:00 -0.7 C 93 % -1.69 C
3174 30-01-2019 00:25:00 -0.5 C 93 % -1.49 C
3175 30-01-2019 00:30:00 -0.4 C 93 % -1.39 C
Sensor: Nr:Datum:Temp:Feuchte:Taupunkt:
Aussen-T/F 3176 30-01-2019 00:35:00 -0.4 C 93 % -1.39 C
3177 30-01-2019 00:40:00 -0.5 C 93 % -1.49 C
3178 30-01-2019 00:45:00 -0.5 C 93 % -1.49 C
3179 30-01-2019 00:50:00 -0.6 C 93 % -1.59 C
3180 30-01-2019 00:55:00 -0.6 C 93 % -1.59 C
3181 30-01-2019 01:00:00 -0.6 C 93 % -1.59 C
3182 30-01-2019 01:05:00 -0.6 C 93 % -1.59 C
3183 30-01-2019 01:10:00 -0.6 C 93 % -1.59 C
3184 30-01-2019 01:15:00 -0.7 C 93 % -1.69 C
3185 30-01-2019 01:20:00 -0.7 C 93 % -1.69 C
3186 30-01-2019 01:25:00 -0.7 C 93 % -1.69 C
3187 30-01-2019 01:30:00 -0.7 C 93 % -1.69 C
3188 30-01-2019 01:35:00 -0.7 C 93 % -1.69 C
3189 30-01-2019 01:40:00 -0.7 C 93 % -1.69 C
3190 30-01-2019 01:45:00 -0.7 C 93 % -1.69 C
3191 30-01-2019 01:50:00 -0.7 C 93 % -1.69 C
3192 30-01-2019 01:55:00 -0.7 C 93 % -1.69 C
3193 30-01-2019 02:00:00 -0.7 C 93 % -1.69 C
3194 30-01-2019 02:05:00 -0.8 C 93 % -1.79 C
3195 30-01-2019 02:10:00 -0.7 C 93 % -1.69 C
3196 30-01-2019 02:15:00 -0.8 C 93 % -1.79 C
3197 30-01-2019 02:20:00 -0.7 C 93 % -1.69 C
3198 30-01-2019 02:25:00 -0.7 C 93 % -1.69 C
3199 30-01-2019 02:30:00 -0.7 C 93 % -1.69 C
3200 30-01-2019 02:35:00 -0.7 C 93 % -1.69 C
Sensor: Nr:Datum:Temp:Feuchte:Taupunkt:
Aussen-T/F 3201 30-01-2019 02:40:00 -0.6 C 93 % -1.59 C
3202 30-01-2019 02:45:00 -0.6 C 93 % -1.59 C
3203 30-01-2019 02:50:00 -0.6 C 93 % -1.59 C
3204 30-01-2019 02:55:00 -0.6 C 93 % -1.59 C
3205 30-01-2019 03:00:00 -0.7 C 93 % -1.69 C
3206 30-01-2019 03:05:00 -0.7 C 93 % -1.69 C
3207 30-01-2019 03:10:00 -0.7 C 93 % -1.69 C
3208 30-01-2019 03:15:00 -0.8 C 92 % -1.93 C
3209 30-01-2019 03:20:00 -0.8 C 93 % -1.79 C
3210 30-01-2019 03:25:00 -0.8 C 93 % -1.79 C
3211 30-01-2019 03:30:00 -0.8 C 92 % -1.93 C
3212 30-01-2019 03:35:00 -0.8 C 92 % -1.93 C
3213 30-01-2019 03:40:00 -0.8 C 92 % -1.93 C
3214 30-01-2019 03:45:00 -0.9 C 92 % -2.03 C
3215 30-01-2019 03:50:00 -0.9 C 92 % -2.03 C
3216 30-01-2019 03:55:00 -0.9 C 92 % -2.03 C
3217 30-01-2019 04:00:00 -0.9 C 92 % -2.03 C
3218 30-01-2019 04:05:00 -0.9 C 92 % -2.03 C
3219 30-01-2019 04:10:00 -0.9 C 92 % -2.03 C
3220 30-01-2019 04:15:00 -0.9 C 92 % -2.03 C
3221 30-01-2019 04:20:00 -0.9 C 93 % -1.89 C
3222 30-01-2019 04:25:00 -0.9 C 93 % -1.89 C
3223 30-01-2019 04:30:00 -0.9 C 93 % -1.89 C
3224 30-01-2019 04:35:00 -0.9 C 93 % -1.89 C
3225 30-01-2019 04:40:00 -0.9 C 93 % -1.89 C
Sensor: Nr:Datum:Temp:Feuchte:Taupunkt:
Aussen-T/F 3226 30-01-2019 04:45:00 -0.8 C 93 % -1.79 C
3227 30-01-2019 04:50:00 -0.8 C 93 % -1.79 C
3228 30-01-2019 04:55:00 -0.8 C 93 % -1.79 C
3229 30-01-2019 05:00:00 -0.7 C 93 % -1.69 C
3230 30-01-2019 05:05:00 -0.7 C 92 % -1.83 C
3231 30-01-2019 05:10:00 -0.6 C 92 % -1.74 C
3232 30-01-2019 05:15:00 -0.6 C 92 % -1.74 C
3233 30-01-2019 05:20:00 -0.6 C 92 % -1.74 C
3234 30-01-2019 05:25:00 -0.6 C 92 % -1.74 C
3235 30-01-2019 05:30:00 -0.5 C 92 % -1.64 C
3236 30-01-2019 05:35:00 -0.5 C 92 % -1.64 C
3237 30-01-2019 05:40:00 -0.4 C 92 % -1.54 C
3238 30-01-2019 05:45:00 -0.4 C 92 % -1.54 C
3239 30-01-2019 05:50:00 -0.3 C 92 % -1.44 C
3240 30-01-2019 05:55:00 -0.3 C 91 % -1.59 C
3241 30-01-2019 06:00:00 -0.3 C 91 % -1.59 C
3242 30-01-2019 06:05:00 -0.2 C 91 % -1.49 C
3243 30-01-2019 06:10:00 -0.2 C 91 % -1.49 C
3244 30-01-2019 06:15:00 -0.2 C 91 % -1.49 C
3245 30-01-2019 06:20:00 -0.2 C 91 % -1.49 C
3246 30-01-2019 06:25:00 -0.1 C 91 % -1.39 C
3247 30-01-2019 06:30:00 -0.1 C 91 % -1.39 C
3248 30-01-2019 06:35:00 -0.1 C 90 % -1.54 C
3249 30-01-2019 06:40:00 -0.1 C 90 % -1.54 C
3250 30-01-2019 06:45:00 0 C 90 % -1.44 C
Sensor: Nr:Datum:Temp:Feuchte:Taupunkt:
Aussen-T/F 3251 30-01-2019 06:50:00 0.1 C 90 % -1.34 C
3252 30-01-2019 06:55:00 0.1 C 90 % -1.34 C
3253 30-01-2019 07:00:00 0.2 C 89 % -1.39 C
3254 30-01-2019 07:05:00 0.2 C 89 % -1.39 C
3255 30-01-2019 07:10:00 0.3 C 88 % -1.45 C
3256 30-01-2019 07:15:00 0.3 C 88 % -1.45 C
3257 30-01-2019 07:20:00 0.3 C 88 % -1.45 C
3258 30-01-2019 07:25:00 0.3 C 88 % -1.45 C
3259 30-01-2019 07:30:00 0.4 C 88 % -1.35 C
3260 30-01-2019 07:35:00 0.3 C 88 % -1.45 C
3261 30-01-2019 07:40:00 0.3 C 88 % -1.45 C
3262 30-01-2019 07:45:00 0.4 C 89 % -1.2 C
3263 30-01-2019 07:50:00 0.4 C 89 % -1.2 C
3264 30-01-2019 07:55:00 0.3 C 90 % -1.14 C
3265 30-01-2019 08:00:00 0.3 C 90 % -1.14 C
3266 30-01-2019 08:05:00 0.3 C 90 % -1.14 C
3267 30-01-2019 08:10:00 0.3 C 91 % -0.99 C
3268 30-01-2019 08:15:00 0.2 C 91 % -1.09 C
3269 30-01-2019 08:20:00 0.2 C 91 % -1.09 C
3270 30-01-2019 08:25:00 0.2 C 92 % -0.94 C
3271 30-01-2019 08:30:00 0.1 C 92 % -1.04 C
3272 30-01-2019 08:35:00 0.1 C 92 % -1.04 C
3273 30-01-2019 08:40:00 0.1 C 92 % -1.04 C
3274 30-01-2019 08:45:00 0.1 C 93 % -0.89 C
3275 30-01-2019 08:50:00 0.1 C 93 % -0.89 C
Sensor: Nr:Datum:Temp:Feuchte:Taupunkt:
Aussen-T/F 3276 30-01-2019 08:55:00 0 C 93 % -0.99 C
3277 30-01-2019 09:00:00 0 C 93 % -0.99 C
3278 30-01-2019 09:05:00 0 C 93 % -0.99 C
3279 30-01-2019 09:10:00 0 C 94 % -0.85 C
3280 30-01-2019 09:15:00 0 C 94 % -0.85 C
3281 30-01-2019 09:20:00 0 C 94 % -0.85 C
3282 30-01-2019 09:25:00 0 C 94 % -0.85 C
3283 30-01-2019 09:30:00 0 C 94 % -0.85 C
3284 30-01-2019 09:35:00 0 C 94 % -0.85 C
3285 30-01-2019 09:40:00 0 C 94 % -0.85 C
3286 30-01-2019 09:45:00 0.1 C 94 % -0.75 C
3287 30-01-2019 09:50:00 0.1 C 94 % -0.75 C
3288 30-01-2019 09:55:00 0.1 C 94 % -0.75 C
3289 30-01-2019 10:00:00 0.1 C 94 % -0.75 C
3290 30-01-2019 10:05:00 0.1 C 94 % -0.75 C
3291 30-01-2019 10:10:00 0.1 C 94 % -0.75 C
3292 30-01-2019 10:15:00 0.2 C 94 % -0.65 C
3293 30-01-2019 10:20:00 0.2 C 94 % -0.65 C
3294 30-01-2019 10:25:00 0.3 C 94 % -0.55 C
3295 30-01-2019 10:30:00 0.3 C 94 % -0.55 C
3296 30-01-2019 10:35:00 0.4 C 94 % -0.45 C
3297 30-01-2019 10:40:00 0.4 C 94 % -0.45 C
3298 30-01-2019 10:45:00 0.4 C 94 % -0.45 C
3299 30-01-2019 10:50:00 0.5 C 94 % -0.35 C
3300 30-01-2019 10:55:00 0.6 C 94 % -0.25 C
Sensor: Nr:Datum:Temp:Feuchte:Taupunkt:
Aussen-T/F 3301 30-01-2019 11:00:00 0.6 C 94 % -0.25 C
3302 30-01-2019 11:05:00 0.7 C 94 % -0.15 C
3303 30-01-2019 11:10:00 0.7 C 94 % -0.15 C
3304 30-01-2019 11:15:00 0.8 C 94 % -0.05 C
3305 30-01-2019 11:20:00 0.8 C 94 % -0.05 C
3306 30-01-2019 11:25:00 0.8 C 94 % -0.05 C
3307 30-01-2019 11:30:00 0.9 C 94 % 0.05 C
3308 30-01-2019 11:35:00 0.9 C 94 % 0.05 C
3309 30-01-2019 11:40:00 0.9 C 94 % 0.05 C
3310 30-01-2019 11:45:00 0.9 C 94 % 0.05 C
3311 30-01-2019 11:50:00 0.9 C 94 % 0.05 C
3312 30-01-2019 11:55:00 1 C 94 % 0.15 C
3313 30-01-2019 12:00:00 1.1 C 94 % 0.24 C
3314 30-01-2019 12:05:00 1.1 C 94 % 0.24 C
3315 30-01-2019 12:10:00 1.2 C 94 % 0.34 C
3316 30-01-2019 12:15:00 1.2 C 94 % 0.34 C
3317 30-01-2019 12:20:00 1.3 C 95 % 0.59 C
3318 30-01-2019 12:25:00 1.4 C 94 % 0.54 C
3319 30-01-2019 12:30:00 1.4 C 94 % 0.54 C
3320 30-01-2019 12:35:00 1.5 C 94 % 0.64 C
3321 30-01-2019 12:40:00 1.6 C 94 % 0.74 C
3322 30-01-2019 12:45:00 1.7 C 94 % 0.84 C
3323 30-01-2019 12:50:00 1.7 C 94 % 0.84 C
3324 30-01-2019 12:55:00 1.7 C 94 % 0.84 C
3325 30-01-2019 13:00:00 1.7 C 94 % 0.84 C
Sensor: Nr:Datum:Temp:Feuchte:Taupunkt:
Aussen-T/F 3326 30-01-2019 13:05:00 1.7 C 94 % 0.84 C
3327 30-01-2019 13:10:00 1.6 C 94 % 0.74 C
3328 30-01-2019 13:15:00 1.6 C 94 % 0.74 C
3329 30-01-2019 13:20:00 1.6 C 94 % 0.74 C
3330 30-01-2019 13:25:00 1.6 C 94 % 0.74 C
3331 30-01-2019 13:30:00 1.7 C 94 % 0.84 C
3332 30-01-2019 13:35:00 1.7 C 94 % 0.84 C
3333 30-01-2019 13:40:00 1.7 C 94 % 0.84 C
3334 30-01-2019 13:45:00 1.7 C 94 % 0.84 C
3335 30-01-2019 13:50:00 1.7 C 94 % 0.84 C
3336 30-01-2019 13:55:00 1.7 C 94 % 0.84 C
3337 30-01-2019 14:00:00 1.7 C 94 % 0.84 C
3338 30-01-2019 14:05:00 1.8 C 94 % 0.94 C
3339 30-01-2019 14:10:00 1.8 C 94 % 0.94 C
3340 30-01-2019 14:15:00 1.8 C 93 % 0.79 C
3341 30-01-2019 14:20:00 1.7 C 93 % 0.69 C
3342 30-01-2019 14:25:00 1.7 C 93 % 0.69 C
3343 30-01-2019 14:30:00 1.7 C 94 % 0.84 C
3344 30-01-2019 14:35:00 1.7 C 94 % 0.84 C
3345 30-01-2019 14:40:00 1.7 C 94 % 0.84 C
3346 30-01-2019 14:45:00 1.7 C 94 % 0.84 C
3347 30-01-2019 14:50:00 1.6 C 94 % 0.74 C
3348 30-01-2019 14:55:00 1.6 C 94 % 0.74 C
3349 30-01-2019 15:00:00 1.6 C 94 % 0.74 C
3350 30-01-2019 15:05:00 1.6 C 94 % 0.74 C
Sensor: Nr:Datum:Temp:Feuchte:Taupunkt:
Aussen-T/F 3351 30-01-2019 15:10:00 1.6 C 94 % 0.74 C
3352 30-01-2019 15:15:00 1.6 C 94 % 0.74 C
3353 30-01-2019 15:20:00 1.5 C 94 % 0.64 C
3354 30-01-2019 15:25:00 1.4 C 94 % 0.54 C
3355 30-01-2019 15:30:00 1.4 C 94 % 0.54 C
3356 30-01-2019 15:35:00 1.4 C 94 % 0.54 C
3357 30-01-2019 15:40:00 1.5 C 94 % 0.64 C
3358 30-01-2019 15:45:00 1.4 C 94 % 0.54 C
3359 30-01-2019 15:50:00 1.4 C 94 % 0.54 C
3360 30-01-2019 15:55:00 1.3 C 94 % 0.44 C
3361 30-01-2019 16:00:00 1.3 C 94 % 0.44 C
3362 30-01-2019 16:05:00 1.3 C 94 % 0.44 C
3363 30-01-2019 16:10:00 1.2 C 94 % 0.34 C
3364 30-01-2019 16:15:00 1.2 C 95 % 0.49 C
3365 30-01-2019 16:20:00 1.2 C 95 % 0.49 C
3366 30-01-2019 16:25:00 1.1 C 95 % 0.39 C
3367 30-01-2019 16:30:00 1.1 C 95 % 0.39 C
3368 30-01-2019 16:35:00 1.1 C 95 % 0.39 C
3369 30-01-2019 16:40:00 1.1 C 95 % 0.39 C
3370 30-01-2019 16:45:00 1.1 C 95 % 0.39 C
3371 30-01-2019 16:50:00 1.1 C 95 % 0.39 C
3372 30-01-2019 16:55:00 1.1 C 95 % 0.39 C
3373 30-01-2019 17:00:00 1.1 C 95 % 0.39 C
3374 30-01-2019 17:05:00 1.1 C 95 % 0.39 C
3375 30-01-2019 17:10:00 1.1 C 95 % 0.39 C
Sensor: Nr:Datum:Temp:Feuchte:Taupunkt:
Aussen-T/F 3376 30-01-2019 17:15:00 1.1 C 95 % 0.39 C
3377 30-01-2019 17:20:00 1.1 C 95 % 0.39 C
3378 30-01-2019 17:25:00 1.1 C 95 % 0.39 C
3379 30-01-2019 17:30:00 1.1 C 95 % 0.39 C
3380 30-01-2019 17:35:00 1.1 C 95 % 0.39 C
3381 30-01-2019 17:40:00 1.1 C 95 % 0.39 C
3382 30-01-2019 17:45:00 1.1 C 95 % 0.39 C
3383 30-01-2019 17:50:00 1.1 C 95 % 0.39 C
3384 30-01-2019 17:55:00 1.1 C 95 % 0.39 C
3385 30-01-2019 18:00:00 1.1 C 95 % 0.39 C
3386 30-01-2019 18:05:00 1.1 C 95 % 0.39 C
3387 30-01-2019 18:10:00 1.1 C 95 % 0.39 C
3388 30-01-2019 18:15:00 1 C 95 % 0.29 C
3389 30-01-2019 18:20:00 1.1 C 95 % 0.39 C
3390 30-01-2019 18:25:00 1 C 95 % 0.29 C
3391 30-01-2019 18:30:00 1.1 C 95 % 0.39 C
3392 30-01-2019 18:35:00 1 C 95 % 0.29 C
3393 30-01-2019 18:40:00 1.1 C 95 % 0.39 C
3394 30-01-2019 18:45:00 1.1 C 95 % 0.39 C
3395 30-01-2019 18:50:00 1.1 C 95 % 0.39 C
3396 30-01-2019 18:55:00 1.1 C 95 % 0.39 C
3397 30-01-2019 19:00:00 1.1 C 95 % 0.39 C
3398 30-01-2019 19:05:00 1.1 C 95 % 0.39 C
3399 30-01-2019 19:10:00 1.1 C 95 % 0.39 C
3400 30-01-2019 19:15:00 1.1 C 96 % 0.54 C
Sensor: Nr:Datum:Temp:Feuchte:Taupunkt:
Aussen-T/F 3401 30-01-2019 19:20:00 1.1 C 96 % 0.54 C
3402 30-01-2019 19:25:00 1.1 C 96 % 0.54 C
3403 30-01-2019 19:30:00 1.1 C 96 % 0.54 C
3404 30-01-2019 19:35:00 1.1 C 96 % 0.54 C
3405 30-01-2019 19:40:00 1.1 C 96 % 0.54 C
3406 30-01-2019 19:45:00 1.1 C 96 % 0.54 C
3407 30-01-2019 19:50:00 1 C 96 % 0.44 C
3408 30-01-2019 19:55:00 1 C 96 % 0.44 C
3409 30-01-2019 20:00:00 1 C 96 % 0.44 C
3410 30-01-2019 20:05:00 1 C 96 % 0.44 C
3411 30-01-2019 20:10:00 1 C 96 % 0.44 C
3412 30-01-2019 20:15:00 1 C 96 % 0.44 C
3413 30-01-2019 20:20:00 1.1 C 96 % 0.54 C
3414 30-01-2019 20:25:00 1.1 C 96 % 0.54 C
3415 30-01-2019 20:30:00 1.1 C 96 % 0.54 C
3416 30-01-2019 20:35:00 1.1 C 96 % 0.54 C
3417 30-01-2019 20:40:00 1 C 95 % 0.29 C
3418 30-01-2019 20:45:00 1 C 95 % 0.29 C
3419 30-01-2019 20:50:00 1 C 95 % 0.29 C
3420 30-01-2019 20:55:00 1 C 95 % 0.29 C
3421 30-01-2019 21:00:00 1 C 94 % 0.15 C
3422 30-01-2019 21:05:00 1 C 94 % 0.15 C
3423 30-01-2019 21:10:00 1 C 94 % 0.15 C
3424 30-01-2019 21:15:00 1 C 94 % 0.15 C
3425 30-01-2019 21:20:00 1 C 94 % 0.15 C
Sensor: Nr:Datum:Temp:Feuchte:Taupunkt:
Aussen-T/F 3426 30-01-2019 21:25:00 1 C 94 % 0.15 C
3427 30-01-2019 21:30:00 1 C 94 % 0.15 C
3428 30-01-2019 21:35:00 0.9 C 94 % 0.05 C
3429 30-01-2019 21:40:00 0.9 C 94 % 0.05 C
3430 30-01-2019 21:45:00 0.9 C 94 % 0.05 C
3431 30-01-2019 21:50:00 0.9 C 94 % 0.05 C
3432 30-01-2019 21:55:00 0.9 C 94 % 0.05 C
3433 30-01-2019 22:00:00 0.8 C 94 % -0.05 C
3434 30-01-2019 22:05:00 0.8 C 93 % -0.2 C
3435 30-01-2019 22:10:00 0.8 C 93 % -0.2 C
3436 30-01-2019 22:15:00 0.8 C 93 % -0.2 C
3437 30-01-2019 22:20:00 0.7 C 93 % -0.3 C
3438 30-01-2019 22:25:00 0.7 C 93 % -0.3 C
3439 30-01-2019 22:30:00 0.7 C 93 % -0.3 C
3440 30-01-2019 22:35:00 0.7 C 93 % -0.3 C
3441 30-01-2019 22:40:00 0.7 C 93 % -0.3 C
3442 30-01-2019 22:45:00 0.7 C 92 % -0.45 C
3443 30-01-2019 22:50:00 0.6 C 92 % -0.55 C
3444 30-01-2019 22:55:00 0.6 C 92 % -0.55 C
3445 30-01-2019 23:00:00 0.6 C 92 % -0.55 C
3446 30-01-2019 23:05:00 0.4 C 92 % -0.74 C
3447 30-01-2019 23:10:00 0.4 C 92 % -0.74 C
3448 30-01-2019 23:15:00 0.3 C 92 % -0.84 C
3449 30-01-2019 23:20:00 0.3 C 92 % -0.84 C
3450 30-01-2019 23:25:00 0.3 C 92 % -0.84 C
Sensor: Nr:Datum:Temp:Feuchte:Taupunkt:
Aussen-T/F 3451 30-01-2019 23:30:00 0.2 C 92 % -0.94 C
3452 30-01-2019 23:35:00 0.2 C 93 % -0.79 C
3453 30-01-2019 23:40:00 0.1 C 92 % -1.04 C
3454 30-01-2019 23:45:00 0.1 C 93 % -0.89 C
3455 30-01-2019 23:50:00 0 C 93 % -0.99 C
3456 30-01-2019 23:55:00 -0.1 C 93 % -1.09 C
3457 31-01-2019 00:00:00 -0.2 C 93 % -1.19 C
3458 31-01-2019 00:05:00 -0.2 C 93 % -1.19 C
3459 31-01-2019 00:10:00 -0.2 C 93 % -1.19 C
3460 31-01-2019 00:15:00 -0.2 C 93 % -1.19 C
3461 31-01-2019 00:20:00 -0.3 C 93 % -1.29 C
3462 31-01-2019 00:25:00 -0.3 C 93 % -1.29 C
3463 31-01-2019 00:30:00 -0.4 C 93 % -1.39 C
3464 31-01-2019 00:35:00 -0.4 C 93 % -1.39 C
3465 31-01-2019 00:40:00 -0.5 C 93 % -1.49 C
3466 31-01-2019 00:45:00 -0.6 C 93 % -1.59 C
3467 31-01-2019 00:50:00 -0.7 C 93 % -1.69 C
3468 31-01-2019 00:55:00 -0.8 C 93 % -1.79 C
3469 31-01-2019 01:00:00 -1 C 93 % -1.99 C
3470 31-01-2019 01:05:00 -1.1 C 93 % -2.09 C
3471 31-01-2019 01:10:00 -1.2 C 93 % -2.18 C
3472 31-01-2019 01:15:00 -1.3 C 93 % -2.28 C
3473 31-01-2019 01:20:00 -1.4 C 93 % -2.38 C
3474 31-01-2019 01:25:00 -1.4 C 94 % -2.24 C
3475 31-01-2019 01:30:00 -1.4 C 94 % -2.24 C
Sensor: Nr:Datum:Temp:Feuchte:Taupunkt:
Aussen-T/F 3476 31-01-2019 01:35:00 -1.4 C 94 % -2.24 C
3477 31-01-2019 01:40:00 -1.3 C 94 % -2.14 C
3478 31-01-2019 01:45:00 -1.2 C 95 % -1.9 C
3479 31-01-2019 01:50:00 -1.1 C 95 % -1.8 C
3480 31-01-2019 01:55:00 -1.1 C 95 % -1.8 C
3481 31-01-2019 02:00:00 -1.1 C 94 % -1.94 C
3482 31-01-2019 02:05:00 -1.2 C 94 % -2.04 C
3483 31-01-2019 02:10:00 -1.2 C 94 % -2.04 C
3484 31-01-2019 02:15:00 -1.2 C 94 % -2.04 C
3485 31-01-2019 02:20:00 -1.3 C 94 % -2.14 C
3486 31-01-2019 02:25:00 -1.3 C 95 % -2 C
3487 31-01-2019 02:30:00 -1.3 C 94 % -2.14 C
3488 31-01-2019 02:35:00 -1.3 C 95 % -2 C
3489 31-01-2019 02:40:00 -1.4 C 95 % -2.1 C
3490 31-01-2019 02:45:00 -1.4 C 95 % -2.1 C
3491 31-01-2019 02:50:00 -1.4 C 95 % -2.1 C
3492 31-01-2019 02:55:00 -1.4 C 95 % -2.1 C
3493 31-01-2019 03:00:00 -1.4 C 95 % -2.1 C
3494 31-01-2019 03:05:00 -1.4 C 95 % -2.1 C
3495 31-01-2019 03:10:00 -1.4 C 95 % -2.1 C
3496 31-01-2019 03:15:00 -1.4 C 95 % -2.1 C
3497 31-01-2019 03:20:00 -1.4 C 95 % -2.1 C
3498 31-01-2019 03:25:00 -1.4 C 95 % -2.1 C
3499 31-01-2019 03:30:00 -1.3 C 95 % -2 C
3500 31-01-2019 03:35:00 -1.3 C 95 % -2 C
Sensor: Nr:Datum:Temp:Feuchte:Taupunkt:
Aussen-T/F 3501 31-01-2019 03:40:00 -1.2 C 95 % -1.9 C
3502 31-01-2019 03:45:00 -1.2 C 95 % -1.9 C
3503 31-01-2019 03:50:00 -1.2 C 95 % -1.9 C
3504 31-01-2019 03:55:00 -1.1 C 95 % -1.8 C
3505 31-01-2019 04:00:00 -0.9 C 96 % -1.46 C
3506 31-01-2019 04:05:00 -0.9 C 96 % -1.46 C
3507 31-01-2019 04:10:00 -0.8 C 96 % -1.36 C
3508 31-01-2019 04:15:00 -0.8 C 96 % -1.36 C
3509 31-01-2019 04:20:00 -0.8 C 96 % -1.36 C
3510 31-01-2019 04:25:00 -0.8 C 96 % -1.36 C
3511 31-01-2019 04:30:00 -0.8 C 95 % -1.5 C
3512 31-01-2019 04:35:00 -0.8 C 95 % -1.5 C
3513 31-01-2019 04:40:00 -0.8 C 95 % -1.5 C
3514 31-01-2019 04:45:00 -0.8 C 95 % -1.5 C
3515 31-01-2019 04:50:00 -0.7 C 95 % -1.4 C
3516 31-01-2019 04:55:00 -0.7 C 96 % -1.26 C
3517 31-01-2019 05:00:00 -0.7 C 96 % -1.26 C
3518 31-01-2019 05:05:00 -0.7 C 96 % -1.26 C
3519 31-01-2019 05:10:00 -0.7 C 96 % -1.26 C
3520 31-01-2019 05:15:00 -0.7 C 96 % -1.26 C
3521 31-01-2019 05:20:00 -0.6 C 96 % -1.16 C
3522 31-01-2019 05:25:00 -0.6 C 96 % -1.16 C
3523 31-01-2019 05:30:00 -0.6 C 96 % -1.16 C
3524 31-01-2019 05:35:00 -0.6 C 96 % -1.16 C
3525 31-01-2019 05:40:00 -0.6 C 96 % -1.16 C
Sensor: Nr:Datum:Temp:Feuchte:Taupunkt:
Aussen-T/F 3526 31-01-2019 05:45:00 -0.6 C 96 % -1.16 C
3527 31-01-2019 05:50:00 -0.5 C 96 % -1.06 C
3528 31-01-2019 05:55:00 -0.5 C 96 % -1.06 C
3529 31-01-2019 06:00:00 -0.5 C 96 % -1.06 C
3530 31-01-2019 06:05:00 -0.5 C 96 % -1.06 C
3531 31-01-2019 06:10:00 -0.4 C 96 % -0.96 C
3532 31-01-2019 06:15:00 -0.4 C 96 % -0.96 C
3533 31-01-2019 06:20:00 -0.4 C 96 % -0.96 C
3534 31-01-2019 06:25:00 -0.4 C 96 % -0.96 C
3535 31-01-2019 06:30:00 -0.4 C 96 % -0.96 C
3536 31-01-2019 06:35:00 -0.4 C 96 % -0.96 C
3537 31-01-2019 06:40:00 -0.4 C 96 % -0.96 C
3538 31-01-2019 06:45:00 -0.4 C 96 % -0.96 C
3539 31-01-2019 06:50:00 -0.4 C 96 % -0.96 C
3540 31-01-2019 06:55:00 -0.4 C 96 % -0.96 C
3541 31-01-2019 07:00:00 -0.4 C 96 % -0.96 C
3542 31-01-2019 07:05:00 -0.5 C 96 % -1.06 C
3543 31-01-2019 07:10:00 -0.4 C 96 % -0.96 C
3544 31-01-2019 07:15:00 -0.4 C 96 % -0.96 C
3545 31-01-2019 07:20:00 -0.4 C 96 % -0.96 C
3546 31-01-2019 07:25:00 -0.4 C 96 % -0.96 C
3547 31-01-2019 07:30:00 -0.3 C 96 % -0.86 C
3548 31-01-2019 07:35:00 -0.3 C 96 % -0.86 C
3549 31-01-2019 07:40:00 -0.3 C 96 % -0.86 C
3550 31-01-2019 07:45:00 -0.3 C 96 % -0.86 C
Sensor: Nr:Datum:Temp:Feuchte:Taupunkt:
Aussen-T/F 3551 31-01-2019 07:50:00 -0.3 C 96 % -0.86 C
3552 31-01-2019 07:55:00 -0.3 C 96 % -0.86 C
3553 31-01-2019 08:00:00 -0.3 C 96 % -0.86 C
3554 31-01-2019 08:05:00 -0.3 C 96 % -0.86 C
3555 31-01-2019 08:10:00 -0.3 C 96 % -0.86 C
3556 31-01-2019 08:15:00 -0.3 C 96 % -0.86 C
3557 31-01-2019 08:20:00 -0.3 C 96 % -0.86 C
3558 31-01-2019 08:25:00 -0.3 C 96 % -0.86 C
3559 31-01-2019 08:30:00 -0.3 C 96 % -0.86 C
3560 31-01-2019 08:35:00 -0.3 C 96 % -0.86 C
3561 31-01-2019 08:40:00 -0.3 C 96 % -0.86 C
3562 31-01-2019 08:45:00 -0.3 C 96 % -0.86 C
3563 31-01-2019 08:50:00 -0.3 C 96 % -0.86 C
3564 31-01-2019 08:55:00 -0.2 C 96 % -0.76 C
3565 31-01-2019 09:00:00 -0.2 C 96 % -0.76 C
3566 31-01-2019 09:05:00 -0.1 C 96 % -0.66 C
3567 31-01-2019 09:10:00 -0.1 C 96 % -0.66 C
3568 31-01-2019 09:15:00 0.1 C 96 % -0.46 C
3569 31-01-2019 09:20:00 0.1 C 96 % -0.46 C
3570 31-01-2019 09:25:00 0.2 C 96 % -0.36 C
3571 31-01-2019 09:30:00 0.3 C 96 % -0.26 C
3572 31-01-2019 09:35:00 0.3 C 96 % -0.26 C
3573 31-01-2019 09:40:00 0.3 C 96 % -0.26 C
3574 31-01-2019 09:45:00 0.3 C 96 % -0.26 C
3575 31-01-2019 09:50:00 0.3 C 96 % -0.26 C
Sensor: Nr:Datum:Temp:Feuchte:Taupunkt:
Aussen-T/F 3576 31-01-2019 09:55:00 0.4 C 96 % -0.16 C
3577 31-01-2019 10:00:00 0.5 C 96 % -0.06 C
3578 31-01-2019 10:05:00 0.5 C 96 % -0.06 C
3579 31-01-2019 10:10:00 0.6 C 96 % 0.04 C
3580 31-01-2019 10:15:00 0.6 C 96 % 0.04 C
3581 31-01-2019 10:20:00 0.6 C 95 % -0.11 C
3582 31-01-2019 10:25:00 0.6 C 95 % -0.11 C
3583 31-01-2019 10:30:00 0.7 C 95 % -0.01 C
3584 31-01-2019 10:35:00 0.8 C 95 % 0.09 C
3585 31-01-2019 10:40:00 0.8 C 95 % 0.09 C
3586 31-01-2019 10:45:00 0.9 C 95 % 0.19 C
3587 31-01-2019 10:50:00 1 C 95 % 0.29 C
3588 31-01-2019 10:55:00 1.1 C 94 % 0.24 C
3589 31-01-2019 11:00:00 1.1 C 94 % 0.24 C
3590 31-01-2019 11:05:00 1.2 C 95 % 0.49 C
3591 31-01-2019 11:10:00 1.3 C 95 % 0.59 C
3592 31-01-2019 11:15:00 1.3 C 94 % 0.44 C
3593 31-01-2019 11:20:00 1.4 C 94 % 0.54 C
3594 31-01-2019 11:25:00 1.4 C 94 % 0.54 C
3595 31-01-2019 11:30:00 1.4 C 94 % 0.54 C
3596 31-01-2019 11:35:00 1.4 C 94 % 0.54 C
3597 31-01-2019 11:40:00 1.4 C 94 % 0.54 C
3598 31-01-2019 11:45:00 1.5 C 94 % 0.64 C
3599 31-01-2019 11:50:00 1.6 C 94 % 0.74 C
3600 31-01-2019 11:55:00 1.7 C 94 % 0.84 C
Sensor: Nr:Datum:Temp:Feuchte:Taupunkt:
Aussen-T/F 3601 31-01-2019 12:00:00 1.8 C 94 % 0.94 C
3602 31-01-2019 12:05:00 1.7 C 94 % 0.84 C
3603 31-01-2019 12:10:00 1.7 C 94 % 0.84 C
3604 31-01-2019 12:15:00 1.8 C 94 % 0.94 C
3605 31-01-2019 12:20:00 1.8 C 94 % 0.94 C
3606 31-01-2019 12:25:00 1.9 C 94 % 1.04 C
3607 31-01-2019 12:30:00 1.9 C 94 % 1.04 C
3608 31-01-2019 12:35:00 1.9 C 94 % 1.04 C
3609 31-01-2019 12:40:00 1.9 C 94 % 1.04 C
3610 31-01-2019 12:45:00 1.9 C 94 % 1.04 C
3611 31-01-2019 12:50:00 1.8 C 94 % 0.94 C
3612 31-01-2019 12:55:00 1.7 C 93 % 0.69 C
3613 31-01-2019 13:00:00 1.7 C 93 % 0.69 C
3614 31-01-2019 13:05:00 1.7 C 94 % 0.84 C
3615 31-01-2019 13:10:00 1.6 C 94 % 0.74 C
3616 31-01-2019 13:15:00 1.6 C 93 % 0.59 C
3617 31-01-2019 13:20:00 1.6 C 94 % 0.74 C
3618 31-01-2019 13:25:00 1.5 C 94 % 0.64 C
3619 31-01-2019 13:30:00 1.5 C 94 % 0.64 C
3620 31-01-2019 13:35:00 1.5 C 94 % 0.64 C
3621 31-01-2019 13:40:00 1.5 C 94 % 0.64 C
3622 31-01-2019 13:45:00 1.4 C 94 % 0.54 C
3623 31-01-2019 13:50:00 1.4 C 94 % 0.54 C
3624 31-01-2019 13:55:00 1.4 C 94 % 0.54 C
3625 31-01-2019 14:00:00 1.4 C 94 % 0.54 C
Sensor: Nr:Datum:Temp:Feuchte:Taupunkt:
Aussen-T/F 3626 31-01-2019 14:05:00 1.4 C 94 % 0.54 C
3627 31-01-2019 14:10:00 1.5 C 94 % 0.64 C
3628 31-01-2019 14:15:00 1.6 C 95 % 0.89 C
3629 31-01-2019 14:20:00 1.7 C 95 % 0.99 C
3630 31-01-2019 14:25:00 1.9 C 95 % 1.19 C
3631 31-01-2019 14:30:00 2 C 95 % 1.29 C
3632 31-01-2019 14:35:00 2.1 C 95 % 1.38 C
3633 31-01-2019 14:40:00 2.1 C 95 % 1.38 C
3634 31-01-2019 14:45:00 2.1 C 95 % 1.38 C
3635 31-01-2019 14:50:00 2.1 C 94 % 1.24 C
3636 31-01-2019 14:55:00 2.1 C 94 % 1.24 C
3637 31-01-2019 15:00:00 2.2 C 94 % 1.34 C
3638 31-01-2019 15:05:00 2.3 C 94 % 1.44 C
3639 31-01-2019 15:10:00 2.4 C 94 % 1.54 C
3640 31-01-2019 15:15:00 2.4 C 94 % 1.54 C
3641 31-01-2019 15:20:00 2.4 C 94 % 1.54 C
3642 31-01-2019 15:25:00 2.3 C 93 % 1.29 C
3643 31-01-2019 15:30:00 2.3 C 93 % 1.29 C
3644 31-01-2019 15:35:00 2.3 C 93 % 1.29 C
3645 31-01-2019 15:40:00 2.2 C 93 % 1.19 C
3646 31-01-2019 15:45:00 2.1 C 93 % 1.09 C
3647 31-01-2019 15:50:00 2.1 C 93 % 1.09 C
3648 31-01-2019 15:55:00 2 C 93 % 0.99 C
3649 31-01-2019 16:00:00 1.9 C 93 % 0.89 C
3650 31-01-2019 16:05:00 1.8 C 93 % 0.79 C
Sensor: Nr:Datum:Temp:Feuchte:Taupunkt:
Aussen-T/F 3651 31-01-2019 16:10:00 1.7 C 93 % 0.69 C
3652 31-01-2019 16:15:00 1.7 C 93 % 0.69 C
3653 31-01-2019 16:20:00 1.6 C 93 % 0.59 C
3654 31-01-2019 16:25:00 1.6 C 93 % 0.59 C
3655 31-01-2019 16:30:00 1.6 C 93 % 0.59 C
3656 31-01-2019 16:35:00 1.5 C 94 % 0.64 C
3657 31-01-2019 16:40:00 1.4 C 93 % 0.4 C
3658 31-01-2019 16:45:00 1.4 C 93 % 0.4 C
3659 31-01-2019 16:50:00 1.3 C 94 % 0.44 C
3660 31-01-2019 16:55:00 1.3 C 94 % 0.44 C
3661 31-01-2019 17:00:00 1.2 C 94 % 0.34 C
3662 31-01-2019 17:05:00 1.2 C 94 % 0.34 C
3663 31-01-2019 17:10:00 1.1 C 94 % 0.24 C
3664 31-01-2019 17:15:00 1.1 C 94 % 0.24 C
3665 31-01-2019 17:20:00 1.1 C 94 % 0.24 C
3666 31-01-2019 17:25:00 0.9 C 94 % 0.05 C
3667 31-01-2019 17:30:00 0.9 C 94 % 0.05 C
3668 31-01-2019 17:35:00 0.8 C 94 % -0.05 C
3669 31-01-2019 17:40:00 0.8 C 94 % -0.05 C
3670 31-01-2019 17:45:00 0.8 C 94 % -0.05 C
3671 31-01-2019 17:50:00 0.7 C 94 % -0.15 C
3672 31-01-2019 17:55:00 0.6 C 94 % -0.25 C
3673 31-01-2019 18:00:00 0.4 C 94 % -0.45 C
3674 31-01-2019 18:05:00 0.4 C 94 % -0.45 C
3675 31-01-2019 18:10:00 0.3 C 94 % -0.55 C
Sensor: Nr:Datum:Temp:Feuchte:Taupunkt:
Aussen-T/F 3676 31-01-2019 18:15:00 0.3 C 94 % -0.55 C
3677 31-01-2019 18:20:00 0.2 C 94 % -0.65 C
3678 31-01-2019 18:25:00 0.2 C 94 % -0.65 C
3679 31-01-2019 18:30:00 0 C 94 % -0.85 C
3680 31-01-2019 18:35:00 -0.1 C 94 % -0.95 C
3681 31-01-2019 18:40:00 -0.2 C 94 % -1.05 C
3682 31-01-2019 18:45:00 -0.2 C 94 % -1.05 C
3683 31-01-2019 18:50:00 -0.2 C 94 % -1.05 C
3684 31-01-2019 18:55:00 -0.3 C 94 % -1.15 C
3685 31-01-2019 19:00:00 -0.3 C 94 % -1.15 C
3686 31-01-2019 19:05:00 -0.4 C 94 % -1.25 C
3687 31-01-2019 19:10:00 -0.6 C 94 % -1.44 C
3688 31-01-2019 19:15:00 -0.8 C 93 % -1.79 C
3689 31-01-2019 19:20:00 -1 C 94 % -1.84 C
3690 31-01-2019 19:25:00 -1.2 C 93 % -2.18 C
3691 31-01-2019 19:30:00 -1.3 C 94 % -2.14 C
3692 31-01-2019 19:35:00 -1.4 C 94 % -2.24 C
3693 31-01-2019 19:40:00 -1.5 C 94 % -2.34 C
3694 31-01-2019 19:45:00 -1.6 C 94 % -2.44 C
3695 31-01-2019 19:50:00 -1.6 C 94 % -2.44 C
3696 31-01-2019 19:55:00 -1.7 C 94 % -2.54 C
3697 31-01-2019 20:00:00 -1.7 C 94 % -2.54 C
3698 31-01-2019 20:05:00 -1.8 C 94 % -2.64 C
3699 31-01-2019 20:10:00 -1.8 C 94 % -2.64 C
3700 31-01-2019 20:15:00 -1.9 C 94 % -2.73 C
Sensor: Nr:Datum:Temp:Feuchte:Taupunkt:
Aussen-T/F 3701 31-01-2019 20:20:00 -1.9 C 94 % -2.73 C
3702 31-01-2019 20:25:00 -1.9 C 94 % -2.73 C
3703 31-01-2019 20:30:00 -2 C 94 % -2.83 C
3704 31-01-2019 20:35:00 -2.1 C 94 % -2.93 C
3705 31-01-2019 20:40:00 -2.1 C 94 % -2.93 C
3706 31-01-2019 20:45:00 -2.1 C 94 % -2.93 C
3707 31-01-2019 20:50:00 -2.1 C 95 % -2.79 C
3708 31-01-2019 20:55:00 -2.1 C 95 % -2.79 C
3709 31-01-2019 21:00:00 -2.1 C 95 % -2.79 C
3710 31-01-2019 21:05:00 -2.1 C 95 % -2.79 C
3711 31-01-2019 21:10:00 -2.1 C 95 % -2.79 C
3712 31-01-2019 21:15:00 -2.1 C 95 % -2.79 C
3713 31-01-2019 21:20:00 -2.1 C 95 % -2.79 C
3714 31-01-2019 21:25:00 -2.1 C 95 % -2.79 C
3715 31-01-2019 21:30:00 -2.1 C 95 % -2.79 C
3716 31-01-2019 21:35:00 -2 C 95 % -2.69 C
3717 31-01-2019 21:40:00 -1.9 C 95 % -2.59 C
3718 31-01-2019 21:45:00 -1.9 C 95 % -2.59 C
3719 31-01-2019 21:50:00 -1.8 C 95 % -2.49 C
3720 31-01-2019 21:55:00 -1.8 C 95 % -2.49 C
3721 31-01-2019 22:00:00 -1.7 C 95 % -2.39 C
3722 31-01-2019 22:05:00 -1.7 C 96 % -2.25 C
3723 31-01-2019 22:10:00 -1.6 C 96 % -2.15 C
3724 31-01-2019 22:15:00 -1.6 C 96 % -2.15 C
3725 31-01-2019 22:20:00 -1.6 C 96 % -2.15 C
Sensor: Nr:Datum:Temp:Feuchte:Taupunkt:
Aussen-T/F 3726 31-01-2019 22:25:00 -1.6 C 96 % -2.15 C
3727 31-01-2019 22:30:00 -1.6 C 96 % -2.15 C
3728 31-01-2019 22:35:00 -1.6 C 96 % -2.15 C
3729 31-01-2019 22:40:00 -1.6 C 96 % -2.15 C
3730 31-01-2019 22:45:00 -1.6 C 96 % -2.15 C
3731 31-01-2019 22:50:00 -1.5 C 96 % -2.05 C
3732 31-01-2019 22:55:00 -1.5 C 96 % -2.05 C
3733 31-01-2019 23:00:00 -1.4 C 96 % -1.95 C
3734 31-01-2019 23:05:00 -1.4 C 96 % -1.95 C
3735 31-01-2019 23:10:00 -1.3 C 96 % -1.85 C
3736 31-01-2019 23:15:00 -1.3 C 96 % -1.85 C
3737 31-01-2019 23:20:00 -1.3 C 96 % -1.85 C
3738 31-01-2019 23:25:00 -1.3 C 96 % -1.85 C
3739 31-01-2019 23:30:00 -1.2 C 96 % -1.75 C
3740 31-01-2019 23:35:00 -1.2 C 96 % -1.75 C
3741 31-01-2019 23:40:00 -1.1 C 96 % -1.66 C
3742 31-01-2019 23:45:00 -1.1 C 96 % -1.66 C
3743 31-01-2019 23:50:00 -1.1 C 96 % -1.66 C
3744 31-01-2019 23:55:00 -1 C 96 % -1.56 C
3745 01-02-2019 00:00:00 -0.9 C 96 % -1.46 C
3746 01-02-2019 00:05:00 -0.9 C 96 % -1.46 C
3747 01-02-2019 00:10:00 -0.9 C 96 % -1.46 C
3748 01-02-2019 00:15:00 -0.8 C 96 % -1.36 C
3749 01-02-2019 00:20:00 -0.8 C 96 % -1.36 C
3750 01-02-2019 00:25:00 -0.8 C 96 % -1.36 C
Sensor: Nr:Datum:Temp:Feuchte:Taupunkt:
Aussen-T/F 3751 01-02-2019 00:30:00 -0.8 C 96 % -1.36 C
3752 01-02-2019 00:35:00 -0.7 C 96 % -1.26 C
3753 01-02-2019 00:40:00 -0.7 C 96 % -1.26 C
3754 01-02-2019 00:45:00 -0.7 C 96 % -1.26 C
3755 01-02-2019 00:50:00 -0.7 C 96 % -1.26 C
3756 01-02-2019 00:55:00 -0.6 C 96 % -1.16 C
3757 01-02-2019 01:00:00 -0.6 C 96 % -1.16 C
3758 01-02-2019 01:05:00 -0.6 C 96 % -1.16 C
3759 01-02-2019 01:10:00 -0.5 C 96 % -1.06 C
3760 01-02-2019 01:15:00 -0.5 C 96 % -1.06 C
3761 01-02-2019 01:20:00 -0.4 C 96 % -0.96 C
3762 01-02-2019 01:25:00 -0.4 C 96 % -0.96 C
3763 01-02-2019 01:30:00 -0.4 C 96 % -0.96 C
3764 01-02-2019 01:35:00 -0.4 C 96 % -0.96 C
3765 01-02-2019 01:40:00 -0.4 C 96 % -0.96 C
3766 01-02-2019 01:45:00 -0.4 C 96 % -0.96 C
3767 01-02-2019 01:50:00 -0.4 C 96 % -0.96 C
3768 01-02-2019 01:55:00 -0.3 C 96 % -0.86 C
3769 01-02-2019 02:00:00 -0.3 C 96 % -0.86 C
3770 01-02-2019 02:05:00 -0.3 C 96 % -0.86 C
3771 01-02-2019 02:10:00 -0.2 C 96 % -0.76 C
3772 01-02-2019 02:15:00 -0.2 C 96 % -0.76 C
3773 01-02-2019 02:20:00 -0.2 C 96 % -0.76 C
3774 01-02-2019 02:25:00 -0.2 C 96 % -0.76 C
3775 01-02-2019 02:30:00 -0.1 C 96 % -0.66 C
Sensor: Nr:Datum:Temp:Feuchte:Taupunkt:
Aussen-T/F 3776 01-02-2019 02:35:00 -0.1 C 96 % -0.66 C
3777 01-02-2019 02:40:00 -0.1 C 96 % -0.66 C
3778 01-02-2019 02:45:00 0 C 96 % -0.56 C
3779 01-02-2019 02:50:00 0.1 C 96 % -0.46 C
3780 01-02-2019 02:55:00 0.1 C 96 % -0.46 C
3781 01-02-2019 03:00:00 0.2 C 96 % -0.36 C
3782 01-02-2019 03:05:00 0.3 C 96 % -0.26 C
3783 01-02-2019 03:10:00 0.4 C 97 % -0.02 C
3784 01-02-2019 03:15:00 0.4 C 97 % -0.02 C
3785 01-02-2019 03:20:00 0.5 C 97 % 0.08 C
3786 01-02-2019 03:25:00 0.6 C 97 % 0.18 C
3787 01-02-2019 03:30:00 0.6 C 96 % 0.04 C
3788 01-02-2019 03:35:00 0.7 C 97 % 0.28 C
3789 01-02-2019 03:40:00 0.7 C 97 % 0.28 C
3790 01-02-2019 03:45:00 0.8 C 97 % 0.38 C
3791 01-02-2019 03:50:00 0.8 C 97 % 0.38 C
3792 01-02-2019 03:55:00 0.9 C 97 % 0.48 C
3793 01-02-2019 04:00:00 0.9 C 97 % 0.48 C
3794 01-02-2019 04:05:00 0.9 C 97 % 0.48 C
3795 01-02-2019 04:10:00 0.9 C 97 % 0.48 C
3796 01-02-2019 04:15:00 1 C 96 % 0.44 C
3797 01-02-2019 04:20:00 1.1 C 96 % 0.54 C
3798 01-02-2019 04:25:00 1.1 C 96 % 0.54 C
3799 01-02-2019 04:30:00 1.1 C 96 % 0.54 C
3800 01-02-2019 04:35:00 1.2 C 96 % 0.63 C
Sensor: Nr:Datum:Temp:Feuchte:Taupunkt:
Aussen-T/F 3801 01-02-2019 04:40:00 1.2 C 96 % 0.63 C
3802 01-02-2019 04:45:00 1.2 C 96 % 0.63 C
3803 01-02-2019 04:50:00 1.2 C 96 % 0.63 C
3804 01-02-2019 04:55:00 1.2 C 96 % 0.63 C
3805 01-02-2019 05:00:00 1.2 C 96 % 0.63 C
3806 01-02-2019 05:05:00 1.2 C 95 % 0.49 C
3807 01-02-2019 05:10:00 1.1 C 96 % 0.54 C
3808 01-02-2019 05:15:00 1.2 C 96 % 0.63 C
3809 01-02-2019 05:20:00 1.1 C 96 % 0.54 C
3810 01-02-2019 05:25:00 1.2 C 96 % 0.63 C
3811 01-02-2019 05:30:00 1.2 C 96 % 0.63 C
3812 01-02-2019 05:35:00 1.2 C 96 % 0.63 C
3813 01-02-2019 05:40:00 1.2 C 96 % 0.63 C
3814 01-02-2019 05:45:00 1.2 C 96 % 0.63 C
3815 01-02-2019 05:50:00 1.2 C 96 % 0.63 C
3816 01-02-2019 05:55:00 1.2 C 96 % 0.63 C
3817 01-02-2019 06:00:00 1.2 C 96 % 0.63 C
3818 01-02-2019 06:05:00 1.2 C 96 % 0.63 C
3819 01-02-2019 06:10:00 1.2 C 96 % 0.63 C
3820 01-02-2019 06:15:00 1.2 C 96 % 0.63 C
3821 01-02-2019 06:20:00 1.1 C 95 % 0.39 C
3822 01-02-2019 06:25:00 1.1 C 95 % 0.39 C
3823 01-02-2019 06:30:00 1.1 C 96 % 0.54 C
3824 01-02-2019 06:35:00 1.1 C 96 % 0.54 C
3825 01-02-2019 06:40:00 1.1 C 96 % 0.54 C
Sensor: Nr:Datum:Temp:Feuchte:Taupunkt:
Aussen-T/F 3826 01-02-2019 06:45:00 1.1 C 96 % 0.54 C
3827 01-02-2019 06:50:00 1.1 C 96 % 0.54 C
3828 01-02-2019 06:55:00 1.1 C 96 % 0.54 C
3829 01-02-2019 07:00:00 1.1 C 96 % 0.54 C
3830 01-02-2019 07:05:00 1.1 C 96 % 0.54 C
3831 01-02-2019 07:10:00 1.1 C 96 % 0.54 C
3832 01-02-2019 07:15:00 1.1 C 96 % 0.54 C
3833 01-02-2019 07:20:00 1.1 C 96 % 0.54 C
3834 01-02-2019 07:25:00 1.2 C 96 % 0.63 C
3835 01-02-2019 07:30:00 1.2 C 96 % 0.63 C
3836 01-02-2019 07:35:00 1.2 C 96 % 0.63 C
3837 01-02-2019 07:40:00 1.2 C 96 % 0.63 C
3838 01-02-2019 07:45:00 1.3 C 96 % 0.73 C
3839 01-02-2019 07:50:00 1.4 C 96 % 0.83 C
3840 01-02-2019 07:55:00 1.4 C 96 % 0.83 C
3841 01-02-2019 08:00:00 1.4 C 96 % 0.83 C
3842 01-02-2019 08:05:00 1.3 C 96 % 0.73 C
3843 01-02-2019 08:10:00 1.3 C 96 % 0.73 C
3844 01-02-2019 08:15:00 1.3 C 96 % 0.73 C
3845 01-02-2019 08:20:00 1.3 C 96 % 0.73 C
3846 01-02-2019 08:25:00 1.3 C 96 % 0.73 C
3847 01-02-2019 08:30:00 1.3 C 96 % 0.73 C
3848 01-02-2019 08:35:00 1.2 C 96 % 0.63 C
3849 01-02-2019 08:40:00 1.2 C 96 % 0.63 C
3850 01-02-2019 08:45:00 1.2 C 96 % 0.63 C
Sensor: Nr:Datum:Temp:Feuchte:Taupunkt:
Aussen-T/F 3851 01-02-2019 08:50:00 1.4 C 96 % 0.83 C
3852 01-02-2019 08:55:00 1.6 C 97 % 1.18 C
3853 01-02-2019 09:00:00 1.8 C 96 % 1.23 C
3854 01-02-2019 09:05:00 1.8 C 96 % 1.23 C
3855 01-02-2019 09:10:00 1.7 C 96 % 1.13 C
3856 01-02-2019 09:15:00 1.7 C 96 % 1.13 C
3857 01-02-2019 09:20:00 1.6 C 96 % 1.03 C
3858 01-02-2019 09:25:00 1.5 C 96 % 0.93 C
3859 01-02-2019 09:30:00 1.4 C 96 % 0.83 C
3860 01-02-2019 09:35:00 1.4 C 96 % 0.83 C
3861 01-02-2019 09:40:00 1.4 C 96 % 0.83 C
3862 01-02-2019 09:45:00 1.3 C 96 % 0.73 C
3863 01-02-2019 09:50:00 1.4 C 96 % 0.83 C
3864 01-02-2019 09:55:00 1.5 C 96 % 0.93 C
3865 01-02-2019 10:00:00 1.6 C 96 % 1.03 C
3866 01-02-2019 10:05:00 1.8 C 96 % 1.23 C
3867 01-02-2019 10:10:00 1.9 C 96 % 1.33 C
3868 01-02-2019 10:15:00 2 C 96 % 1.43 C
3869 01-02-2019 10:20:00 2.1 C 96 % 1.53 C
3870 01-02-2019 10:25:00 2.2 C 96 % 1.63 C
3871 01-02-2019 10:30:00 2.3 C 96 % 1.73 C
3872 01-02-2019 10:35:00 2.4 C 96 % 1.83 C
3873 01-02-2019 10:40:00 2.4 C 96 % 1.83 C
3874 01-02-2019 10:45:00 2.6 C 96 % 2.03 C
3875 01-02-2019 10:50:00 2.6 C 96 % 2.03 C
Sensor: Nr:Datum:Temp:Feuchte:Taupunkt:
Aussen-T/F 3876 01-02-2019 10:55:00 2.7 C 96 % 2.13 C
3877 01-02-2019 11:00:00 2.7 C 96 % 2.13 C
3878 01-02-2019 11:05:00 2.8 C 96 % 2.23 C
3879 01-02-2019 11:10:00 2.9 C 96 % 2.33 C
3880 01-02-2019 11:15:00 3 C 95 % 2.28 C
3881 01-02-2019 11:20:00 3.1 C 95 % 2.38 C
3882 01-02-2019 11:25:00 3.1 C 95 % 2.38 C
3883 01-02-2019 11:30:00 3.2 C 95 % 2.48 C
3884 01-02-2019 11:35:00 3.3 C 95 % 2.58 C
3885 01-02-2019 11:40:00 3.3 C 95 % 2.58 C
3886 01-02-2019 11:45:00 3.4 C 94 % 2.53 C
3887 01-02-2019 11:50:00 3.5 C 94 % 2.63 C
3888 01-02-2019 11:55:00 3.6 C 94 % 2.73 C